<?xml version="1.0" encoding="UTF-8" standalone="no" ?>
<gpx xmlns="http://www.topografix.com/GPX/1/1" xmlns:xsi="http://www.w3.org/2001/XMLSchema-instance" xsi:schemaLocation="http://www.topografix.com/GPX/1/1 http://www.topografix.com/GPX/1/1/gpx.xsd" version="1.1" creator="VisuGPX - https://www.visugpx.com">
  <metadata>
    <name>Les Haies</name>
    <desc><![CDATA[Pilat-rando 1/2 journée - niveau 4]]></desc>
  </metadata>
  <wpt lat="45.50135" lon="4.75141">
    <ele>355</ele>
  </wpt>
  <wpt lat="45.50143" lon="4.75144">
    <ele>356</ele>
  </wpt>
  <trk>
    <name><![CDATA[Les Haies_1]]></name>
    <trkseg>
      <trkpt lat="45.50135" lon="4.75141">
        <ele>355</ele>
        <time>2010-11-10T12:30:25Z</time>
      </trkpt>
      <trkpt lat="45.50145" lon="4.75141">
        <ele>356</ele>
        <time>2010-11-10T12:31:10Z</time>
      </trkpt>
      <trkpt lat="45.50154" lon="4.75144">
        <ele>357</ele>
        <time>2010-11-10T12:33:21Z</time>
      </trkpt>
      <trkpt lat="45.50164" lon="4.75146">
        <ele>357</ele>
        <time>2010-11-10T12:33:33Z</time>
      </trkpt>
      <trkpt lat="45.50173" lon="4.75138">
        <ele>363</ele>
        <time>2010-11-10T12:33:43Z</time>
      </trkpt>
      <trkpt lat="45.50182" lon="4.75131">
        <ele>363</ele>
        <time>2010-11-10T12:33:52Z</time>
      </trkpt>
      <trkpt lat="45.50191" lon="4.75125">
        <ele>364</ele>
        <time>2010-11-10T12:34:02Z</time>
      </trkpt>
      <trkpt lat="45.502" lon="4.75118">
        <ele>364</ele>
        <time>2010-11-10T12:34:09Z</time>
      </trkpt>
      <trkpt lat="45.50205" lon="4.75106">
        <ele>364</ele>
        <time>2010-11-10T12:34:18Z</time>
      </trkpt>
      <trkpt lat="45.5021" lon="4.75094">
        <ele>365</ele>
        <time>2010-11-10T12:34:26Z</time>
      </trkpt>
      <trkpt lat="45.50216" lon="4.75082">
        <ele>366</ele>
        <time>2010-11-10T12:34:34Z</time>
      </trkpt>
      <trkpt lat="45.50222" lon="4.75071">
        <ele>366</ele>
        <time>2010-11-10T12:34:43Z</time>
      </trkpt>
      <trkpt lat="45.50229" lon="4.7506">
        <ele>367</ele>
        <time>2010-11-10T12:34:52Z</time>
      </trkpt>
      <trkpt lat="45.50234" lon="4.75048">
        <ele>367</ele>
        <time>2010-11-10T12:35:01Z</time>
      </trkpt>
      <trkpt lat="45.50239" lon="4.75035">
        <ele>367</ele>
        <time>2010-11-10T12:35:10Z</time>
      </trkpt>
      <trkpt lat="45.50246" lon="4.75024">
        <ele>369</ele>
        <time>2010-11-10T12:35:19Z</time>
      </trkpt>
      <trkpt lat="45.50252" lon="4.75013">
        <ele>373</ele>
        <time>2010-11-10T12:35:27Z</time>
      </trkpt>
      <trkpt lat="45.50258" lon="4.75001">
        <ele>373</ele>
        <time>2010-11-10T12:35:35Z</time>
      </trkpt>
      <trkpt lat="45.50265" lon="4.74992">
        <ele>374</ele>
        <time>2010-11-10T12:35:43Z</time>
      </trkpt>
      <trkpt lat="45.50271" lon="4.74981">
        <ele>374</ele>
        <time>2010-11-10T12:35:51Z</time>
      </trkpt>
      <trkpt lat="45.50277" lon="4.74969">
        <ele>375</ele>
        <time>2010-11-10T12:35:59Z</time>
      </trkpt>
      <trkpt lat="45.50282" lon="4.74957">
        <ele>375</ele>
        <time>2010-11-10T12:36:08Z</time>
      </trkpt>
      <trkpt lat="45.50288" lon="4.74947">
        <ele>375</ele>
        <time>2010-11-10T12:36:16Z</time>
      </trkpt>
      <trkpt lat="45.50294" lon="4.74936">
        <ele>375</ele>
        <time>2010-11-10T12:36:25Z</time>
      </trkpt>
      <trkpt lat="45.50301" lon="4.74926">
        <ele>376</ele>
        <time>2010-11-10T12:36:33Z</time>
      </trkpt>
      <trkpt lat="45.50306" lon="4.74913">
        <ele>375</ele>
        <time>2010-11-10T12:36:40Z</time>
      </trkpt>
      <trkpt lat="45.50313" lon="4.74903">
        <ele>376</ele>
        <time>2010-11-10T12:36:48Z</time>
      </trkpt>
      <trkpt lat="45.50319" lon="4.74893">
        <ele>376</ele>
        <time>2010-11-10T12:36:55Z</time>
      </trkpt>
      <trkpt lat="45.50324" lon="4.74881">
        <ele>375</ele>
        <time>2010-11-10T12:37:05Z</time>
      </trkpt>
      <trkpt lat="45.5033" lon="4.7487">
        <ele>375</ele>
        <time>2010-11-10T12:37:13Z</time>
      </trkpt>
      <trkpt lat="45.50336" lon="4.74858">
        <ele>379</ele>
        <time>2010-11-10T12:37:24Z</time>
      </trkpt>
      <trkpt lat="45.50341" lon="4.74847">
        <ele>379</ele>
        <time>2010-11-10T12:37:41Z</time>
      </trkpt>
      <trkpt lat="45.50346" lon="4.74835">
        <ele>378</ele>
        <time>2010-11-10T12:38:17Z</time>
      </trkpt>
      <trkpt lat="45.50351" lon="4.74823">
        <ele>378</ele>
        <time>2010-11-10T12:38:37Z</time>
      </trkpt>
      <trkpt lat="45.50355" lon="4.74811">
        <ele>378</ele>
        <time>2010-11-10T12:38:46Z</time>
      </trkpt>
      <trkpt lat="45.50361" lon="4.74801">
        <ele>378</ele>
        <time>2010-11-10T12:39:12Z</time>
      </trkpt>
      <trkpt lat="45.50368" lon="4.74791">
        <ele>378</ele>
        <time>2010-11-10T12:39:25Z</time>
      </trkpt>
      <trkpt lat="45.50375" lon="4.7478">
        <ele>378</ele>
        <time>2010-11-10T12:39:33Z</time>
      </trkpt>
      <trkpt lat="45.50379" lon="4.74768">
        <ele>378</ele>
        <time>2010-11-10T12:39:42Z</time>
      </trkpt>
      <trkpt lat="45.50381" lon="4.74754">
        <ele>379</ele>
        <time>2010-11-10T12:39:49Z</time>
      </trkpt>
      <trkpt lat="45.50385" lon="4.74743">
        <ele>378</ele>
        <time>2010-11-10T12:40:16Z</time>
      </trkpt>
      <trkpt lat="45.50385" lon="4.74729">
        <ele>377</ele>
        <time>2010-11-10T12:41:07Z</time>
      </trkpt>
      <trkpt lat="45.50388" lon="4.74715">
        <ele>377</ele>
        <time>2010-11-10T12:41:15Z</time>
      </trkpt>
      <trkpt lat="45.50389" lon="4.747">
        <ele>377</ele>
        <time>2010-11-10T12:41:23Z</time>
      </trkpt>
      <trkpt lat="45.5039" lon="4.74687">
        <ele>378</ele>
        <time>2010-11-10T12:41:29Z</time>
      </trkpt>
      <trkpt lat="45.50392" lon="4.74673">
        <ele>378</ele>
        <time>2010-11-10T12:41:36Z</time>
      </trkpt>
      <trkpt lat="45.50395" lon="4.74659">
        <ele>379</ele>
        <time>2010-11-10T12:41:43Z</time>
      </trkpt>
      <trkpt lat="45.50396" lon="4.74645">
        <ele>378</ele>
        <time>2010-11-10T12:41:50Z</time>
      </trkpt>
      <trkpt lat="45.50395" lon="4.7463">
        <ele>378</ele>
        <time>2010-11-10T12:41:57Z</time>
      </trkpt>
      <trkpt lat="45.50393" lon="4.74616">
        <ele>378</ele>
        <time>2010-11-10T12:42:04Z</time>
      </trkpt>
      <trkpt lat="45.5039" lon="4.74603">
        <ele>378</ele>
        <time>2010-11-10T12:42:10Z</time>
      </trkpt>
      <trkpt lat="45.50389" lon="4.74588">
        <ele>379</ele>
        <time>2010-11-10T12:42:17Z</time>
      </trkpt>
      <trkpt lat="45.50388" lon="4.74574">
        <ele>380</ele>
        <time>2010-11-10T12:42:24Z</time>
      </trkpt>
      <trkpt lat="45.50385" lon="4.7456">
        <ele>380</ele>
        <time>2010-11-10T12:42:31Z</time>
      </trkpt>
      <trkpt lat="45.5038" lon="4.74549">
        <ele>379</ele>
        <time>2010-11-10T12:42:37Z</time>
      </trkpt>
      <trkpt lat="45.50373" lon="4.74539">
        <ele>379</ele>
        <time>2010-11-10T12:42:43Z</time>
      </trkpt>
      <trkpt lat="45.50366" lon="4.74531">
        <ele>379</ele>
        <time>2010-11-10T12:42:49Z</time>
      </trkpt>
      <trkpt lat="45.50358" lon="4.74523">
        <ele>378</ele>
        <time>2010-11-10T12:42:56Z</time>
      </trkpt>
      <trkpt lat="45.50349" lon="4.74515">
        <ele>378</ele>
        <time>2010-11-10T12:43:03Z</time>
      </trkpt>
      <trkpt lat="45.50341" lon="4.74506">
        <ele>377</ele>
        <time>2010-11-10T12:43:11Z</time>
      </trkpt>
      <trkpt lat="45.50334" lon="4.74496">
        <ele>376</ele>
        <time>2010-11-10T12:43:18Z</time>
      </trkpt>
      <trkpt lat="45.50326" lon="4.74486">
        <ele>374</ele>
        <time>2010-11-10T12:43:25Z</time>
      </trkpt>
      <trkpt lat="45.50318" lon="4.74477">
        <ele>373</ele>
        <time>2010-11-10T12:43:32Z</time>
      </trkpt>
      <trkpt lat="45.50309" lon="4.7447">
        <ele>372</ele>
        <time>2010-11-10T12:43:39Z</time>
      </trkpt>
      <trkpt lat="45.503" lon="4.74464">
        <ele>372</ele>
        <time>2010-11-10T12:43:45Z</time>
      </trkpt>
      <trkpt lat="45.50291" lon="4.74459">
        <ele>371</ele>
        <time>2010-11-10T12:43:52Z</time>
      </trkpt>
      <trkpt lat="45.50281" lon="4.74454">
        <ele>371</ele>
        <time>2010-11-10T12:43:59Z</time>
      </trkpt>
      <trkpt lat="45.50272" lon="4.74451">
        <ele>370</ele>
        <time>2010-11-10T12:44:05Z</time>
      </trkpt>
      <trkpt lat="45.50263" lon="4.74449">
        <ele>369</ele>
        <time>2010-11-10T12:44:11Z</time>
      </trkpt>
      <trkpt lat="45.50253" lon="4.74444">
        <ele>369</ele>
        <time>2010-11-10T12:44:19Z</time>
      </trkpt>
      <trkpt lat="45.50245" lon="4.7444">
        <ele>361</ele>
        <time>2010-11-10T12:44:26Z</time>
      </trkpt>
      <trkpt lat="45.50236" lon="4.74435">
        <ele>361</ele>
        <time>2010-11-10T12:44:34Z</time>
      </trkpt>
      <trkpt lat="45.50227" lon="4.7443">
        <ele>360</ele>
        <time>2010-11-10T12:44:44Z</time>
      </trkpt>
      <trkpt lat="45.50217" lon="4.74426">
        <ele>359</ele>
        <time>2010-11-10T12:44:53Z</time>
      </trkpt>
      <trkpt lat="45.50207" lon="4.74423">
        <ele>357</ele>
        <time>2010-11-10T12:45:01Z</time>
      </trkpt>
      <trkpt lat="45.50197" lon="4.74421">
        <ele>356</ele>
        <time>2010-11-10T12:45:12Z</time>
      </trkpt>
      <trkpt lat="45.50188" lon="4.74421">
        <ele>354</ele>
        <time>2010-11-10T12:45:19Z</time>
      </trkpt>
      <trkpt lat="45.50176" lon="4.74423">
        <ele>351</ele>
        <time>2010-11-10T12:45:27Z</time>
      </trkpt>
      <trkpt lat="45.50174" lon="4.7441">
        <ele>349</ele>
        <time>2010-11-10T12:45:37Z</time>
      </trkpt>
      <trkpt lat="45.50179" lon="4.74399">
        <ele>350</ele>
        <time>2010-11-10T12:45:45Z</time>
      </trkpt>
      <trkpt lat="45.50184" lon="4.74388">
        <ele>351</ele>
        <time>2010-11-10T12:45:57Z</time>
      </trkpt>
      <trkpt lat="45.50179" lon="4.74375">
        <ele>350</ele>
        <time>2010-11-10T12:46:07Z</time>
      </trkpt>
      <trkpt lat="45.50169" lon="4.74371">
        <ele>350</ele>
        <time>2010-11-10T12:46:20Z</time>
      </trkpt>
      <trkpt lat="45.50161" lon="4.74365">
        <ele>343</ele>
        <time>2010-11-10T12:46:29Z</time>
      </trkpt>
      <trkpt lat="45.50151" lon="4.74367">
        <ele>342</ele>
        <time>2010-11-10T12:46:41Z</time>
      </trkpt>
      <trkpt lat="45.50142" lon="4.74369">
        <ele>342</ele>
        <time>2010-11-10T12:46:50Z</time>
      </trkpt>
      <trkpt lat="45.50132" lon="4.74373">
        <ele>341</ele>
        <time>2010-11-10T12:46:58Z</time>
      </trkpt>
      <trkpt lat="45.50122" lon="4.74374">
        <ele>340</ele>
        <time>2010-11-10T12:47:06Z</time>
      </trkpt>
      <trkpt lat="45.50113" lon="4.74378">
        <ele>340</ele>
        <time>2010-11-10T12:47:17Z</time>
      </trkpt>
      <trkpt lat="45.50105" lon="4.74372">
        <ele>339</ele>
        <time>2010-11-10T12:47:29Z</time>
      </trkpt>
      <trkpt lat="45.50105" lon="4.74357">
        <ele>339</ele>
        <time>2010-11-10T12:47:44Z</time>
      </trkpt>
      <trkpt lat="45.50101" lon="4.74345">
        <ele>338</ele>
        <time>2010-11-10T12:47:51Z</time>
      </trkpt>
      <trkpt lat="45.50098" lon="4.74331">
        <ele>339</ele>
        <time>2010-11-10T12:47:58Z</time>
      </trkpt>
      <trkpt lat="45.50095" lon="4.74319">
        <ele>339</ele>
        <time>2010-11-10T12:48:05Z</time>
      </trkpt>
      <trkpt lat="45.50094" lon="4.74304">
        <ele>340</ele>
        <time>2010-11-10T12:48:12Z</time>
      </trkpt>
      <trkpt lat="45.50092" lon="4.7429">
        <ele>341</ele>
        <time>2010-11-10T12:48:20Z</time>
      </trkpt>
      <trkpt lat="45.50091" lon="4.74275">
        <ele>341</ele>
        <time>2010-11-10T12:48:28Z</time>
      </trkpt>
      <trkpt lat="45.50092" lon="4.74262">
        <ele>340</ele>
        <time>2010-11-10T12:48:39Z</time>
      </trkpt>
      <trkpt lat="45.50094" lon="4.74249">
        <ele>341</ele>
        <time>2010-11-10T12:48:48Z</time>
      </trkpt>
      <trkpt lat="45.50093" lon="4.74234">
        <ele>342</ele>
        <time>2010-11-10T12:48:56Z</time>
      </trkpt>
      <trkpt lat="45.50085" lon="4.74226">
        <ele>343</ele>
        <time>2010-11-10T12:49:15Z</time>
      </trkpt>
      <trkpt lat="45.50076" lon="4.74223">
        <ele>344</ele>
        <time>2010-11-10T12:49:30Z</time>
      </trkpt>
      <trkpt lat="45.50066" lon="4.74222">
        <ele>345</ele>
        <time>2010-11-10T12:49:36Z</time>
      </trkpt>
      <trkpt lat="45.50059" lon="4.74213">
        <ele>346</ele>
        <time>2010-11-10T12:49:47Z</time>
      </trkpt>
      <trkpt lat="45.50054" lon="4.74201">
        <ele>347</ele>
        <time>2010-11-10T12:49:56Z</time>
      </trkpt>
      <trkpt lat="45.50056" lon="4.74187">
        <ele>346</ele>
        <time>2010-11-10T12:50:04Z</time>
      </trkpt>
      <trkpt lat="45.50054" lon="4.74172">
        <ele>347</ele>
        <time>2010-11-10T12:50:11Z</time>
      </trkpt>
      <trkpt lat="45.50053" lon="4.74159">
        <ele>348</ele>
        <time>2010-11-10T12:50:19Z</time>
      </trkpt>
      <trkpt lat="45.5005" lon="4.74146">
        <ele>349</ele>
        <time>2010-11-10T12:50:27Z</time>
      </trkpt>
      <trkpt lat="45.50042" lon="4.7414">
        <ele>351</ele>
        <time>2010-11-10T12:50:35Z</time>
      </trkpt>
      <trkpt lat="45.50038" lon="4.74152">
        <ele>351</ele>
        <time>2010-11-10T12:50:49Z</time>
      </trkpt>
      <trkpt lat="45.50032" lon="4.74163">
        <ele>352</ele>
        <time>2010-11-10T12:50:59Z</time>
      </trkpt>
      <trkpt lat="45.50032" lon="4.7418">
        <ele>350</ele>
        <time>2010-11-10T12:51:11Z</time>
      </trkpt>
      <trkpt lat="45.50027" lon="4.74192">
        <ele>350</ele>
        <time>2010-11-10T12:51:19Z</time>
      </trkpt>
      <trkpt lat="45.50028" lon="4.74205">
        <ele>350</ele>
        <time>2010-11-10T12:51:26Z</time>
      </trkpt>
      <trkpt lat="45.50024" lon="4.74219">
        <ele>350</ele>
        <time>2010-11-10T12:51:36Z</time>
      </trkpt>
      <trkpt lat="45.50022" lon="4.74232">
        <ele>350</ele>
        <time>2010-11-10T12:51:44Z</time>
      </trkpt>
      <trkpt lat="45.50017" lon="4.74245">
        <ele>351</ele>
        <time>2010-11-10T12:51:51Z</time>
      </trkpt>
      <trkpt lat="45.50013" lon="4.74258">
        <ele>350</ele>
        <time>2010-11-10T12:51:58Z</time>
      </trkpt>
      <trkpt lat="45.50008" lon="4.74272">
        <ele>349</ele>
        <time>2010-11-10T12:52:05Z</time>
      </trkpt>
      <trkpt lat="45.50008" lon="4.74286">
        <ele>348</ele>
        <time>2010-11-10T12:52:13Z</time>
      </trkpt>
      <trkpt lat="45.50008" lon="4.743">
        <ele>347</ele>
        <time>2010-11-10T12:52:20Z</time>
      </trkpt>
      <trkpt lat="45.50001" lon="4.7431">
        <ele>348</ele>
        <time>2010-11-10T12:52:28Z</time>
      </trkpt>
      <trkpt lat="45.49996" lon="4.74322">
        <ele>355</ele>
        <time>2010-11-10T12:52:36Z</time>
      </trkpt>
      <trkpt lat="45.49992" lon="4.74337">
        <ele>353</ele>
        <time>2010-11-10T12:52:44Z</time>
      </trkpt>
      <trkpt lat="45.49991" lon="4.74352">
        <ele>355</ele>
        <time>2010-11-10T12:52:51Z</time>
      </trkpt>
      <trkpt lat="45.49987" lon="4.74365">
        <ele>356</ele>
        <time>2010-11-10T12:52:59Z</time>
      </trkpt>
      <trkpt lat="45.49984" lon="4.74379">
        <ele>356</ele>
        <time>2010-11-10T12:53:06Z</time>
      </trkpt>
      <trkpt lat="45.49981" lon="4.74391">
        <ele>356</ele>
        <time>2010-11-10T12:53:13Z</time>
      </trkpt>
      <trkpt lat="45.49977" lon="4.74403">
        <ele>356</ele>
        <time>2010-11-10T12:53:21Z</time>
      </trkpt>
      <trkpt lat="45.49973" lon="4.74417">
        <ele>356</ele>
        <time>2010-11-10T12:53:29Z</time>
      </trkpt>
      <trkpt lat="45.4997" lon="4.74429">
        <ele>354</ele>
        <time>2010-11-10T12:53:36Z</time>
      </trkpt>
      <trkpt lat="45.49969" lon="4.74443">
        <ele>354</ele>
        <time>2010-11-10T12:53:42Z</time>
      </trkpt>
      <trkpt lat="45.49967" lon="4.74458">
        <ele>354</ele>
        <time>2010-11-10T12:53:49Z</time>
      </trkpt>
      <trkpt lat="45.49963" lon="4.7447">
        <ele>354</ele>
        <time>2010-11-10T12:53:57Z</time>
      </trkpt>
      <trkpt lat="45.49955" lon="4.7448">
        <ele>355</ele>
        <time>2010-11-10T12:54:05Z</time>
      </trkpt>
      <trkpt lat="45.4995" lon="4.74493">
        <ele>355</ele>
        <time>2010-11-10T12:54:12Z</time>
      </trkpt>
      <trkpt lat="45.49944" lon="4.74504">
        <ele>353</ele>
        <time>2010-11-10T12:54:19Z</time>
      </trkpt>
      <trkpt lat="45.49936" lon="4.74514">
        <ele>354</ele>
        <time>2010-11-10T12:54:27Z</time>
      </trkpt>
      <trkpt lat="45.49929" lon="4.74524">
        <ele>354</ele>
        <time>2010-11-10T12:54:35Z</time>
      </trkpt>
      <trkpt lat="45.49924" lon="4.74536">
        <ele>353</ele>
        <time>2010-11-10T12:54:43Z</time>
      </trkpt>
      <trkpt lat="45.49919" lon="4.74549">
        <ele>353</ele>
        <time>2010-11-10T12:54:52Z</time>
      </trkpt>
      <trkpt lat="45.49917" lon="4.74562">
        <ele>360</ele>
        <time>2010-11-10T12:54:59Z</time>
      </trkpt>
      <trkpt lat="45.49914" lon="4.74576">
        <ele>358</ele>
        <time>2010-11-10T12:55:07Z</time>
      </trkpt>
      <trkpt lat="45.49915" lon="4.7459">
        <ele>356</ele>
        <time>2010-11-10T12:55:14Z</time>
      </trkpt>
      <trkpt lat="45.49915" lon="4.74603">
        <ele>356</ele>
        <time>2010-11-10T12:55:21Z</time>
      </trkpt>
      <trkpt lat="45.49914" lon="4.74618">
        <ele>356</ele>
        <time>2010-11-10T12:55:30Z</time>
      </trkpt>
      <trkpt lat="45.49912" lon="4.74632">
        <ele>355</ele>
        <time>2010-11-10T12:55:38Z</time>
      </trkpt>
      <trkpt lat="45.4991" lon="4.74645">
        <ele>354</ele>
        <time>2010-11-10T12:55:48Z</time>
      </trkpt>
      <trkpt lat="45.499" lon="4.74646">
        <ele>355</ele>
        <time>2010-11-10T12:56:17Z</time>
      </trkpt>
      <trkpt lat="45.49896" lon="4.74635">
        <ele>356</ele>
        <time>2010-11-10T12:56:33Z</time>
      </trkpt>
      <trkpt lat="45.49891" lon="4.74623">
        <ele>357</ele>
        <time>2010-11-10T12:59:02Z</time>
      </trkpt>
      <trkpt lat="45.49886" lon="4.74611">
        <ele>357</ele>
        <time>2010-11-10T12:59:10Z</time>
      </trkpt>
      <trkpt lat="45.49881" lon="4.746">
        <ele>358</ele>
        <time>2010-11-10T12:59:18Z</time>
      </trkpt>
      <trkpt lat="45.4988" lon="4.74586">
        <ele>358</ele>
        <time>2010-11-10T12:59:26Z</time>
      </trkpt>
      <trkpt lat="45.49879" lon="4.74573">
        <ele>362</ele>
        <time>2010-11-10T12:59:35Z</time>
      </trkpt>
      <trkpt lat="45.49878" lon="4.74559">
        <ele>363</ele>
        <time>2010-11-10T12:59:44Z</time>
      </trkpt>
      <trkpt lat="45.49878" lon="4.74546">
        <ele>363</ele>
        <time>2010-11-10T12:59:55Z</time>
      </trkpt>
      <trkpt lat="45.49874" lon="4.74533">
        <ele>364</ele>
        <time>2010-11-10T13:00:05Z</time>
      </trkpt>
      <trkpt lat="45.49869" lon="4.74521">
        <ele>365</ele>
        <time>2010-11-10T13:00:14Z</time>
      </trkpt>
      <trkpt lat="45.49863" lon="4.74508">
        <ele>366</ele>
        <time>2010-11-10T13:00:23Z</time>
      </trkpt>
      <trkpt lat="45.49857" lon="4.74496">
        <ele>371</ele>
        <time>2010-11-10T13:00:32Z</time>
      </trkpt>
      <trkpt lat="45.49853" lon="4.74483">
        <ele>371</ele>
        <time>2010-11-10T13:00:41Z</time>
      </trkpt>
      <trkpt lat="45.49848" lon="4.7447">
        <ele>372</ele>
        <time>2010-11-10T13:00:49Z</time>
      </trkpt>
      <trkpt lat="45.49846" lon="4.74458">
        <ele>372</ele>
        <time>2010-11-10T13:00:57Z</time>
      </trkpt>
      <trkpt lat="45.49843" lon="4.74445">
        <ele>373</ele>
        <time>2010-11-10T13:01:04Z</time>
      </trkpt>
      <trkpt lat="45.49839" lon="4.74433">
        <ele>374</ele>
        <time>2010-11-10T13:01:11Z</time>
      </trkpt>
      <trkpt lat="45.49835" lon="4.74419">
        <ele>377</ele>
        <time>2010-11-10T13:01:19Z</time>
      </trkpt>
      <trkpt lat="45.49831" lon="4.74407">
        <ele>378</ele>
        <time>2010-11-10T13:01:27Z</time>
      </trkpt>
      <trkpt lat="45.49828" lon="4.74392">
        <ele>377</ele>
        <time>2010-11-10T13:01:34Z</time>
      </trkpt>
      <trkpt lat="45.49825" lon="4.7438">
        <ele>377</ele>
        <time>2010-11-10T13:01:41Z</time>
      </trkpt>
      <trkpt lat="45.49821" lon="4.74366">
        <ele>377</ele>
        <time>2010-11-10T13:01:49Z</time>
      </trkpt>
      <trkpt lat="45.49819" lon="4.74354">
        <ele>377</ele>
        <time>2010-11-10T13:01:56Z</time>
      </trkpt>
      <trkpt lat="45.49816" lon="4.7434">
        <ele>377</ele>
        <time>2010-11-10T13:02:04Z</time>
      </trkpt>
      <trkpt lat="45.49812" lon="4.74327">
        <ele>378</ele>
        <time>2010-11-10T13:02:12Z</time>
      </trkpt>
      <trkpt lat="45.49809" lon="4.74314">
        <ele>378</ele>
        <time>2010-11-10T13:02:19Z</time>
      </trkpt>
      <trkpt lat="45.49804" lon="4.74302">
        <ele>378</ele>
        <time>2010-11-10T13:02:26Z</time>
      </trkpt>
      <trkpt lat="45.498" lon="4.74289">
        <ele>379</ele>
        <time>2010-11-10T13:02:33Z</time>
      </trkpt>
      <trkpt lat="45.49796" lon="4.74277">
        <ele>379</ele>
        <time>2010-11-10T13:02:41Z</time>
      </trkpt>
      <trkpt lat="45.49792" lon="4.74264">
        <ele>379</ele>
        <time>2010-11-10T13:02:48Z</time>
      </trkpt>
      <trkpt lat="45.49787" lon="4.74252">
        <ele>379</ele>
        <time>2010-11-10T13:02:55Z</time>
      </trkpt>
      <trkpt lat="45.49783" lon="4.74239">
        <ele>381</ele>
        <time>2010-11-10T13:03:02Z</time>
      </trkpt>
      <trkpt lat="45.4978" lon="4.74224">
        <ele>381</ele>
        <time>2010-11-10T13:03:10Z</time>
      </trkpt>
      <trkpt lat="45.49776" lon="4.74211">
        <ele>382</ele>
        <time>2010-11-10T13:03:18Z</time>
      </trkpt>
      <trkpt lat="45.49773" lon="4.74197">
        <ele>382</ele>
        <time>2010-11-10T13:03:26Z</time>
      </trkpt>
      <trkpt lat="45.49768" lon="4.74185">
        <ele>383</ele>
        <time>2010-11-10T13:03:34Z</time>
      </trkpt>
      <trkpt lat="45.49761" lon="4.74174">
        <ele>384</ele>
        <time>2010-11-10T13:03:42Z</time>
      </trkpt>
      <trkpt lat="45.49755" lon="4.74161">
        <ele>385</ele>
        <time>2010-11-10T13:03:51Z</time>
      </trkpt>
      <trkpt lat="45.49749" lon="4.7415">
        <ele>387</ele>
        <time>2010-11-10T13:04:00Z</time>
      </trkpt>
      <trkpt lat="45.49744" lon="4.74138">
        <ele>387</ele>
        <time>2010-11-10T13:04:08Z</time>
      </trkpt>
      <trkpt lat="45.4974" lon="4.74125">
        <ele>388</ele>
        <time>2010-11-10T13:04:17Z</time>
      </trkpt>
      <trkpt lat="45.49733" lon="4.74114">
        <ele>388</ele>
        <time>2010-11-10T13:04:25Z</time>
      </trkpt>
      <trkpt lat="45.49729" lon="4.74102">
        <ele>389</ele>
        <time>2010-11-10T13:04:32Z</time>
      </trkpt>
      <trkpt lat="45.49724" lon="4.7409">
        <ele>389</ele>
        <time>2010-11-10T13:04:41Z</time>
      </trkpt>
      <trkpt lat="45.4972" lon="4.74077">
        <ele>391</ele>
        <time>2010-11-10T13:04:50Z</time>
      </trkpt>
      <trkpt lat="45.49715" lon="4.74065">
        <ele>391</ele>
        <time>2010-11-10T13:04:58Z</time>
      </trkpt>
      <trkpt lat="45.49709" lon="4.74054">
        <ele>392</ele>
        <time>2010-11-10T13:05:06Z</time>
      </trkpt>
      <trkpt lat="45.49705" lon="4.74041">
        <ele>392</ele>
        <time>2010-11-10T13:05:15Z</time>
      </trkpt>
      <trkpt lat="45.49701" lon="4.74029">
        <ele>392</ele>
        <time>2010-11-10T13:05:23Z</time>
      </trkpt>
      <trkpt lat="45.49696" lon="4.74017">
        <ele>392</ele>
        <time>2010-11-10T13:05:32Z</time>
      </trkpt>
      <trkpt lat="45.49692" lon="4.74003">
        <ele>392</ele>
        <time>2010-11-10T13:05:41Z</time>
      </trkpt>
      <trkpt lat="45.49687" lon="4.73992">
        <ele>394</ele>
        <time>2010-11-10T13:05:50Z</time>
      </trkpt>
      <trkpt lat="45.49683" lon="4.7398">
        <ele>395</ele>
        <time>2010-11-10T13:05:59Z</time>
      </trkpt>
      <trkpt lat="45.49679" lon="4.73967">
        <ele>395</ele>
        <time>2010-11-10T13:06:08Z</time>
      </trkpt>
      <trkpt lat="45.49673" lon="4.73956">
        <ele>395</ele>
        <time>2010-11-10T13:06:16Z</time>
      </trkpt>
      <trkpt lat="45.49669" lon="4.73943">
        <ele>396</ele>
        <time>2010-11-10T13:06:25Z</time>
      </trkpt>
      <trkpt lat="45.49663" lon="4.73931">
        <ele>396</ele>
        <time>2010-11-10T13:06:36Z</time>
      </trkpt>
      <trkpt lat="45.49655" lon="4.73922">
        <ele>396</ele>
        <time>2010-11-10T13:06:44Z</time>
      </trkpt>
      <trkpt lat="45.49644" lon="4.73921">
        <ele>396</ele>
        <time>2010-11-10T13:06:51Z</time>
      </trkpt>
      <trkpt lat="45.49635" lon="4.73918">
        <ele>396</ele>
        <time>2010-11-10T13:06:59Z</time>
      </trkpt>
      <trkpt lat="45.49625" lon="4.73915">
        <ele>398</ele>
        <time>2010-11-10T13:07:08Z</time>
      </trkpt>
      <trkpt lat="45.49615" lon="4.73913">
        <ele>398</ele>
        <time>2010-11-10T13:07:17Z</time>
      </trkpt>
      <trkpt lat="45.49606" lon="4.7391">
        <ele>398</ele>
        <time>2010-11-10T13:07:24Z</time>
      </trkpt>
      <trkpt lat="45.49596" lon="4.73904">
        <ele>398</ele>
        <time>2010-11-10T13:07:33Z</time>
      </trkpt>
      <trkpt lat="45.49587" lon="4.73903">
        <ele>398</ele>
        <time>2010-11-10T13:07:40Z</time>
      </trkpt>
      <trkpt lat="45.49577" lon="4.739">
        <ele>397</ele>
        <time>2010-11-10T13:07:48Z</time>
      </trkpt>
      <trkpt lat="45.49572" lon="4.73888">
        <ele>396</ele>
        <time>2010-11-10T13:07:56Z</time>
      </trkpt>
      <trkpt lat="45.49572" lon="4.73874">
        <ele>397</ele>
        <time>2010-11-10T13:08:04Z</time>
      </trkpt>
      <trkpt lat="45.49573" lon="4.7386">
        <ele>397</ele>
        <time>2010-11-10T13:08:11Z</time>
      </trkpt>
      <trkpt lat="45.49573" lon="4.73847">
        <ele>398</ele>
        <time>2010-11-10T13:08:19Z</time>
      </trkpt>
      <trkpt lat="45.49572" lon="4.73833">
        <ele>398</ele>
        <time>2010-11-10T13:08:26Z</time>
      </trkpt>
      <trkpt lat="45.49572" lon="4.73819">
        <ele>398</ele>
        <time>2010-11-10T13:08:33Z</time>
      </trkpt>
      <trkpt lat="45.49574" lon="4.73805">
        <ele>398</ele>
        <time>2010-11-10T13:08:41Z</time>
      </trkpt>
      <trkpt lat="45.49575" lon="4.73791">
        <ele>398</ele>
        <time>2010-11-10T13:08:48Z</time>
      </trkpt>
      <trkpt lat="45.49577" lon="4.73777">
        <ele>399</ele>
        <time>2010-11-10T13:08:56Z</time>
      </trkpt>
      <trkpt lat="45.49577" lon="4.73763">
        <ele>399</ele>
        <time>2010-11-10T13:09:04Z</time>
      </trkpt>
      <trkpt lat="45.49579" lon="4.7375">
        <ele>400</ele>
        <time>2010-11-10T13:09:13Z</time>
      </trkpt>
      <trkpt lat="45.49582" lon="4.73737">
        <ele>400</ele>
        <time>2010-11-10T13:09:21Z</time>
      </trkpt>
      <trkpt lat="45.49582" lon="4.73724">
        <ele>400</ele>
        <time>2010-11-10T13:09:29Z</time>
      </trkpt>
      <trkpt lat="45.49584" lon="4.7371">
        <ele>403</ele>
        <time>2010-11-10T13:09:38Z</time>
      </trkpt>
      <trkpt lat="45.49586" lon="4.73695">
        <ele>403</ele>
        <time>2010-11-10T13:09:46Z</time>
      </trkpt>
      <trkpt lat="45.49586" lon="4.73681">
        <ele>404</ele>
        <time>2010-11-10T13:09:54Z</time>
      </trkpt>
      <trkpt lat="45.49587" lon="4.73666">
        <ele>404</ele>
        <time>2010-11-10T13:10:02Z</time>
      </trkpt>
      <trkpt lat="45.49588" lon="4.73652">
        <ele>405</ele>
        <time>2010-11-10T13:10:10Z</time>
      </trkpt>
      <trkpt lat="45.49589" lon="4.73639">
        <ele>406</ele>
        <time>2010-11-10T13:10:19Z</time>
      </trkpt>
      <trkpt lat="45.49591" lon="4.73624">
        <ele>407</ele>
        <time>2010-11-10T13:10:28Z</time>
      </trkpt>
      <trkpt lat="45.49592" lon="4.73611">
        <ele>407</ele>
        <time>2010-11-10T13:10:36Z</time>
      </trkpt>
      <trkpt lat="45.49594" lon="4.73598">
        <ele>408</ele>
        <time>2010-11-10T13:10:43Z</time>
      </trkpt>
      <trkpt lat="45.49596" lon="4.73585">
        <ele>408</ele>
        <time>2010-11-10T13:10:52Z</time>
      </trkpt>
      <trkpt lat="45.49597" lon="4.73571">
        <ele>410</ele>
        <time>2010-11-10T13:11:00Z</time>
      </trkpt>
      <trkpt lat="45.496" lon="4.73557">
        <ele>411</ele>
        <time>2010-11-10T13:11:09Z</time>
      </trkpt>
      <trkpt lat="45.49601" lon="4.73543">
        <ele>412</ele>
        <time>2010-11-10T13:11:17Z</time>
      </trkpt>
      <trkpt lat="45.49604" lon="4.73529">
        <ele>412</ele>
        <time>2010-11-10T13:11:35Z</time>
      </trkpt>
      <trkpt lat="45.49605" lon="4.73515">
        <ele>413</ele>
        <time>2010-11-10T13:11:43Z</time>
      </trkpt>
      <trkpt lat="45.49607" lon="4.73501">
        <ele>413</ele>
        <time>2010-11-10T13:11:54Z</time>
      </trkpt>
      <trkpt lat="45.4961" lon="4.73489">
        <ele>416</ele>
        <time>2010-11-10T13:12:02Z</time>
      </trkpt>
      <trkpt lat="45.49613" lon="4.73476">
        <ele>416</ele>
        <time>2010-11-10T13:12:10Z</time>
      </trkpt>
      <trkpt lat="45.49616" lon="4.73463">
        <ele>417</ele>
        <time>2010-11-10T13:12:19Z</time>
      </trkpt>
      <trkpt lat="45.49618" lon="4.73449">
        <ele>417</ele>
        <time>2010-11-10T13:12:28Z</time>
      </trkpt>
      <trkpt lat="45.4962" lon="4.73436">
        <ele>417</ele>
        <time>2010-11-10T13:12:37Z</time>
      </trkpt>
      <trkpt lat="45.49622" lon="4.73421">
        <ele>418</ele>
        <time>2010-11-10T13:12:46Z</time>
      </trkpt>
      <trkpt lat="45.49622" lon="4.73408">
        <ele>420</ele>
        <time>2010-11-10T13:12:56Z</time>
      </trkpt>
      <trkpt lat="45.49622" lon="4.73394">
        <ele>421</ele>
        <time>2010-11-10T13:13:04Z</time>
      </trkpt>
      <trkpt lat="45.49623" lon="4.7338">
        <ele>421</ele>
        <time>2010-11-10T13:13:13Z</time>
      </trkpt>
      <trkpt lat="45.49621" lon="4.73365">
        <ele>421</ele>
        <time>2010-11-10T13:14:01Z</time>
      </trkpt>
      <trkpt lat="45.4962" lon="4.73352">
        <ele>421</ele>
        <time>2010-11-10T13:14:10Z</time>
      </trkpt>
      <trkpt lat="45.4962" lon="4.73338">
        <ele>422</ele>
        <time>2010-11-10T13:14:19Z</time>
      </trkpt>
      <trkpt lat="45.49619" lon="4.73323">
        <ele>424</ele>
        <time>2010-11-10T13:14:28Z</time>
      </trkpt>
      <trkpt lat="45.49619" lon="4.73309">
        <ele>424</ele>
        <time>2010-11-10T13:14:37Z</time>
      </trkpt>
      <trkpt lat="45.49619" lon="4.73295">
        <ele>425</ele>
        <time>2010-11-10T13:14:44Z</time>
      </trkpt>
      <trkpt lat="45.4962" lon="4.73281">
        <ele>425</ele>
        <time>2010-11-10T13:14:52Z</time>
      </trkpt>
      <trkpt lat="45.49619" lon="4.73267">
        <ele>425</ele>
        <time>2010-11-10T13:15:00Z</time>
      </trkpt>
      <trkpt lat="45.49619" lon="4.73253">
        <ele>425</ele>
        <time>2010-11-10T13:15:08Z</time>
      </trkpt>
      <trkpt lat="45.49619" lon="4.7324">
        <ele>428</ele>
        <time>2010-11-10T13:15:16Z</time>
      </trkpt>
      <trkpt lat="45.49617" lon="4.73225">
        <ele>428</ele>
        <time>2010-11-10T13:15:24Z</time>
      </trkpt>
      <trkpt lat="45.49616" lon="4.73212">
        <ele>428</ele>
        <time>2010-11-10T13:15:31Z</time>
      </trkpt>
      <trkpt lat="45.49616" lon="4.73198">
        <ele>429</ele>
        <time>2010-11-10T13:15:39Z</time>
      </trkpt>
      <trkpt lat="45.49617" lon="4.73184">
        <ele>429</ele>
        <time>2010-11-10T13:15:46Z</time>
      </trkpt>
      <trkpt lat="45.49615" lon="4.7317">
        <ele>429</ele>
        <time>2010-11-10T13:15:54Z</time>
      </trkpt>
      <trkpt lat="45.49615" lon="4.73155">
        <ele>432</ele>
        <time>2010-11-10T13:16:02Z</time>
      </trkpt>
      <trkpt lat="45.49615" lon="4.73141">
        <ele>432</ele>
        <time>2010-11-10T13:16:10Z</time>
      </trkpt>
      <trkpt lat="45.49615" lon="4.73127">
        <ele>432</ele>
        <time>2010-11-10T13:16:18Z</time>
      </trkpt>
      <trkpt lat="45.49613" lon="4.73114">
        <ele>432</ele>
        <time>2010-11-10T13:16:26Z</time>
      </trkpt>
      <trkpt lat="45.49612" lon="4.731">
        <ele>433</ele>
        <time>2010-11-10T13:16:34Z</time>
      </trkpt>
      <trkpt lat="45.49611" lon="4.73086">
        <ele>433</ele>
        <time>2010-11-10T13:16:42Z</time>
      </trkpt>
      <trkpt lat="45.49612" lon="4.73072">
        <ele>435</ele>
        <time>2010-11-10T13:16:51Z</time>
      </trkpt>
      <trkpt lat="45.49613" lon="4.73057">
        <ele>435</ele>
        <time>2010-11-10T13:17:00Z</time>
      </trkpt>
      <trkpt lat="45.49614" lon="4.73044">
        <ele>435</ele>
        <time>2010-11-10T13:17:08Z</time>
      </trkpt>
      <trkpt lat="45.49614" lon="4.7303">
        <ele>435</ele>
        <time>2010-11-10T13:17:16Z</time>
      </trkpt>
      <trkpt lat="45.49615" lon="4.73016">
        <ele>436</ele>
        <time>2010-11-10T13:17:24Z</time>
      </trkpt>
      <trkpt lat="45.49616" lon="4.73003">
        <ele>436</ele>
        <time>2010-11-10T13:17:32Z</time>
      </trkpt>
      <trkpt lat="45.49618" lon="4.72988">
        <ele>437</ele>
        <time>2010-11-10T13:17:40Z</time>
      </trkpt>
      <trkpt lat="45.49619" lon="4.72974">
        <ele>437</ele>
        <time>2010-11-10T13:17:48Z</time>
      </trkpt>
      <trkpt lat="45.49619" lon="4.7296">
        <ele>437</ele>
        <time>2010-11-10T13:17:56Z</time>
      </trkpt>
      <trkpt lat="45.49617" lon="4.72947">
        <ele>438</ele>
        <time>2010-11-10T13:18:04Z</time>
      </trkpt>
      <trkpt lat="45.49615" lon="4.72933">
        <ele>438</ele>
        <time>2010-11-10T13:18:12Z</time>
      </trkpt>
      <trkpt lat="45.49613" lon="4.72919">
        <ele>439</ele>
        <time>2010-11-10T13:18:20Z</time>
      </trkpt>
      <trkpt lat="45.4961" lon="4.72906">
        <ele>440</ele>
        <time>2010-11-10T13:18:28Z</time>
      </trkpt>
      <trkpt lat="45.49606" lon="4.72893">
        <ele>440</ele>
        <time>2010-11-10T13:18:36Z</time>
      </trkpt>
      <trkpt lat="45.49601" lon="4.7288">
        <ele>440</ele>
        <time>2010-11-10T13:18:44Z</time>
      </trkpt>
      <trkpt lat="45.49598" lon="4.72867">
        <ele>440</ele>
        <time>2010-11-10T13:18:52Z</time>
      </trkpt>
      <trkpt lat="45.49594" lon="4.72853">
        <ele>441</ele>
        <time>2010-11-10T13:18:59Z</time>
      </trkpt>
      <trkpt lat="45.49589" lon="4.72842">
        <ele>443</ele>
        <time>2010-11-10T13:19:06Z</time>
      </trkpt>
      <trkpt lat="45.49585" lon="4.72828">
        <ele>443</ele>
        <time>2010-11-10T13:19:14Z</time>
      </trkpt>
      <trkpt lat="45.49581" lon="4.72816">
        <ele>446</ele>
        <time>2010-11-10T13:19:21Z</time>
      </trkpt>
      <trkpt lat="45.49577" lon="4.72803">
        <ele>446</ele>
        <time>2010-11-10T13:19:28Z</time>
      </trkpt>
      <trkpt lat="45.49574" lon="4.72791">
        <ele>446</ele>
        <time>2010-11-10T13:19:35Z</time>
      </trkpt>
      <trkpt lat="45.4957" lon="4.72778">
        <ele>446</ele>
        <time>2010-11-10T13:19:42Z</time>
      </trkpt>
      <trkpt lat="45.49569" lon="4.72764">
        <ele>445</ele>
        <time>2010-11-10T13:19:49Z</time>
      </trkpt>
      <trkpt lat="45.49566" lon="4.72751">
        <ele>445</ele>
        <time>2010-11-10T13:19:56Z</time>
      </trkpt>
      <trkpt lat="45.49564" lon="4.72738">
        <ele>445</ele>
        <time>2010-11-10T13:20:03Z</time>
      </trkpt>
      <trkpt lat="45.49562" lon="4.72725">
        <ele>445</ele>
        <time>2010-11-10T13:20:10Z</time>
      </trkpt>
      <trkpt lat="45.4956" lon="4.72711">
        <ele>445</ele>
        <time>2010-11-10T13:20:18Z</time>
      </trkpt>
      <trkpt lat="45.49558" lon="4.72696">
        <ele>445</ele>
        <time>2010-11-10T13:20:26Z</time>
      </trkpt>
      <trkpt lat="45.49555" lon="4.72684">
        <ele>445</ele>
        <time>2010-11-10T13:20:33Z</time>
      </trkpt>
      <trkpt lat="45.49553" lon="4.72671">
        <ele>445</ele>
        <time>2010-11-10T13:20:40Z</time>
      </trkpt>
      <trkpt lat="45.4955" lon="4.72658">
        <ele>445</ele>
        <time>2010-11-10T13:20:47Z</time>
      </trkpt>
      <trkpt lat="45.49548" lon="4.72643">
        <ele>445</ele>
        <time>2010-11-10T13:20:55Z</time>
      </trkpt>
      <trkpt lat="45.49546" lon="4.72629">
        <ele>445</ele>
        <time>2010-11-10T13:21:03Z</time>
      </trkpt>
      <trkpt lat="45.49544" lon="4.72616">
        <ele>445</ele>
        <time>2010-11-10T13:21:11Z</time>
      </trkpt>
      <trkpt lat="45.49541" lon="4.72602">
        <ele>445</ele>
        <time>2010-11-10T13:21:21Z</time>
      </trkpt>
      <trkpt lat="45.49538" lon="4.72588">
        <ele>445</ele>
        <time>2010-11-10T13:21:28Z</time>
      </trkpt>
      <trkpt lat="45.49537" lon="4.72574">
        <ele>446</ele>
        <time>2010-11-10T13:21:35Z</time>
      </trkpt>
      <trkpt lat="45.49535" lon="4.7256">
        <ele>446</ele>
        <time>2010-11-10T13:21:42Z</time>
      </trkpt>
      <trkpt lat="45.49538" lon="4.72545">
        <ele>446</ele>
        <time>2010-11-10T13:21:50Z</time>
      </trkpt>
      <trkpt lat="45.49539" lon="4.72532">
        <ele>446</ele>
        <time>2010-11-10T13:21:57Z</time>
      </trkpt>
      <trkpt lat="45.4954" lon="4.72517">
        <ele>446</ele>
        <time>2010-11-10T13:22:05Z</time>
      </trkpt>
      <trkpt lat="45.49539" lon="4.72504">
        <ele>446</ele>
        <time>2010-11-10T13:22:14Z</time>
      </trkpt>
      <trkpt lat="45.49539" lon="4.72491">
        <ele>448</ele>
        <time>2010-11-10T13:22:22Z</time>
      </trkpt>
      <trkpt lat="45.49538" lon="4.72477">
        <ele>448</ele>
        <time>2010-11-10T13:23:43Z</time>
      </trkpt>
      <trkpt lat="45.4954" lon="4.72463">
        <ele>448</ele>
        <time>2010-11-10T13:23:50Z</time>
      </trkpt>
      <trkpt lat="45.49541" lon="4.72449">
        <ele>448</ele>
        <time>2010-11-10T13:23:57Z</time>
      </trkpt>
      <trkpt lat="45.49543" lon="4.72434">
        <ele>449</ele>
        <time>2010-11-10T13:24:05Z</time>
      </trkpt>
      <trkpt lat="45.49544" lon="4.7242">
        <ele>449</ele>
        <time>2010-11-10T13:24:13Z</time>
      </trkpt>
      <trkpt lat="45.49544" lon="4.72406">
        <ele>452</ele>
        <time>2010-11-10T13:24:21Z</time>
      </trkpt>
      <trkpt lat="45.49543" lon="4.72392">
        <ele>452</ele>
        <time>2010-11-10T13:24:29Z</time>
      </trkpt>
      <trkpt lat="45.49542" lon="4.72378">
        <ele>453</ele>
        <time>2010-11-10T13:24:40Z</time>
      </trkpt>
      <trkpt lat="45.4954" lon="4.72365">
        <ele>453</ele>
        <time>2010-11-10T13:25:40Z</time>
      </trkpt>
      <trkpt lat="45.49545" lon="4.72352">
        <ele>454</ele>
        <time>2010-11-10T13:25:49Z</time>
      </trkpt>
      <trkpt lat="45.49551" lon="4.72341">
        <ele>455</ele>
        <time>2010-11-10T13:25:58Z</time>
      </trkpt>
      <trkpt lat="45.49557" lon="4.7233">
        <ele>457</ele>
        <time>2010-11-10T13:26:07Z</time>
      </trkpt>
      <trkpt lat="45.49562" lon="4.72318">
        <ele>458</ele>
        <time>2010-11-10T13:26:17Z</time>
      </trkpt>
      <trkpt lat="45.49567" lon="4.72305">
        <ele>458</ele>
        <time>2010-11-10T13:26:26Z</time>
      </trkpt>
      <trkpt lat="45.49573" lon="4.72296">
        <ele>458</ele>
        <time>2010-11-10T13:26:35Z</time>
      </trkpt>
      <trkpt lat="45.49579" lon="4.72284">
        <ele>459</ele>
        <time>2010-11-10T13:26:45Z</time>
      </trkpt>
      <trkpt lat="45.49584" lon="4.72272">
        <ele>462</ele>
        <time>2010-11-10T13:26:54Z</time>
      </trkpt>
      <trkpt lat="45.4959" lon="4.7226">
        <ele>463</ele>
        <time>2010-11-10T13:27:03Z</time>
      </trkpt>
      <trkpt lat="45.49596" lon="4.72248">
        <ele>465</ele>
        <time>2010-11-10T13:27:12Z</time>
      </trkpt>
      <trkpt lat="45.49603" lon="4.72236">
        <ele>466</ele>
        <time>2010-11-10T13:27:20Z</time>
      </trkpt>
      <trkpt lat="45.49609" lon="4.72226">
        <ele>466</ele>
        <time>2010-11-10T13:27:28Z</time>
      </trkpt>
      <trkpt lat="45.49615" lon="4.72216">
        <ele>467</ele>
        <time>2010-11-10T13:27:36Z</time>
      </trkpt>
      <trkpt lat="45.49622" lon="4.72206">
        <ele>467</ele>
        <time>2010-11-10T13:27:44Z</time>
      </trkpt>
      <trkpt lat="45.49628" lon="4.72196">
        <ele>467</ele>
        <time>2010-11-10T13:27:52Z</time>
      </trkpt>
      <trkpt lat="45.49634" lon="4.72186">
        <ele>468</ele>
        <time>2010-11-10T13:28:02Z</time>
      </trkpt>
      <trkpt lat="45.49641" lon="4.72175">
        <ele>469</ele>
        <time>2010-11-10T13:28:12Z</time>
      </trkpt>
      <trkpt lat="45.49644" lon="4.72162">
        <ele>471</ele>
        <time>2010-11-10T13:28:21Z</time>
      </trkpt>
      <trkpt lat="45.4965" lon="4.72151">
        <ele>471</ele>
        <time>2010-11-10T13:28:29Z</time>
      </trkpt>
      <trkpt lat="45.49656" lon="4.7214">
        <ele>471</ele>
        <time>2010-11-10T13:28:39Z</time>
      </trkpt>
      <trkpt lat="45.4966" lon="4.72128">
        <ele>472</ele>
        <time>2010-11-10T13:28:47Z</time>
      </trkpt>
      <trkpt lat="45.49664" lon="4.72115">
        <ele>473</ele>
        <time>2010-11-10T13:28:56Z</time>
      </trkpt>
      <trkpt lat="45.49667" lon="4.72102">
        <ele>476</ele>
        <time>2010-11-10T13:30:32Z</time>
      </trkpt>
      <trkpt lat="45.49672" lon="4.72091">
        <ele>477</ele>
        <time>2010-11-10T13:30:43Z</time>
      </trkpt>
      <trkpt lat="45.49674" lon="4.72076">
        <ele>478</ele>
        <time>2010-11-10T13:30:53Z</time>
      </trkpt>
      <trkpt lat="45.49677" lon="4.72063">
        <ele>480</ele>
        <time>2010-11-10T13:31:02Z</time>
      </trkpt>
      <trkpt lat="45.4968" lon="4.72049">
        <ele>480</ele>
        <time>2010-11-10T13:31:11Z</time>
      </trkpt>
      <trkpt lat="45.49684" lon="4.72037">
        <ele>481</ele>
        <time>2010-11-10T13:31:19Z</time>
      </trkpt>
      <trkpt lat="45.49687" lon="4.72024">
        <ele>481</ele>
        <time>2010-11-10T13:31:26Z</time>
      </trkpt>
      <trkpt lat="45.49691" lon="4.72012">
        <ele>482</ele>
        <time>2010-11-10T13:31:34Z</time>
      </trkpt>
      <trkpt lat="45.49694" lon="4.71998">
        <ele>484</ele>
        <time>2010-11-10T13:31:42Z</time>
      </trkpt>
      <trkpt lat="45.49697" lon="4.71986">
        <ele>485</ele>
        <time>2010-11-10T13:31:50Z</time>
      </trkpt>
      <trkpt lat="45.49701" lon="4.71973">
        <ele>485</ele>
        <time>2010-11-10T13:31:59Z</time>
      </trkpt>
      <trkpt lat="45.49703" lon="4.7196">
        <ele>486</ele>
        <time>2010-11-10T13:32:07Z</time>
      </trkpt>
      <trkpt lat="45.49704" lon="4.71945">
        <ele>486</ele>
        <time>2010-11-10T13:32:16Z</time>
      </trkpt>
      <trkpt lat="45.49704" lon="4.71932">
        <ele>486</ele>
        <time>2010-11-10T13:32:24Z</time>
      </trkpt>
      <trkpt lat="45.49705" lon="4.71917">
        <ele>486</ele>
        <time>2010-11-10T13:32:33Z</time>
      </trkpt>
      <trkpt lat="45.49707" lon="4.71903">
        <ele>489</ele>
        <time>2010-11-10T13:32:42Z</time>
      </trkpt>
      <trkpt lat="45.49708" lon="4.71889">
        <ele>489</ele>
        <time>2010-11-10T13:32:53Z</time>
      </trkpt>
      <trkpt lat="45.49709" lon="4.71875">
        <ele>490</ele>
        <time>2010-11-10T13:33:01Z</time>
      </trkpt>
      <trkpt lat="45.49711" lon="4.71862">
        <ele>490</ele>
        <time>2010-11-10T13:33:09Z</time>
      </trkpt>
      <trkpt lat="45.49713" lon="4.71848">
        <ele>491</ele>
        <time>2010-11-10T13:33:17Z</time>
      </trkpt>
      <trkpt lat="45.49716" lon="4.71835">
        <ele>491</ele>
        <time>2010-11-10T13:33:25Z</time>
      </trkpt>
      <trkpt lat="45.4972" lon="4.71822">
        <ele>494</ele>
        <time>2010-11-10T13:33:32Z</time>
      </trkpt>
      <trkpt lat="45.49723" lon="4.7181">
        <ele>495</ele>
        <time>2010-11-10T13:33:40Z</time>
      </trkpt>
      <trkpt lat="45.49725" lon="4.71797">
        <ele>495</ele>
        <time>2010-11-10T13:33:47Z</time>
      </trkpt>
      <trkpt lat="45.49726" lon="4.71784">
        <ele>496</ele>
        <time>2010-11-10T13:33:57Z</time>
      </trkpt>
      <trkpt lat="45.49727" lon="4.71769">
        <ele>497</ele>
        <time>2010-11-10T13:34:05Z</time>
      </trkpt>
      <trkpt lat="45.49728" lon="4.71755">
        <ele>498</ele>
        <time>2010-11-10T13:34:13Z</time>
      </trkpt>
      <trkpt lat="45.49727" lon="4.7174">
        <ele>501</ele>
        <time>2010-11-10T13:34:22Z</time>
      </trkpt>
      <trkpt lat="45.49726" lon="4.71726">
        <ele>501</ele>
        <time>2010-11-10T13:34:33Z</time>
      </trkpt>
      <trkpt lat="45.49724" lon="4.71712">
        <ele>501</ele>
        <time>2010-11-10T13:34:44Z</time>
      </trkpt>
      <trkpt lat="45.49721" lon="4.71699">
        <ele>502</ele>
        <time>2010-11-10T13:34:53Z</time>
      </trkpt>
      <trkpt lat="45.4972" lon="4.71686">
        <ele>503</ele>
        <time>2010-11-10T13:35:01Z</time>
      </trkpt>
      <trkpt lat="45.49717" lon="4.71671">
        <ele>503</ele>
        <time>2010-11-10T13:35:10Z</time>
      </trkpt>
      <trkpt lat="45.49716" lon="4.71657">
        <ele>508</ele>
        <time>2010-11-10T13:35:19Z</time>
      </trkpt>
      <trkpt lat="45.49714" lon="4.71643">
        <ele>508</ele>
        <time>2010-11-10T13:35:27Z</time>
      </trkpt>
      <trkpt lat="45.49713" lon="4.71628">
        <ele>508</ele>
        <time>2010-11-10T13:35:35Z</time>
      </trkpt>
      <trkpt lat="45.49712" lon="4.71614">
        <ele>509</ele>
        <time>2010-11-10T13:35:43Z</time>
      </trkpt>
      <trkpt lat="45.49712" lon="4.716">
        <ele>509</ele>
        <time>2010-11-10T13:35:51Z</time>
      </trkpt>
      <trkpt lat="45.49712" lon="4.71586">
        <ele>510</ele>
        <time>2010-11-10T13:35:59Z</time>
      </trkpt>
      <trkpt lat="45.49712" lon="4.71572">
        <ele>515</ele>
        <time>2010-11-10T13:36:10Z</time>
      </trkpt>
      <trkpt lat="45.49711" lon="4.71558">
        <ele>515</ele>
        <time>2010-11-10T13:36:19Z</time>
      </trkpt>
      <trkpt lat="45.49713" lon="4.71545">
        <ele>516</ele>
        <time>2010-11-10T13:36:32Z</time>
      </trkpt>
      <trkpt lat="45.49711" lon="4.7153">
        <ele>516</ele>
        <time>2010-11-10T13:36:41Z</time>
      </trkpt>
      <trkpt lat="45.49709" lon="4.71516">
        <ele>517</ele>
        <time>2010-11-10T13:36:50Z</time>
      </trkpt>
      <trkpt lat="45.49707" lon="4.71502">
        <ele>517</ele>
        <time>2010-11-10T13:36:58Z</time>
      </trkpt>
      <trkpt lat="45.49705" lon="4.71489">
        <ele>523</ele>
        <time>2010-11-10T13:37:07Z</time>
      </trkpt>
      <trkpt lat="45.49704" lon="4.71475">
        <ele>523</ele>
        <time>2010-11-10T13:37:16Z</time>
      </trkpt>
      <trkpt lat="45.49702" lon="4.71461">
        <ele>524</ele>
        <time>2010-11-10T13:37:24Z</time>
      </trkpt>
      <trkpt lat="45.49699" lon="4.71447">
        <ele>524</ele>
        <time>2010-11-10T13:37:33Z</time>
      </trkpt>
      <trkpt lat="45.49697" lon="4.71433">
        <ele>525</ele>
        <time>2010-11-10T13:37:41Z</time>
      </trkpt>
      <trkpt lat="45.49696" lon="4.71419">
        <ele>524</ele>
        <time>2010-11-10T13:37:49Z</time>
      </trkpt>
      <trkpt lat="45.49692" lon="4.71406">
        <ele>532</ele>
        <time>2010-11-10T13:37:56Z</time>
      </trkpt>
      <trkpt lat="45.4969" lon="4.71394">
        <ele>533</ele>
        <time>2010-11-10T13:38:03Z</time>
      </trkpt>
      <trkpt lat="45.49688" lon="4.71379">
        <ele>535</ele>
        <time>2010-11-10T13:38:11Z</time>
      </trkpt>
      <trkpt lat="45.49686" lon="4.71366">
        <ele>536</ele>
        <time>2010-11-10T13:38:19Z</time>
      </trkpt>
      <trkpt lat="45.49685" lon="4.71351">
        <ele>536</ele>
        <time>2010-11-10T13:38:29Z</time>
      </trkpt>
      <trkpt lat="45.49683" lon="4.71338">
        <ele>535</ele>
        <time>2010-11-10T13:38:37Z</time>
      </trkpt>
      <trkpt lat="45.4968" lon="4.71325">
        <ele>541</ele>
        <time>2010-11-10T13:38:46Z</time>
      </trkpt>
      <trkpt lat="45.49677" lon="4.71313">
        <ele>544</ele>
        <time>2010-11-10T13:38:54Z</time>
      </trkpt>
      <trkpt lat="45.49673" lon="4.713">
        <ele>546</ele>
        <time>2010-11-10T13:39:03Z</time>
      </trkpt>
      <trkpt lat="45.4967" lon="4.71288">
        <ele>547</ele>
        <time>2010-11-10T13:39:11Z</time>
      </trkpt>
      <trkpt lat="45.49667" lon="4.71275">
        <ele>533</ele>
        <time>2010-11-10T13:39:19Z</time>
      </trkpt>
      <trkpt lat="45.49663" lon="4.71263">
        <ele>536</ele>
        <time>2010-11-10T13:39:28Z</time>
      </trkpt>
      <trkpt lat="45.49661" lon="4.71249">
        <ele>542</ele>
        <time>2010-11-10T13:39:37Z</time>
      </trkpt>
      <trkpt lat="45.49657" lon="4.71236">
        <ele>540</ele>
        <time>2010-11-10T13:39:44Z</time>
      </trkpt>
      <trkpt lat="45.4965" lon="4.71222">
        <ele>539</ele>
        <time>2010-11-10T13:39:53Z</time>
      </trkpt>
      <trkpt lat="45.49645" lon="4.7121">
        <ele>539</ele>
        <time>2010-11-10T13:40:02Z</time>
      </trkpt>
      <trkpt lat="45.49643" lon="4.71197">
        <ele>539</ele>
        <time>2010-11-10T13:40:10Z</time>
      </trkpt>
      <trkpt lat="45.49641" lon="4.71183">
        <ele>541</ele>
        <time>2010-11-10T13:40:20Z</time>
      </trkpt>
      <trkpt lat="45.49638" lon="4.71171">
        <ele>541</ele>
        <time>2010-11-10T13:40:29Z</time>
      </trkpt>
      <trkpt lat="45.49636" lon="4.71157">
        <ele>546</ele>
        <time>2010-11-10T13:40:37Z</time>
      </trkpt>
      <trkpt lat="45.49632" lon="4.71144">
        <ele>546</ele>
        <time>2010-11-10T13:40:44Z</time>
      </trkpt>
      <trkpt lat="45.49632" lon="4.7113">
        <ele>546</ele>
        <time>2010-11-10T13:40:51Z</time>
      </trkpt>
      <trkpt lat="45.49628" lon="4.71118">
        <ele>546</ele>
        <time>2010-11-10T13:40:58Z</time>
      </trkpt>
      <trkpt lat="45.49625" lon="4.71105">
        <ele>547</ele>
        <time>2010-11-10T13:41:07Z</time>
      </trkpt>
      <trkpt lat="45.49622" lon="4.71093">
        <ele>546</ele>
        <time>2010-11-10T13:41:15Z</time>
      </trkpt>
      <trkpt lat="45.49617" lon="4.71081">
        <ele>551</ele>
        <time>2010-11-10T13:41:22Z</time>
      </trkpt>
      <trkpt lat="45.49613" lon="4.71068">
        <ele>551</ele>
        <time>2010-11-10T13:41:29Z</time>
      </trkpt>
      <trkpt lat="45.49611" lon="4.71055">
        <ele>552</ele>
        <time>2010-11-10T13:41:36Z</time>
      </trkpt>
      <trkpt lat="45.49607" lon="4.71042">
        <ele>552</ele>
        <time>2010-11-10T13:41:44Z</time>
      </trkpt>
      <trkpt lat="45.49604" lon="4.71028">
        <ele>553</ele>
        <time>2010-11-10T13:41:52Z</time>
      </trkpt>
      <trkpt lat="45.496" lon="4.71015">
        <ele>553</ele>
        <time>2010-11-10T13:42:00Z</time>
      </trkpt>
      <trkpt lat="45.49596" lon="4.71002">
        <ele>552</ele>
        <time>2010-11-10T13:42:07Z</time>
      </trkpt>
      <trkpt lat="45.49593" lon="4.70989">
        <ele>555</ele>
        <time>2010-11-10T13:42:15Z</time>
      </trkpt>
      <trkpt lat="45.49591" lon="4.70976">
        <ele>556</ele>
        <time>2010-11-10T13:42:23Z</time>
      </trkpt>
      <trkpt lat="45.49588" lon="4.70963">
        <ele>557</ele>
        <time>2010-11-10T13:42:31Z</time>
      </trkpt>
      <trkpt lat="45.49586" lon="4.7095">
        <ele>557</ele>
        <time>2010-11-10T13:42:39Z</time>
      </trkpt>
      <trkpt lat="45.49581" lon="4.70936">
        <ele>557</ele>
        <time>2010-11-10T13:42:47Z</time>
      </trkpt>
      <trkpt lat="45.49576" lon="4.70925">
        <ele>557</ele>
        <time>2010-11-10T13:42:54Z</time>
      </trkpt>
      <trkpt lat="45.49575" lon="4.7091">
        <ele>559</ele>
        <time>2010-11-10T13:43:03Z</time>
      </trkpt>
      <trkpt lat="45.49573" lon="4.70896">
        <ele>560</ele>
        <time>2010-11-10T13:43:12Z</time>
      </trkpt>
      <trkpt lat="45.49582" lon="4.70892">
        <ele>559</ele>
        <time>2010-11-10T13:43:23Z</time>
      </trkpt>
      <trkpt lat="45.49592" lon="4.70892">
        <ele>557</ele>
        <time>2010-11-10T13:43:33Z</time>
      </trkpt>
      <trkpt lat="45.49601" lon="4.70892">
        <ele>557</ele>
        <time>2010-11-10T13:43:41Z</time>
      </trkpt>
      <trkpt lat="45.49611" lon="4.70893">
        <ele>557</ele>
        <time>2010-11-10T13:43:48Z</time>
      </trkpt>
      <trkpt lat="45.49621" lon="4.7089">
        <ele>557</ele>
        <time>2010-11-10T13:43:56Z</time>
      </trkpt>
      <trkpt lat="45.49631" lon="4.70883">
        <ele>557</ele>
        <time>2010-11-10T13:44:03Z</time>
      </trkpt>
      <trkpt lat="45.49639" lon="4.70876">
        <ele>557</ele>
        <time>2010-11-10T13:44:10Z</time>
      </trkpt>
      <trkpt lat="45.49647" lon="4.70869">
        <ele>557</ele>
        <time>2010-11-10T13:44:18Z</time>
      </trkpt>
      <trkpt lat="45.49655" lon="4.70862">
        <ele>556</ele>
        <time>2010-11-10T13:44:26Z</time>
      </trkpt>
      <trkpt lat="45.49664" lon="4.70856">
        <ele>556</ele>
        <time>2010-11-10T13:44:33Z</time>
      </trkpt>
      <trkpt lat="45.49672" lon="4.70848">
        <ele>558</ele>
        <time>2010-11-10T13:44:40Z</time>
      </trkpt>
      <trkpt lat="45.4968" lon="4.7084">
        <ele>558</ele>
        <time>2010-11-10T13:44:47Z</time>
      </trkpt>
      <trkpt lat="45.49689" lon="4.70834">
        <ele>559</ele>
        <time>2010-11-10T13:44:54Z</time>
      </trkpt>
      <trkpt lat="45.49697" lon="4.70828">
        <ele>552</ele>
        <time>2010-11-10T13:45:02Z</time>
      </trkpt>
      <trkpt lat="45.49705" lon="4.7082">
        <ele>552</ele>
        <time>2010-11-10T13:45:09Z</time>
      </trkpt>
      <trkpt lat="45.49714" lon="4.70812">
        <ele>552</ele>
        <time>2010-11-10T13:45:18Z</time>
      </trkpt>
      <trkpt lat="45.49723" lon="4.70805">
        <ele>552</ele>
        <time>2010-11-10T13:45:26Z</time>
      </trkpt>
      <trkpt lat="45.49731" lon="4.70798">
        <ele>552</ele>
        <time>2010-11-10T13:45:34Z</time>
      </trkpt>
      <trkpt lat="45.4974" lon="4.70791">
        <ele>551</ele>
        <time>2010-11-10T13:45:41Z</time>
      </trkpt>
      <trkpt lat="45.49748" lon="4.70784">
        <ele>550</ele>
        <time>2010-11-10T13:45:49Z</time>
      </trkpt>
      <trkpt lat="45.49756" lon="4.70776">
        <ele>554</ele>
        <time>2010-11-10T13:45:57Z</time>
      </trkpt>
      <trkpt lat="45.49763" lon="4.70768">
        <ele>553</ele>
        <time>2010-11-10T13:46:04Z</time>
      </trkpt>
      <trkpt lat="45.49771" lon="4.70759">
        <ele>553</ele>
        <time>2010-11-10T13:46:11Z</time>
      </trkpt>
      <trkpt lat="45.4978" lon="4.70753">
        <ele>554</ele>
        <time>2010-11-10T13:46:20Z</time>
      </trkpt>
      <trkpt lat="45.49788" lon="4.70747">
        <ele>546</ele>
        <time>2010-11-10T13:46:27Z</time>
      </trkpt>
      <trkpt lat="45.49797" lon="4.7074">
        <ele>547</ele>
        <time>2010-11-10T13:46:35Z</time>
      </trkpt>
      <trkpt lat="45.49806" lon="4.70732">
        <ele>547</ele>
        <time>2010-11-10T13:46:43Z</time>
      </trkpt>
      <trkpt lat="45.49815" lon="4.70725">
        <ele>547</ele>
        <time>2010-11-10T13:46:51Z</time>
      </trkpt>
      <trkpt lat="45.49824" lon="4.70718">
        <ele>547</ele>
        <time>2010-11-10T13:46:59Z</time>
      </trkpt>
      <trkpt lat="45.49833" lon="4.70712">
        <ele>546</ele>
        <time>2010-11-10T13:47:06Z</time>
      </trkpt>
      <trkpt lat="45.49842" lon="4.70705">
        <ele>550</ele>
        <time>2010-11-10T13:47:14Z</time>
      </trkpt>
      <trkpt lat="45.49851" lon="4.70701">
        <ele>549</ele>
        <time>2010-11-10T13:47:21Z</time>
      </trkpt>
      <trkpt lat="45.4986" lon="4.70695">
        <ele>549</ele>
        <time>2010-11-10T13:47:28Z</time>
      </trkpt>
      <trkpt lat="45.49869" lon="4.70689">
        <ele>549</ele>
        <time>2010-11-10T13:47:36Z</time>
      </trkpt>
      <trkpt lat="45.49878" lon="4.70683">
        <ele>549</ele>
        <time>2010-11-10T13:47:44Z</time>
      </trkpt>
      <trkpt lat="45.49888" lon="4.70678">
        <ele>548</ele>
        <time>2010-11-10T13:47:52Z</time>
      </trkpt>
      <trkpt lat="45.49897" lon="4.70672">
        <ele>548</ele>
        <time>2010-11-10T13:47:59Z</time>
      </trkpt>
      <trkpt lat="45.49907" lon="4.7067">
        <ele>547</ele>
        <time>2010-11-10T13:48:06Z</time>
      </trkpt>
      <trkpt lat="45.49916" lon="4.70668">
        <ele>546</ele>
        <time>2010-11-10T13:48:14Z</time>
      </trkpt>
      <trkpt lat="45.49926" lon="4.70667">
        <ele>546</ele>
        <time>2010-11-10T13:48:21Z</time>
      </trkpt>
      <trkpt lat="45.49935" lon="4.70667">
        <ele>545</ele>
        <time>2010-11-10T13:48:28Z</time>
      </trkpt>
      <trkpt lat="45.49946" lon="4.7067">
        <ele>545</ele>
        <time>2010-11-10T13:48:36Z</time>
      </trkpt>
      <trkpt lat="45.49956" lon="4.70671">
        <ele>544</ele>
        <time>2010-11-10T13:48:41Z</time>
      </trkpt>
      <trkpt lat="45.49965" lon="4.70678">
        <ele>543</ele>
        <time>2010-11-10T13:48:49Z</time>
      </trkpt>
      <trkpt lat="45.49972" lon="4.70686">
        <ele>543</ele>
        <time>2010-11-10T13:49:00Z</time>
      </trkpt>
      <trkpt lat="45.49979" lon="4.70696">
        <ele>543</ele>
        <time>2010-11-10T13:49:09Z</time>
      </trkpt>
      <trkpt lat="45.49984" lon="4.70707">
        <ele>544</ele>
        <time>2010-11-10T13:49:16Z</time>
      </trkpt>
      <trkpt lat="45.49992" lon="4.70717">
        <ele>544</ele>
        <time>2010-11-10T13:49:25Z</time>
      </trkpt>
      <trkpt lat="45.49997" lon="4.70729">
        <ele>544</ele>
        <time>2010-11-10T13:49:43Z</time>
      </trkpt>
      <trkpt lat="45.50005" lon="4.70738">
        <ele>538</ele>
        <time>2010-11-10T13:49:58Z</time>
      </trkpt>
      <trkpt lat="45.50012" lon="4.70748">
        <ele>538</ele>
        <time>2010-11-10T13:50:06Z</time>
      </trkpt>
      <trkpt lat="45.50019" lon="4.70759">
        <ele>540</ele>
        <time>2010-11-10T13:50:14Z</time>
      </trkpt>
      <trkpt lat="45.50025" lon="4.70771">
        <ele>540</ele>
        <time>2010-11-10T13:50:22Z</time>
      </trkpt>
      <trkpt lat="45.50029" lon="4.70784">
        <ele>540</ele>
        <time>2010-11-10T13:50:30Z</time>
      </trkpt>
      <trkpt lat="45.50034" lon="4.70795">
        <ele>540</ele>
        <time>2010-11-10T13:50:38Z</time>
      </trkpt>
      <trkpt lat="45.50039" lon="4.70808">
        <ele>540</ele>
        <time>2010-11-10T13:50:46Z</time>
      </trkpt>
      <trkpt lat="45.50047" lon="4.70818">
        <ele>540</ele>
        <time>2010-11-10T13:50:52Z</time>
      </trkpt>
      <trkpt lat="45.50056" lon="4.70824">
        <ele>540</ele>
        <time>2010-11-10T13:51:00Z</time>
      </trkpt>
      <trkpt lat="45.50066" lon="4.70826">
        <ele>539</ele>
        <time>2010-11-10T13:51:09Z</time>
      </trkpt>
      <trkpt lat="45.50075" lon="4.70821">
        <ele>538</ele>
        <time>2010-11-10T13:51:17Z</time>
      </trkpt>
      <trkpt lat="45.50083" lon="4.70814">
        <ele>538</ele>
        <time>2010-11-10T13:51:27Z</time>
      </trkpt>
      <trkpt lat="45.5009" lon="4.70806">
        <ele>535</ele>
        <time>2010-11-10T13:51:34Z</time>
      </trkpt>
      <trkpt lat="45.50098" lon="4.70797">
        <ele>534</ele>
        <time>2010-11-10T13:51:42Z</time>
      </trkpt>
      <trkpt lat="45.50104" lon="4.70787">
        <ele>534</ele>
        <time>2010-11-10T13:51:49Z</time>
      </trkpt>
      <trkpt lat="45.50112" lon="4.70779">
        <ele>533</ele>
        <time>2010-11-10T13:51:57Z</time>
      </trkpt>
      <trkpt lat="45.50119" lon="4.70771">
        <ele>533</ele>
        <time>2010-11-10T13:52:06Z</time>
      </trkpt>
      <trkpt lat="45.50128" lon="4.70764">
        <ele>533</ele>
        <time>2010-11-10T13:52:14Z</time>
      </trkpt>
      <trkpt lat="45.50137" lon="4.70758">
        <ele>533</ele>
        <time>2010-11-10T13:52:20Z</time>
      </trkpt>
      <trkpt lat="45.50147" lon="4.70751">
        <ele>532</ele>
        <time>2010-11-10T13:52:28Z</time>
      </trkpt>
      <trkpt lat="45.50155" lon="4.70745">
        <ele>527</ele>
        <time>2010-11-10T13:52:34Z</time>
      </trkpt>
      <trkpt lat="45.50166" lon="4.7074">
        <ele>527</ele>
        <time>2010-11-10T13:52:40Z</time>
      </trkpt>
      <trkpt lat="45.50175" lon="4.70736">
        <ele>529</ele>
        <time>2010-11-10T13:52:47Z</time>
      </trkpt>
      <trkpt lat="45.50185" lon="4.70732">
        <ele>529</ele>
        <time>2010-11-10T13:52:55Z</time>
      </trkpt>
      <trkpt lat="45.50195" lon="4.7073">
        <ele>529</ele>
        <time>2010-11-10T13:53:04Z</time>
      </trkpt>
      <trkpt lat="45.50204" lon="4.70725">
        <ele>530</ele>
        <time>2010-11-10T13:53:12Z</time>
      </trkpt>
      <trkpt lat="45.50214" lon="4.70727">
        <ele>531</ele>
        <time>2010-11-10T13:53:20Z</time>
      </trkpt>
      <trkpt lat="45.50223" lon="4.70724">
        <ele>531</ele>
        <time>2010-11-10T13:53:27Z</time>
      </trkpt>
      <trkpt lat="45.50231" lon="4.70716">
        <ele>531</ele>
        <time>2010-11-10T13:53:36Z</time>
      </trkpt>
      <trkpt lat="45.5024" lon="4.70714">
        <ele>531</ele>
        <time>2010-11-10T13:53:43Z</time>
      </trkpt>
      <trkpt lat="45.50249" lon="4.7071">
        <ele>531</ele>
        <time>2010-11-10T13:53:51Z</time>
      </trkpt>
      <trkpt lat="45.50258" lon="4.70705">
        <ele>534</ele>
        <time>2010-11-10T13:54:01Z</time>
      </trkpt>
      <trkpt lat="45.50267" lon="4.70699">
        <ele>534</ele>
        <time>2010-11-10T13:54:10Z</time>
      </trkpt>
      <trkpt lat="45.50277" lon="4.70697">
        <ele>534</ele>
        <time>2010-11-10T13:54:18Z</time>
      </trkpt>
      <trkpt lat="45.50286" lon="4.70696">
        <ele>534</ele>
        <time>2010-11-10T13:54:26Z</time>
      </trkpt>
      <trkpt lat="45.50296" lon="4.70693">
        <ele>534</ele>
        <time>2010-11-10T13:54:34Z</time>
      </trkpt>
      <trkpt lat="45.50306" lon="4.70692">
        <ele>534</ele>
        <time>2010-11-10T13:54:41Z</time>
      </trkpt>
      <trkpt lat="45.50315" lon="4.7069">
        <ele>534</ele>
        <time>2010-11-10T13:54:50Z</time>
      </trkpt>
      <trkpt lat="45.50325" lon="4.7069">
        <ele>534</ele>
        <time>2010-11-10T13:54:59Z</time>
      </trkpt>
      <trkpt lat="45.50336" lon="4.70695">
        <ele>533</ele>
        <time>2010-11-10T13:55:06Z</time>
      </trkpt>
      <trkpt lat="45.50345" lon="4.70694">
        <ele>533</ele>
        <time>2010-11-10T13:55:14Z</time>
      </trkpt>
      <trkpt lat="45.50354" lon="4.70697">
        <ele>533</ele>
        <time>2010-11-10T13:55:23Z</time>
      </trkpt>
      <trkpt lat="45.50363" lon="4.70703">
        <ele>534</ele>
        <time>2010-11-10T13:55:30Z</time>
      </trkpt>
      <trkpt lat="45.50373" lon="4.70707">
        <ele>534</ele>
        <time>2010-11-10T13:55:38Z</time>
      </trkpt>
      <trkpt lat="45.50382" lon="4.70716">
        <ele>534</ele>
        <time>2010-11-10T13:55:46Z</time>
      </trkpt>
      <trkpt lat="45.50388" lon="4.70727">
        <ele>534</ele>
        <time>2010-11-10T13:55:54Z</time>
      </trkpt>
      <trkpt lat="45.50394" lon="4.70739">
        <ele>534</ele>
        <time>2010-11-10T13:56:02Z</time>
      </trkpt>
      <trkpt lat="45.50399" lon="4.70751">
        <ele>538</ele>
        <time>2010-11-10T13:56:11Z</time>
      </trkpt>
      <trkpt lat="45.50402" lon="4.70765">
        <ele>538</ele>
        <time>2010-11-10T13:56:19Z</time>
      </trkpt>
      <trkpt lat="45.50406" lon="4.70777">
        <ele>539</ele>
        <time>2010-11-10T13:56:26Z</time>
      </trkpt>
      <trkpt lat="45.50409" lon="4.7079">
        <ele>540</ele>
        <time>2010-11-10T13:56:33Z</time>
      </trkpt>
      <trkpt lat="45.50412" lon="4.70803">
        <ele>540</ele>
        <time>2010-11-10T13:56:42Z</time>
      </trkpt>
      <trkpt lat="45.50413" lon="4.70816">
        <ele>540</ele>
        <time>2010-11-10T13:56:52Z</time>
      </trkpt>
      <trkpt lat="45.50414" lon="4.7083">
        <ele>539</ele>
        <time>2010-11-10T13:57:26Z</time>
      </trkpt>
      <trkpt lat="45.50416" lon="4.70844">
        <ele>542</ele>
        <time>2010-11-10T13:57:34Z</time>
      </trkpt>
      <trkpt lat="45.50418" lon="4.70857">
        <ele>533</ele>
        <time>2010-11-10T13:57:43Z</time>
      </trkpt>
      <trkpt lat="45.50419" lon="4.70872">
        <ele>532</ele>
        <time>2010-11-10T13:57:50Z</time>
      </trkpt>
      <trkpt lat="45.50422" lon="4.70886">
        <ele>533</ele>
        <time>2010-11-10T13:57:59Z</time>
      </trkpt>
      <trkpt lat="45.50424" lon="4.709">
        <ele>535</ele>
        <time>2010-11-10T13:58:07Z</time>
      </trkpt>
      <trkpt lat="45.50425" lon="4.70914">
        <ele>538</ele>
        <time>2010-11-10T13:58:18Z</time>
      </trkpt>
      <trkpt lat="45.50426" lon="4.70928">
        <ele>538</ele>
        <time>2010-11-10T13:58:33Z</time>
      </trkpt>
      <trkpt lat="45.5043" lon="4.70942">
        <ele>536</ele>
        <time>2010-11-10T13:58:40Z</time>
      </trkpt>
      <trkpt lat="45.50435" lon="4.70954">
        <ele>536</ele>
        <time>2010-11-10T13:58:45Z</time>
      </trkpt>
      <trkpt lat="45.50435" lon="4.70967">
        <ele>537</ele>
        <time>2010-11-10T13:58:54Z</time>
      </trkpt>
      <trkpt lat="45.5044" lon="4.7098">
        <ele>537</ele>
        <time>2010-11-10T13:59:01Z</time>
      </trkpt>
      <trkpt lat="45.50445" lon="4.70992">
        <ele>537</ele>
        <time>2010-11-10T13:59:09Z</time>
      </trkpt>
      <trkpt lat="45.50451" lon="4.71004">
        <ele>541</ele>
        <time>2010-11-10T13:59:19Z</time>
      </trkpt>
      <trkpt lat="45.50457" lon="4.71015">
        <ele>540</ele>
        <time>2010-11-10T13:59:29Z</time>
      </trkpt>
      <trkpt lat="45.50462" lon="4.71026">
        <ele>540</ele>
        <time>2010-11-10T13:59:37Z</time>
      </trkpt>
      <trkpt lat="45.50467" lon="4.71038">
        <ele>540</ele>
        <time>2010-11-10T13:59:45Z</time>
      </trkpt>
      <trkpt lat="45.50471" lon="4.7105">
        <ele>540</ele>
        <time>2010-11-10T13:59:53Z</time>
      </trkpt>
      <trkpt lat="45.50476" lon="4.71061">
        <ele>540</ele>
        <time>2010-11-10T14:00:00Z</time>
      </trkpt>
      <trkpt lat="45.50479" lon="4.71074">
        <ele>540</ele>
        <time>2010-11-10T14:00:08Z</time>
      </trkpt>
      <trkpt lat="45.50483" lon="4.71087">
        <ele>542</ele>
        <time>2010-11-10T14:00:24Z</time>
      </trkpt>
      <trkpt lat="45.50488" lon="4.711">
        <ele>542</ele>
        <time>2010-11-10T14:00:32Z</time>
      </trkpt>
      <trkpt lat="45.50492" lon="4.71112">
        <ele>543</ele>
        <time>2010-11-10T14:00:44Z</time>
      </trkpt>
      <trkpt lat="45.50498" lon="4.71123">
        <ele>544</ele>
        <time>2010-11-10T14:00:52Z</time>
      </trkpt>
      <trkpt lat="45.50505" lon="4.71133">
        <ele>538</ele>
        <time>2010-11-10T14:00:59Z</time>
      </trkpt>
      <trkpt lat="45.50512" lon="4.71142">
        <ele>539</ele>
        <time>2010-11-10T14:01:06Z</time>
      </trkpt>
      <trkpt lat="45.5052" lon="4.71151">
        <ele>539</ele>
        <time>2010-11-10T14:01:15Z</time>
      </trkpt>
      <trkpt lat="45.50519" lon="4.71165">
        <ele>540</ele>
        <time>2010-11-10T14:01:22Z</time>
      </trkpt>
      <trkpt lat="45.50516" lon="4.71178">
        <ele>541</ele>
        <time>2010-11-10T14:01:29Z</time>
      </trkpt>
      <trkpt lat="45.50512" lon="4.7119">
        <ele>541</ele>
        <time>2010-11-10T14:01:36Z</time>
      </trkpt>
      <trkpt lat="45.50513" lon="4.71203">
        <ele>540</ele>
        <time>2010-11-10T14:01:44Z</time>
      </trkpt>
      <trkpt lat="45.50522" lon="4.71209">
        <ele>540</ele>
        <time>2010-11-10T14:01:54Z</time>
      </trkpt>
      <trkpt lat="45.50531" lon="4.71214">
        <ele>540</ele>
        <time>2010-11-10T14:02:02Z</time>
      </trkpt>
      <trkpt lat="45.5054" lon="4.7122">
        <ele>540</ele>
        <time>2010-11-10T14:02:09Z</time>
      </trkpt>
      <trkpt lat="45.50549" lon="4.71224">
        <ele>540</ele>
        <time>2010-11-10T14:02:29Z</time>
      </trkpt>
      <trkpt lat="45.50557" lon="4.71232">
        <ele>540</ele>
        <time>2010-11-10T14:02:38Z</time>
      </trkpt>
      <trkpt lat="45.50566" lon="4.71232">
        <ele>539</ele>
        <time>2010-11-10T14:02:46Z</time>
      </trkpt>
      <trkpt lat="45.50576" lon="4.71232">
        <ele>539</ele>
        <time>2010-11-10T14:02:54Z</time>
      </trkpt>
      <trkpt lat="45.50585" lon="4.71238">
        <ele>539</ele>
        <time>2010-11-10T14:03:02Z</time>
      </trkpt>
      <trkpt lat="45.50593" lon="4.71247">
        <ele>539</ele>
        <time>2010-11-10T14:03:10Z</time>
      </trkpt>
      <trkpt lat="45.50601" lon="4.71254">
        <ele>539</ele>
        <time>2010-11-10T14:03:18Z</time>
      </trkpt>
      <trkpt lat="45.50609" lon="4.71263">
        <ele>539</ele>
        <time>2010-11-10T14:03:26Z</time>
      </trkpt>
      <trkpt lat="45.50618" lon="4.71271">
        <ele>539</ele>
        <time>2010-11-10T14:03:35Z</time>
      </trkpt>
      <trkpt lat="45.50627" lon="4.7128">
        <ele>539</ele>
        <time>2010-11-10T14:03:43Z</time>
      </trkpt>
      <trkpt lat="45.50635" lon="4.71287">
        <ele>539</ele>
        <time>2010-11-10T14:03:51Z</time>
      </trkpt>
      <trkpt lat="45.50643" lon="4.71295">
        <ele>539</ele>
        <time>2010-11-10T14:03:59Z</time>
      </trkpt>
      <trkpt lat="45.50651" lon="4.71302">
        <ele>539</ele>
        <time>2010-11-10T14:04:07Z</time>
      </trkpt>
      <trkpt lat="45.5066" lon="4.71311">
        <ele>540</ele>
        <time>2010-11-10T14:04:15Z</time>
      </trkpt>
      <trkpt lat="45.50668" lon="4.71319">
        <ele>541</ele>
        <time>2010-11-10T14:04:23Z</time>
      </trkpt>
      <trkpt lat="45.50675" lon="4.71327">
        <ele>541</ele>
        <time>2010-11-10T14:04:31Z</time>
      </trkpt>
      <trkpt lat="45.50683" lon="4.71335">
        <ele>539</ele>
        <time>2010-11-10T14:04:39Z</time>
      </trkpt>
      <trkpt lat="45.50692" lon="4.71342">
        <ele>538</ele>
        <time>2010-11-10T14:04:47Z</time>
      </trkpt>
      <trkpt lat="45.50701" lon="4.71346">
        <ele>538</ele>
        <time>2010-11-10T14:04:54Z</time>
      </trkpt>
      <trkpt lat="45.5071" lon="4.7135">
        <ele>538</ele>
        <time>2010-11-10T14:05:02Z</time>
      </trkpt>
      <trkpt lat="45.5072" lon="4.71353">
        <ele>538</ele>
        <time>2010-11-10T14:05:09Z</time>
      </trkpt>
      <trkpt lat="45.50729" lon="4.71358">
        <ele>539</ele>
        <time>2010-11-10T14:05:16Z</time>
      </trkpt>
      <trkpt lat="45.50739" lon="4.71363">
        <ele>538</ele>
        <time>2010-11-10T14:05:24Z</time>
      </trkpt>
      <trkpt lat="45.50748" lon="4.71369">
        <ele>538</ele>
        <time>2010-11-10T14:05:32Z</time>
      </trkpt>
      <trkpt lat="45.50757" lon="4.71375">
        <ele>538</ele>
        <time>2010-11-10T14:05:39Z</time>
      </trkpt>
      <trkpt lat="45.50766" lon="4.7138">
        <ele>538</ele>
        <time>2010-11-10T14:05:47Z</time>
      </trkpt>
      <trkpt lat="45.50776" lon="4.71387">
        <ele>537</ele>
        <time>2010-11-10T14:05:55Z</time>
      </trkpt>
      <trkpt lat="45.50785" lon="4.71392">
        <ele>537</ele>
        <time>2010-11-10T14:06:03Z</time>
      </trkpt>
      <trkpt lat="45.50794" lon="4.71399">
        <ele>537</ele>
        <time>2010-11-10T14:06:11Z</time>
      </trkpt>
      <trkpt lat="45.50803" lon="4.71405">
        <ele>536</ele>
        <time>2010-11-10T14:06:19Z</time>
      </trkpt>
      <trkpt lat="45.50812" lon="4.71412">
        <ele>536</ele>
        <time>2010-11-10T14:06:27Z</time>
      </trkpt>
      <trkpt lat="45.50821" lon="4.71417">
        <ele>532</ele>
        <time>2010-11-10T14:06:35Z</time>
      </trkpt>
      <trkpt lat="45.5083" lon="4.71422">
        <ele>533</ele>
        <time>2010-11-10T14:06:43Z</time>
      </trkpt>
      <trkpt lat="45.50839" lon="4.71429">
        <ele>532</ele>
        <time>2010-11-10T14:06:51Z</time>
      </trkpt>
      <trkpt lat="45.50847" lon="4.71435">
        <ele>531</ele>
        <time>2010-11-10T14:06:58Z</time>
      </trkpt>
      <trkpt lat="45.50857" lon="4.7144">
        <ele>531</ele>
        <time>2010-11-10T14:07:06Z</time>
      </trkpt>
      <trkpt lat="45.50865" lon="4.71448">
        <ele>530</ele>
        <time>2010-11-10T14:07:14Z</time>
      </trkpt>
      <trkpt lat="45.50874" lon="4.71457">
        <ele>530</ele>
        <time>2010-11-10T14:07:22Z</time>
      </trkpt>
      <trkpt lat="45.50883" lon="4.71463">
        <ele>530</ele>
        <time>2010-11-10T14:07:29Z</time>
      </trkpt>
      <trkpt lat="45.50891" lon="4.71471">
        <ele>530</ele>
        <time>2010-11-10T14:07:36Z</time>
      </trkpt>
      <trkpt lat="45.50899" lon="4.71479">
        <ele>529</ele>
        <time>2010-11-10T14:07:43Z</time>
      </trkpt>
      <trkpt lat="45.50907" lon="4.71486">
        <ele>529</ele>
        <time>2010-11-10T14:07:50Z</time>
      </trkpt>
      <trkpt lat="45.50915" lon="4.71494">
        <ele>529</ele>
        <time>2010-11-10T14:07:58Z</time>
      </trkpt>
      <trkpt lat="45.50924" lon="4.71501">
        <ele>528</ele>
        <time>2010-11-10T14:08:05Z</time>
      </trkpt>
      <trkpt lat="45.50931" lon="4.7151">
        <ele>527</ele>
        <time>2010-11-10T14:08:13Z</time>
      </trkpt>
      <trkpt lat="45.50937" lon="4.71519">
        <ele>526</ele>
        <time>2010-11-10T14:08:20Z</time>
      </trkpt>
      <trkpt lat="45.50946" lon="4.71528">
        <ele>525</ele>
        <time>2010-11-10T14:08:27Z</time>
      </trkpt>
      <trkpt lat="45.50953" lon="4.71537">
        <ele>525</ele>
        <time>2010-11-10T14:08:35Z</time>
      </trkpt>
      <trkpt lat="45.5096" lon="4.71545">
        <ele>524</ele>
        <time>2010-11-10T14:08:42Z</time>
      </trkpt>
      <trkpt lat="45.50968" lon="4.71552">
        <ele>524</ele>
        <time>2010-11-10T14:08:49Z</time>
      </trkpt>
      <trkpt lat="45.50977" lon="4.71561">
        <ele>523</ele>
        <time>2010-11-10T14:08:56Z</time>
      </trkpt>
      <trkpt lat="45.50985" lon="4.71567">
        <ele>523</ele>
        <time>2010-11-10T14:09:03Z</time>
      </trkpt>
      <trkpt lat="45.50994" lon="4.71572">
        <ele>522</ele>
        <time>2010-11-10T14:09:10Z</time>
      </trkpt>
      <trkpt lat="45.51003" lon="4.71578">
        <ele>521</ele>
        <time>2010-11-10T14:09:17Z</time>
      </trkpt>
      <trkpt lat="45.51012" lon="4.71584">
        <ele>517</ele>
        <time>2010-11-10T14:09:24Z</time>
      </trkpt>
      <trkpt lat="45.51021" lon="4.7159">
        <ele>516</ele>
        <time>2010-11-10T14:09:32Z</time>
      </trkpt>
      <trkpt lat="45.5103" lon="4.71595">
        <ele>515</ele>
        <time>2010-11-10T14:09:39Z</time>
      </trkpt>
      <trkpt lat="45.51039" lon="4.71601">
        <ele>515</ele>
        <time>2010-11-10T14:09:47Z</time>
      </trkpt>
      <trkpt lat="45.51049" lon="4.71605">
        <ele>514</ele>
        <time>2010-11-10T14:09:55Z</time>
      </trkpt>
      <trkpt lat="45.51058" lon="4.7161">
        <ele>514</ele>
        <time>2010-11-10T14:10:02Z</time>
      </trkpt>
      <trkpt lat="45.51067" lon="4.71616">
        <ele>513</ele>
        <time>2010-11-10T14:10:10Z</time>
      </trkpt>
      <trkpt lat="45.51075" lon="4.71623">
        <ele>513</ele>
        <time>2010-11-10T14:10:18Z</time>
      </trkpt>
      <trkpt lat="45.51083" lon="4.71631">
        <ele>512</ele>
        <time>2010-11-10T14:10:26Z</time>
      </trkpt>
      <trkpt lat="45.51092" lon="4.71639">
        <ele>508</ele>
        <time>2010-11-10T14:10:34Z</time>
      </trkpt>
      <trkpt lat="45.51099" lon="4.71647">
        <ele>507</ele>
        <time>2010-11-10T14:10:42Z</time>
      </trkpt>
      <trkpt lat="45.51106" lon="4.71656">
        <ele>507</ele>
        <time>2010-11-10T14:10:50Z</time>
      </trkpt>
      <trkpt lat="45.51114" lon="4.71665">
        <ele>507</ele>
        <time>2010-11-10T14:10:58Z</time>
      </trkpt>
      <trkpt lat="45.51123" lon="4.71673">
        <ele>499</ele>
        <time>2010-11-10T14:11:07Z</time>
      </trkpt>
      <trkpt lat="45.5113" lon="4.71681">
        <ele>499</ele>
        <time>2010-11-10T14:11:16Z</time>
      </trkpt>
      <trkpt lat="45.51138" lon="4.71691">
        <ele>498</ele>
        <time>2010-11-10T14:11:25Z</time>
      </trkpt>
      <trkpt lat="45.51145" lon="4.71701">
        <ele>497</ele>
        <time>2010-11-10T14:11:34Z</time>
      </trkpt>
      <trkpt lat="45.51152" lon="4.71711">
        <ele>496</ele>
        <time>2010-11-10T14:11:43Z</time>
      </trkpt>
      <trkpt lat="45.51159" lon="4.7172">
        <ele>495</ele>
        <time>2010-11-10T14:11:52Z</time>
      </trkpt>
      <trkpt lat="45.51166" lon="4.71729">
        <ele>494</ele>
        <time>2010-11-10T14:12:00Z</time>
      </trkpt>
      <trkpt lat="45.51173" lon="4.71739">
        <ele>490</ele>
        <time>2010-11-10T14:12:10Z</time>
      </trkpt>
      <trkpt lat="45.51181" lon="4.71746">
        <ele>490</ele>
        <time>2010-11-10T14:12:19Z</time>
      </trkpt>
      <trkpt lat="45.51188" lon="4.71755">
        <ele>484</ele>
        <time>2010-11-10T14:12:27Z</time>
      </trkpt>
      <trkpt lat="45.51193" lon="4.71766">
        <ele>482</ele>
        <time>2010-11-10T14:12:35Z</time>
      </trkpt>
      <trkpt lat="45.51199" lon="4.71777">
        <ele>481</ele>
        <time>2010-11-10T14:12:45Z</time>
      </trkpt>
      <trkpt lat="45.51206" lon="4.71786">
        <ele>480</ele>
        <time>2010-11-10T14:12:54Z</time>
      </trkpt>
      <trkpt lat="45.5121" lon="4.71798">
        <ele>478</ele>
        <time>2010-11-10T14:13:49Z</time>
      </trkpt>
      <trkpt lat="45.51219" lon="4.71804">
        <ele>478</ele>
        <time>2010-11-10T14:14:24Z</time>
      </trkpt>
      <trkpt lat="45.51227" lon="4.71812">
        <ele>476</ele>
        <time>2010-11-10T14:14:32Z</time>
      </trkpt>
      <trkpt lat="45.51236" lon="4.71819">
        <ele>474</ele>
        <time>2010-11-10T14:14:40Z</time>
      </trkpt>
      <trkpt lat="45.51244" lon="4.71826">
        <ele>472</ele>
        <time>2010-11-10T14:14:48Z</time>
      </trkpt>
      <trkpt lat="45.51253" lon="4.71832">
        <ele>469</ele>
        <time>2010-11-10T14:14:57Z</time>
      </trkpt>
      <trkpt lat="45.51261" lon="4.71838">
        <ele>465</ele>
        <time>2010-11-10T14:15:04Z</time>
      </trkpt>
      <trkpt lat="45.5127" lon="4.71845">
        <ele>463</ele>
        <time>2010-11-10T14:15:11Z</time>
      </trkpt>
      <trkpt lat="45.5128" lon="4.71848">
        <ele>461</ele>
        <time>2010-11-10T14:15:20Z</time>
      </trkpt>
      <trkpt lat="45.51289" lon="4.71854">
        <ele>460</ele>
        <time>2010-11-10T14:15:41Z</time>
      </trkpt>
      <trkpt lat="45.51298" lon="4.71858">
        <ele>459</ele>
        <time>2010-11-10T14:15:51Z</time>
      </trkpt>
      <trkpt lat="45.51309" lon="4.71859">
        <ele>458</ele>
        <time>2010-11-10T14:15:59Z</time>
      </trkpt>
      <trkpt lat="45.51319" lon="4.71859">
        <ele>458</ele>
        <time>2010-11-10T14:16:06Z</time>
      </trkpt>
      <trkpt lat="45.51328" lon="4.71857">
        <ele>458</ele>
        <time>2010-11-10T14:16:13Z</time>
      </trkpt>
      <trkpt lat="45.51339" lon="4.71854">
        <ele>452</ele>
        <time>2010-11-10T14:16:20Z</time>
      </trkpt>
      <trkpt lat="45.51348" lon="4.71852">
        <ele>452</ele>
        <time>2010-11-10T14:16:27Z</time>
      </trkpt>
      <trkpt lat="45.51357" lon="4.71846">
        <ele>451</ele>
        <time>2010-11-10T14:16:35Z</time>
      </trkpt>
      <trkpt lat="45.51367" lon="4.71841">
        <ele>450</ele>
        <time>2010-11-10T14:16:45Z</time>
      </trkpt>
      <trkpt lat="45.51376" lon="4.71837">
        <ele>449</ele>
        <time>2010-11-10T14:16:52Z</time>
      </trkpt>
      <trkpt lat="45.51385" lon="4.71835">
        <ele>449</ele>
        <time>2010-11-10T14:17:00Z</time>
      </trkpt>
      <trkpt lat="45.51393" lon="4.71827">
        <ele>452</ele>
        <time>2010-11-10T14:17:07Z</time>
      </trkpt>
      <trkpt lat="45.51402" lon="4.7182">
        <ele>451</ele>
        <time>2010-11-10T14:17:15Z</time>
      </trkpt>
      <trkpt lat="45.51411" lon="4.71819">
        <ele>451</ele>
        <time>2010-11-10T14:17:20Z</time>
      </trkpt>
      <trkpt lat="45.51421" lon="4.71812">
        <ele>444</ele>
        <time>2010-11-10T14:17:27Z</time>
      </trkpt>
      <trkpt lat="45.51431" lon="4.71814">
        <ele>443</ele>
        <time>2010-11-10T14:17:34Z</time>
      </trkpt>
      <trkpt lat="45.51438" lon="4.71823">
        <ele>443</ele>
        <time>2010-11-10T14:17:41Z</time>
      </trkpt>
      <trkpt lat="45.51445" lon="4.71834">
        <ele>440</ele>
        <time>2010-11-10T14:17:49Z</time>
      </trkpt>
      <trkpt lat="45.51452" lon="4.71845">
        <ele>439</ele>
        <time>2010-11-10T14:17:57Z</time>
      </trkpt>
      <trkpt lat="45.51459" lon="4.71854">
        <ele>438</ele>
        <time>2010-11-10T14:18:04Z</time>
      </trkpt>
      <trkpt lat="45.51466" lon="4.71863">
        <ele>437</ele>
        <time>2010-11-10T14:18:13Z</time>
      </trkpt>
      <trkpt lat="45.51473" lon="4.71872">
        <ele>436</ele>
        <time>2010-11-10T14:18:22Z</time>
      </trkpt>
      <trkpt lat="45.51482" lon="4.71876">
        <ele>435</ele>
        <time>2010-11-10T14:18:31Z</time>
      </trkpt>
      <trkpt lat="45.51492" lon="4.71876">
        <ele>435</ele>
        <time>2010-11-10T14:18:39Z</time>
      </trkpt>
      <trkpt lat="45.51501" lon="4.71879">
        <ele>428</ele>
        <time>2010-11-10T14:18:47Z</time>
      </trkpt>
      <trkpt lat="45.51511" lon="4.71883">
        <ele>427</ele>
        <time>2010-11-10T14:18:53Z</time>
      </trkpt>
      <trkpt lat="45.5152" lon="4.71889">
        <ele>427</ele>
        <time>2010-11-10T14:18:58Z</time>
      </trkpt>
      <trkpt lat="45.51529" lon="4.71895">
        <ele>426</ele>
        <time>2010-11-10T14:19:05Z</time>
      </trkpt>
      <trkpt lat="45.51537" lon="4.719">
        <ele>425</ele>
        <time>2010-11-10T14:19:13Z</time>
      </trkpt>
      <trkpt lat="45.51546" lon="4.71907">
        <ele>424</ele>
        <time>2010-11-10T14:19:21Z</time>
      </trkpt>
      <trkpt lat="45.51555" lon="4.71914">
        <ele>423</ele>
        <time>2010-11-10T14:19:28Z</time>
      </trkpt>
      <trkpt lat="45.51562" lon="4.71922">
        <ele>419</ele>
        <time>2010-11-10T14:19:36Z</time>
      </trkpt>
      <trkpt lat="45.51571" lon="4.71929">
        <ele>419</ele>
        <time>2010-11-10T14:19:44Z</time>
      </trkpt>
      <trkpt lat="45.51577" lon="4.71939">
        <ele>419</ele>
        <time>2010-11-10T14:19:52Z</time>
      </trkpt>
      <trkpt lat="45.51582" lon="4.71951">
        <ele>419</ele>
        <time>2010-11-10T14:20:01Z</time>
      </trkpt>
      <trkpt lat="45.51586" lon="4.71963">
        <ele>413</ele>
        <time>2010-11-10T14:20:09Z</time>
      </trkpt>
      <trkpt lat="45.51591" lon="4.71976">
        <ele>413</ele>
        <time>2010-11-10T14:20:16Z</time>
      </trkpt>
      <trkpt lat="45.51597" lon="4.71987">
        <ele>413</ele>
        <time>2010-11-10T14:20:24Z</time>
      </trkpt>
      <trkpt lat="45.51602" lon="4.71998">
        <ele>412</ele>
        <time>2010-11-10T14:20:32Z</time>
      </trkpt>
      <trkpt lat="45.51607" lon="4.7201">
        <ele>409</ele>
        <time>2010-11-10T14:20:47Z</time>
      </trkpt>
      <trkpt lat="45.51616" lon="4.7201">
        <ele>409</ele>
        <time>2010-11-10T14:22:01Z</time>
      </trkpt>
      <trkpt lat="45.51618" lon="4.72023">
        <ele>408</ele>
        <time>2010-11-10T14:22:12Z</time>
      </trkpt>
      <trkpt lat="45.51619" lon="4.72037">
        <ele>408</ele>
        <time>2010-11-10T14:22:21Z</time>
      </trkpt>
      <trkpt lat="45.51618" lon="4.72051">
        <ele>407</ele>
        <time>2010-11-10T14:22:30Z</time>
      </trkpt>
      <trkpt lat="45.51615" lon="4.72066">
        <ele>407</ele>
        <time>2010-11-10T14:22:39Z</time>
      </trkpt>
      <trkpt lat="45.51613" lon="4.72079">
        <ele>407</ele>
        <time>2010-11-10T14:22:46Z</time>
      </trkpt>
      <trkpt lat="45.51608" lon="4.7209">
        <ele>407</ele>
        <time>2010-11-10T14:22:53Z</time>
      </trkpt>
      <trkpt lat="45.51604" lon="4.72102">
        <ele>407</ele>
        <time>2010-11-10T14:23:02Z</time>
      </trkpt>
      <trkpt lat="45.516" lon="4.72115">
        <ele>407</ele>
        <time>2010-11-10T14:23:11Z</time>
      </trkpt>
      <trkpt lat="45.51598" lon="4.72129">
        <ele>407</ele>
        <time>2010-11-10T14:23:22Z</time>
      </trkpt>
      <trkpt lat="45.516" lon="4.72144">
        <ele>407</ele>
        <time>2010-11-10T14:23:30Z</time>
      </trkpt>
      <trkpt lat="45.51599" lon="4.72159">
        <ele>408</ele>
        <time>2010-11-10T14:23:39Z</time>
      </trkpt>
      <trkpt lat="45.51605" lon="4.72171">
        <ele>409</ele>
        <time>2010-11-10T14:23:45Z</time>
      </trkpt>
      <trkpt lat="45.51615" lon="4.72174">
        <ele>409</ele>
        <time>2010-11-10T14:23:50Z</time>
      </trkpt>
      <trkpt lat="45.51625" lon="4.72177">
        <ele>409</ele>
        <time>2010-11-10T14:23:56Z</time>
      </trkpt>
      <trkpt lat="45.51636" lon="4.72178">
        <ele>409</ele>
        <time>2010-11-10T14:24:04Z</time>
      </trkpt>
      <trkpt lat="45.51645" lon="4.72178">
        <ele>408</ele>
        <time>2010-11-10T14:24:11Z</time>
      </trkpt>
      <trkpt lat="45.51655" lon="4.72179">
        <ele>408</ele>
        <time>2010-11-10T14:24:18Z</time>
      </trkpt>
      <trkpt lat="45.51666" lon="4.72178">
        <ele>407</ele>
        <time>2010-11-10T14:24:25Z</time>
      </trkpt>
      <trkpt lat="45.51676" lon="4.7218">
        <ele>407</ele>
        <time>2010-11-10T14:24:32Z</time>
      </trkpt>
      <trkpt lat="45.51686" lon="4.72179">
        <ele>406</ele>
        <time>2010-11-10T14:24:39Z</time>
      </trkpt>
      <trkpt lat="45.51697" lon="4.7218">
        <ele>406</ele>
        <time>2010-11-10T14:24:47Z</time>
      </trkpt>
      <trkpt lat="45.51707" lon="4.72182">
        <ele>406</ele>
        <time>2010-11-10T14:24:55Z</time>
      </trkpt>
      <trkpt lat="45.51716" lon="4.72183">
        <ele>406</ele>
        <time>2010-11-10T14:25:02Z</time>
      </trkpt>
      <trkpt lat="45.51726" lon="4.72185">
        <ele>405</ele>
        <time>2010-11-10T14:25:09Z</time>
      </trkpt>
      <trkpt lat="45.51735" lon="4.72189">
        <ele>405</ele>
        <time>2010-11-10T14:25:17Z</time>
      </trkpt>
      <trkpt lat="45.51745" lon="4.72192">
        <ele>405</ele>
        <time>2010-11-10T14:25:24Z</time>
      </trkpt>
      <trkpt lat="45.51755" lon="4.72196">
        <ele>403</ele>
        <time>2010-11-10T14:25:30Z</time>
      </trkpt>
      <trkpt lat="45.51764" lon="4.72199">
        <ele>403</ele>
        <time>2010-11-10T14:25:37Z</time>
      </trkpt>
      <trkpt lat="45.51774" lon="4.72204">
        <ele>404</ele>
        <time>2010-11-10T14:25:45Z</time>
      </trkpt>
      <trkpt lat="45.51783" lon="4.72208">
        <ele>404</ele>
        <time>2010-11-10T14:25:52Z</time>
      </trkpt>
      <trkpt lat="45.51792" lon="4.72211">
        <ele>404</ele>
        <time>2010-11-10T14:25:58Z</time>
      </trkpt>
      <trkpt lat="45.51803" lon="4.72215">
        <ele>404</ele>
        <time>2010-11-10T14:26:05Z</time>
      </trkpt>
      <trkpt lat="45.51813" lon="4.72218">
        <ele>404</ele>
        <time>2010-11-10T14:26:12Z</time>
      </trkpt>
      <trkpt lat="45.51822" lon="4.72221">
        <ele>404</ele>
        <time>2010-11-10T14:26:18Z</time>
      </trkpt>
      <trkpt lat="45.51832" lon="4.72225">
        <ele>404</ele>
        <time>2010-11-10T14:26:25Z</time>
      </trkpt>
      <trkpt lat="45.51842" lon="4.72228">
        <ele>404</ele>
        <time>2010-11-10T14:26:31Z</time>
      </trkpt>
      <trkpt lat="45.51851" lon="4.72232">
        <ele>404</ele>
        <time>2010-11-10T14:26:39Z</time>
      </trkpt>
      <trkpt lat="45.5186" lon="4.72235">
        <ele>403</ele>
        <time>2010-11-10T14:26:56Z</time>
      </trkpt>
      <trkpt lat="45.5187" lon="4.72239">
        <ele>403</ele>
        <time>2010-11-10T14:27:03Z</time>
      </trkpt>
      <trkpt lat="45.51879" lon="4.72244">
        <ele>403</ele>
        <time>2010-11-10T14:27:11Z</time>
      </trkpt>
      <trkpt lat="45.51889" lon="4.7225">
        <ele>404</ele>
        <time>2010-11-10T14:27:19Z</time>
      </trkpt>
      <trkpt lat="45.51897" lon="4.72254">
        <ele>406</ele>
        <time>2010-11-10T14:27:27Z</time>
      </trkpt>
      <trkpt lat="45.51907" lon="4.7226">
        <ele>406</ele>
        <time>2010-11-10T14:27:35Z</time>
      </trkpt>
      <trkpt lat="45.51917" lon="4.72261">
        <ele>405</ele>
        <time>2010-11-10T14:27:42Z</time>
      </trkpt>
      <trkpt lat="45.51927" lon="4.72263">
        <ele>405</ele>
        <time>2010-11-10T14:27:50Z</time>
      </trkpt>
      <trkpt lat="45.51937" lon="4.72266">
        <ele>405</ele>
        <time>2010-11-10T14:27:56Z</time>
      </trkpt>
      <trkpt lat="45.51947" lon="4.72268">
        <ele>405</ele>
        <time>2010-11-10T14:28:03Z</time>
      </trkpt>
      <trkpt lat="45.51957" lon="4.7227">
        <ele>405</ele>
        <time>2010-11-10T14:28:10Z</time>
      </trkpt>
      <trkpt lat="45.51966" lon="4.72273">
        <ele>405</ele>
        <time>2010-11-10T14:28:17Z</time>
      </trkpt>
      <trkpt lat="45.51976" lon="4.72275">
        <ele>405</ele>
        <time>2010-11-10T14:28:24Z</time>
      </trkpt>
      <trkpt lat="45.51986" lon="4.72279">
        <ele>405</ele>
        <time>2010-11-10T14:28:32Z</time>
      </trkpt>
      <trkpt lat="45.51994" lon="4.72288">
        <ele>405</ele>
        <time>2010-11-10T14:28:39Z</time>
      </trkpt>
      <trkpt lat="45.51997" lon="4.72301">
        <ele>406</ele>
        <time>2010-11-10T14:28:46Z</time>
      </trkpt>
      <trkpt lat="45.51997" lon="4.72314">
        <ele>406</ele>
        <time>2010-11-10T14:28:53Z</time>
      </trkpt>
      <trkpt lat="45.51997" lon="4.72328">
        <ele>407</ele>
        <time>2010-11-10T14:29:00Z</time>
      </trkpt>
      <trkpt lat="45.51997" lon="4.72342">
        <ele>408</ele>
        <time>2010-11-10T14:29:08Z</time>
      </trkpt>
      <trkpt lat="45.51996" lon="4.72356">
        <ele>408</ele>
        <time>2010-11-10T14:29:16Z</time>
      </trkpt>
      <trkpt lat="45.51995" lon="4.7237">
        <ele>408</ele>
        <time>2010-11-10T14:29:24Z</time>
      </trkpt>
      <trkpt lat="45.51995" lon="4.72385">
        <ele>409</ele>
        <time>2010-11-10T14:29:32Z</time>
      </trkpt>
      <trkpt lat="45.51995" lon="4.72398">
        <ele>409</ele>
        <time>2010-11-10T14:29:39Z</time>
      </trkpt>
      <trkpt lat="45.51994" lon="4.72411">
        <ele>408</ele>
        <time>2010-11-10T14:29:46Z</time>
      </trkpt>
      <trkpt lat="45.51993" lon="4.72425">
        <ele>409</ele>
        <time>2010-11-10T14:29:54Z</time>
      </trkpt>
      <trkpt lat="45.51993" lon="4.72438">
        <ele>410</ele>
        <time>2010-11-10T14:30:01Z</time>
      </trkpt>
      <trkpt lat="45.51992" lon="4.72452">
        <ele>410</ele>
        <time>2010-11-10T14:30:09Z</time>
      </trkpt>
      <trkpt lat="45.51992" lon="4.72465">
        <ele>410</ele>
        <time>2010-11-10T14:30:19Z</time>
      </trkpt>
      <trkpt lat="45.5199" lon="4.72479">
        <ele>410</ele>
        <time>2010-11-10T14:30:34Z</time>
      </trkpt>
      <trkpt lat="45.51983" lon="4.7249">
        <ele>410</ele>
        <time>2010-11-10T14:30:46Z</time>
      </trkpt>
      <trkpt lat="45.5198" lon="4.72502">
        <ele>410</ele>
        <time>2010-11-10T14:30:55Z</time>
      </trkpt>
      <trkpt lat="45.51974" lon="4.72514">
        <ele>410</ele>
        <time>2010-11-10T14:31:03Z</time>
      </trkpt>
      <trkpt lat="45.51968" lon="4.72526">
        <ele>410</ele>
        <time>2010-11-10T14:31:11Z</time>
      </trkpt>
      <trkpt lat="45.51968" lon="4.72541">
        <ele>410</ele>
        <time>2010-11-10T14:31:17Z</time>
      </trkpt>
      <trkpt lat="45.51967" lon="4.72555">
        <ele>409</ele>
        <time>2010-11-10T14:31:24Z</time>
      </trkpt>
      <trkpt lat="45.51961" lon="4.72566">
        <ele>409</ele>
        <time>2010-11-10T14:31:34Z</time>
      </trkpt>
      <trkpt lat="45.51953" lon="4.72573">
        <ele>410</ele>
        <time>2010-11-10T14:31:42Z</time>
      </trkpt>
      <trkpt lat="45.51949" lon="4.72586">
        <ele>408</ele>
        <time>2010-11-10T14:31:50Z</time>
      </trkpt>
      <trkpt lat="45.51942" lon="4.72597">
        <ele>408</ele>
        <time>2010-11-10T14:31:58Z</time>
      </trkpt>
      <trkpt lat="45.51936" lon="4.72608">
        <ele>408</ele>
        <time>2010-11-10T14:32:05Z</time>
      </trkpt>
      <trkpt lat="45.5193" lon="4.72619">
        <ele>408</ele>
        <time>2010-11-10T14:32:20Z</time>
      </trkpt>
      <trkpt lat="45.51921" lon="4.72619">
        <ele>408</ele>
        <time>2010-11-10T14:34:45Z</time>
      </trkpt>
      <trkpt lat="45.51928" lon="4.72628">
        <ele>408</ele>
        <time>2010-11-10T14:36:07Z</time>
      </trkpt>
      <trkpt lat="45.51932" lon="4.72643">
        <ele>407</ele>
        <time>2010-11-10T14:36:17Z</time>
      </trkpt>
      <trkpt lat="45.51934" lon="4.72656">
        <ele>407</ele>
        <time>2010-11-10T14:36:23Z</time>
      </trkpt>
      <trkpt lat="45.51937" lon="4.72668">
        <ele>407</ele>
        <time>2010-11-10T14:36:30Z</time>
      </trkpt>
      <trkpt lat="45.5194" lon="4.72683">
        <ele>407</ele>
        <time>2010-11-10T14:36:37Z</time>
      </trkpt>
      <trkpt lat="45.51941" lon="4.72696">
        <ele>408</ele>
        <time>2010-11-10T14:36:43Z</time>
      </trkpt>
      <trkpt lat="45.5194" lon="4.7271">
        <ele>408</ele>
        <time>2010-11-10T14:36:50Z</time>
      </trkpt>
      <trkpt lat="45.51937" lon="4.72722">
        <ele>408</ele>
        <time>2010-11-10T14:36:57Z</time>
      </trkpt>
      <trkpt lat="45.51933" lon="4.72735">
        <ele>409</ele>
        <time>2010-11-10T14:37:05Z</time>
      </trkpt>
      <trkpt lat="45.51928" lon="4.72747">
        <ele>409</ele>
        <time>2010-11-10T14:37:13Z</time>
      </trkpt>
      <trkpt lat="45.5192" lon="4.72755">
        <ele>410</ele>
        <time>2010-11-10T14:37:18Z</time>
      </trkpt>
      <trkpt lat="45.51916" lon="4.72766">
        <ele>412</ele>
        <time>2010-11-10T14:37:26Z</time>
      </trkpt>
      <trkpt lat="45.51913" lon="4.72781">
        <ele>413</ele>
        <time>2010-11-10T14:37:33Z</time>
      </trkpt>
      <trkpt lat="45.51918" lon="4.72793">
        <ele>412</ele>
        <time>2010-11-10T14:37:42Z</time>
      </trkpt>
      <trkpt lat="45.51929" lon="4.72793">
        <ele>412</ele>
        <time>2010-11-10T14:37:50Z</time>
      </trkpt>
      <trkpt lat="45.51938" lon="4.72789">
        <ele>412</ele>
        <time>2010-11-10T14:37:57Z</time>
      </trkpt>
      <trkpt lat="45.51947" lon="4.72781">
        <ele>412</ele>
        <time>2010-11-10T14:38:06Z</time>
      </trkpt>
      <trkpt lat="45.51956" lon="4.72774">
        <ele>412</ele>
        <time>2010-11-10T14:38:13Z</time>
      </trkpt>
      <trkpt lat="45.51964" lon="4.72767">
        <ele>411</ele>
        <time>2010-11-10T14:38:21Z</time>
      </trkpt>
      <trkpt lat="45.51973" lon="4.7276">
        <ele>411</ele>
        <time>2010-11-10T14:38:27Z</time>
      </trkpt>
      <trkpt lat="45.51981" lon="4.72755">
        <ele>411</ele>
        <time>2010-11-10T14:38:36Z</time>
      </trkpt>
      <trkpt lat="45.5199" lon="4.72747">
        <ele>408</ele>
        <time>2010-11-10T14:38:44Z</time>
      </trkpt>
      <trkpt lat="45.52" lon="4.72742">
        <ele>409</ele>
        <time>2010-11-10T14:38:52Z</time>
      </trkpt>
      <trkpt lat="45.52009" lon="4.72745">
        <ele>409</ele>
        <time>2010-11-10T14:39:02Z</time>
      </trkpt>
      <trkpt lat="45.52019" lon="4.72747">
        <ele>409</ele>
        <time>2010-11-10T14:39:11Z</time>
      </trkpt>
      <trkpt lat="45.52029" lon="4.72752">
        <ele>412</ele>
        <time>2010-11-10T14:39:21Z</time>
      </trkpt>
      <trkpt lat="45.52038" lon="4.72756">
        <ele>413</ele>
        <time>2010-11-10T14:39:29Z</time>
      </trkpt>
      <trkpt lat="45.52046" lon="4.72763">
        <ele>413</ele>
        <time>2010-11-10T14:39:39Z</time>
      </trkpt>
      <trkpt lat="45.52054" lon="4.72771">
        <ele>413</ele>
        <time>2010-11-10T14:39:59Z</time>
      </trkpt>
      <trkpt lat="45.52062" lon="4.72778">
        <ele>414</ele>
        <time>2010-11-10T14:40:32Z</time>
      </trkpt>
      <trkpt lat="45.5207" lon="4.72784">
        <ele>414</ele>
        <time>2010-11-10T14:40:40Z</time>
      </trkpt>
      <trkpt lat="45.52079" lon="4.7279">
        <ele>414</ele>
        <time>2010-11-10T14:40:48Z</time>
      </trkpt>
      <trkpt lat="45.52084" lon="4.72801">
        <ele>413</ele>
        <time>2010-11-10T14:41:09Z</time>
      </trkpt>
      <trkpt lat="45.52079" lon="4.72812">
        <ele>414</ele>
        <time>2010-11-10T14:41:19Z</time>
      </trkpt>
      <trkpt lat="45.52071" lon="4.7282">
        <ele>414</ele>
        <time>2010-11-10T14:41:27Z</time>
      </trkpt>
      <trkpt lat="45.52063" lon="4.7283">
        <ele>414</ele>
        <time>2010-11-10T14:41:37Z</time>
      </trkpt>
      <trkpt lat="45.52055" lon="4.72839">
        <ele>416</ele>
        <time>2010-11-10T14:41:45Z</time>
      </trkpt>
      <trkpt lat="45.52047" lon="4.72848">
        <ele>416</ele>
        <time>2010-11-10T14:41:54Z</time>
      </trkpt>
      <trkpt lat="45.5204" lon="4.72858">
        <ele>416</ele>
        <time>2010-11-10T14:42:02Z</time>
      </trkpt>
      <trkpt lat="45.52033" lon="4.72867">
        <ele>416</ele>
        <time>2010-11-10T14:42:10Z</time>
      </trkpt>
      <trkpt lat="45.52026" lon="4.72876">
        <ele>416</ele>
        <time>2010-11-10T14:42:18Z</time>
      </trkpt>
      <trkpt lat="45.52017" lon="4.72885">
        <ele>417</ele>
        <time>2010-11-10T14:42:27Z</time>
      </trkpt>
      <trkpt lat="45.5201" lon="4.72894">
        <ele>417</ele>
        <time>2010-11-10T14:42:35Z</time>
      </trkpt>
      <trkpt lat="45.52003" lon="4.72902">
        <ele>418</ele>
        <time>2010-11-10T14:42:45Z</time>
      </trkpt>
      <trkpt lat="45.51995" lon="4.7291">
        <ele>419</ele>
        <time>2010-11-10T14:42:52Z</time>
      </trkpt>
      <trkpt lat="45.51988" lon="4.72918">
        <ele>421</ele>
        <time>2010-11-10T14:42:59Z</time>
      </trkpt>
      <trkpt lat="45.51981" lon="4.72929">
        <ele>422</ele>
        <time>2010-11-10T14:43:09Z</time>
      </trkpt>
      <trkpt lat="45.51974" lon="4.72938">
        <ele>422</ele>
        <time>2010-11-10T14:43:19Z</time>
      </trkpt>
      <trkpt lat="45.51967" lon="4.72947">
        <ele>422</ele>
        <time>2010-11-10T14:43:27Z</time>
      </trkpt>
      <trkpt lat="45.5196" lon="4.72956">
        <ele>423</ele>
        <time>2010-11-10T14:43:35Z</time>
      </trkpt>
      <trkpt lat="45.51952" lon="4.72964">
        <ele>423</ele>
        <time>2010-11-10T14:43:43Z</time>
      </trkpt>
      <trkpt lat="45.51944" lon="4.72973">
        <ele>424</ele>
        <time>2010-11-10T14:43:51Z</time>
      </trkpt>
      <trkpt lat="45.51936" lon="4.72981">
        <ele>424</ele>
        <time>2010-11-10T14:44:00Z</time>
      </trkpt>
      <trkpt lat="45.51928" lon="4.7299">
        <ele>426</ele>
        <time>2010-11-10T14:44:08Z</time>
      </trkpt>
      <trkpt lat="45.51921" lon="4.72999">
        <ele>427</ele>
        <time>2010-11-10T14:44:16Z</time>
      </trkpt>
      <trkpt lat="45.51913" lon="4.73008">
        <ele>429</ele>
        <time>2010-11-10T14:44:25Z</time>
      </trkpt>
      <trkpt lat="45.51906" lon="4.73018">
        <ele>429</ele>
        <time>2010-11-10T14:44:35Z</time>
      </trkpt>
      <trkpt lat="45.51898" lon="4.73027">
        <ele>430</ele>
        <time>2010-11-10T14:44:43Z</time>
      </trkpt>
      <trkpt lat="45.51891" lon="4.73036">
        <ele>430</ele>
        <time>2010-11-10T14:44:53Z</time>
      </trkpt>
      <trkpt lat="45.51884" lon="4.73045">
        <ele>431</ele>
        <time>2010-11-10T14:45:02Z</time>
      </trkpt>
      <trkpt lat="45.51877" lon="4.73055">
        <ele>431</ele>
        <time>2010-11-10T14:45:11Z</time>
      </trkpt>
      <trkpt lat="45.51869" lon="4.73065">
        <ele>432</ele>
        <time>2010-11-10T14:45:20Z</time>
      </trkpt>
      <trkpt lat="45.51861" lon="4.73073">
        <ele>432</ele>
        <time>2010-11-10T14:45:28Z</time>
      </trkpt>
      <trkpt lat="45.51853" lon="4.73081">
        <ele>433</ele>
        <time>2010-11-10T14:45:36Z</time>
      </trkpt>
      <trkpt lat="45.51847" lon="4.73091">
        <ele>435</ele>
        <time>2010-11-10T14:45:44Z</time>
      </trkpt>
      <trkpt lat="45.51839" lon="4.731">
        <ele>435</ele>
        <time>2010-11-10T14:45:52Z</time>
      </trkpt>
      <trkpt lat="45.51832" lon="4.73109">
        <ele>436</ele>
        <time>2010-11-10T14:46:00Z</time>
      </trkpt>
      <trkpt lat="45.51825" lon="4.73119">
        <ele>437</ele>
        <time>2010-11-10T14:46:08Z</time>
      </trkpt>
      <trkpt lat="45.51817" lon="4.73127">
        <ele>437</ele>
        <time>2010-11-10T14:46:16Z</time>
      </trkpt>
      <trkpt lat="45.5181" lon="4.73136">
        <ele>437</ele>
        <time>2010-11-10T14:46:24Z</time>
      </trkpt>
      <trkpt lat="45.51802" lon="4.73145">
        <ele>437</ele>
        <time>2010-11-10T14:46:32Z</time>
      </trkpt>
      <trkpt lat="45.51795" lon="4.73155">
        <ele>437</ele>
        <time>2010-11-10T14:46:41Z</time>
      </trkpt>
      <trkpt lat="45.51788" lon="4.73164">
        <ele>437</ele>
        <time>2010-11-10T14:46:48Z</time>
      </trkpt>
      <trkpt lat="45.5178" lon="4.73174">
        <ele>439</ele>
        <time>2010-11-10T14:46:56Z</time>
      </trkpt>
      <trkpt lat="45.51773" lon="4.73183">
        <ele>439</ele>
        <time>2010-11-10T14:47:04Z</time>
      </trkpt>
      <trkpt lat="45.51765" lon="4.73192">
        <ele>440</ele>
        <time>2010-11-10T14:47:13Z</time>
      </trkpt>
      <trkpt lat="45.51758" lon="4.73201">
        <ele>440</ele>
        <time>2010-11-10T14:47:21Z</time>
      </trkpt>
      <trkpt lat="45.51751" lon="4.73211">
        <ele>441</ele>
        <time>2010-11-10T14:47:30Z</time>
      </trkpt>
      <trkpt lat="45.51743" lon="4.73221">
        <ele>444</ele>
        <time>2010-11-10T14:47:39Z</time>
      </trkpt>
      <trkpt lat="45.51736" lon="4.73231">
        <ele>444</ele>
        <time>2010-11-10T14:47:48Z</time>
      </trkpt>
      <trkpt lat="45.51728" lon="4.73241">
        <ele>444</ele>
        <time>2010-11-10T14:47:57Z</time>
      </trkpt>
      <trkpt lat="45.51719" lon="4.73248">
        <ele>445</ele>
        <time>2010-11-10T14:48:06Z</time>
      </trkpt>
      <trkpt lat="45.51712" lon="4.73258">
        <ele>449</ele>
        <time>2010-11-10T14:48:14Z</time>
      </trkpt>
      <trkpt lat="45.51705" lon="4.73268">
        <ele>449</ele>
        <time>2010-11-10T14:48:22Z</time>
      </trkpt>
      <trkpt lat="45.51699" lon="4.73279">
        <ele>449</ele>
        <time>2010-11-10T14:48:30Z</time>
      </trkpt>
      <trkpt lat="45.51694" lon="4.73292">
        <ele>450</ele>
        <time>2010-11-10T14:48:39Z</time>
      </trkpt>
      <trkpt lat="45.51692" lon="4.73305">
        <ele>450</ele>
        <time>2010-11-10T14:48:50Z</time>
      </trkpt>
      <trkpt lat="45.51692" lon="4.7332">
        <ele>451</ele>
        <time>2010-11-10T14:48:59Z</time>
      </trkpt>
      <trkpt lat="45.51693" lon="4.73333">
        <ele>451</ele>
        <time>2010-11-10T14:49:11Z</time>
      </trkpt>
      <trkpt lat="45.51695" lon="4.73348">
        <ele>455</ele>
        <time>2010-11-10T14:49:20Z</time>
      </trkpt>
      <trkpt lat="45.51695" lon="4.73361">
        <ele>455</ele>
        <time>2010-11-10T14:49:29Z</time>
      </trkpt>
      <trkpt lat="45.51695" lon="4.73375">
        <ele>456</ele>
        <time>2010-11-10T14:49:38Z</time>
      </trkpt>
      <trkpt lat="45.51696" lon="4.73389">
        <ele>457</ele>
        <time>2010-11-10T14:49:47Z</time>
      </trkpt>
      <trkpt lat="45.51693" lon="4.73401">
        <ele>457</ele>
        <time>2010-11-10T14:49:55Z</time>
      </trkpt>
      <trkpt lat="45.5169" lon="4.73416">
        <ele>457</ele>
        <time>2010-11-10T14:50:03Z</time>
      </trkpt>
      <trkpt lat="45.51684" lon="4.73427">
        <ele>462</ele>
        <time>2010-11-10T14:50:12Z</time>
      </trkpt>
      <trkpt lat="45.51675" lon="4.7343">
        <ele>461</ele>
        <time>2010-11-10T14:50:27Z</time>
      </trkpt>
      <trkpt lat="45.51668" lon="4.7344">
        <ele>462</ele>
        <time>2010-11-10T14:50:35Z</time>
      </trkpt>
      <trkpt lat="45.51659" lon="4.73449">
        <ele>460</ele>
        <time>2010-11-10T14:50:43Z</time>
      </trkpt>
      <trkpt lat="45.51651" lon="4.73458">
        <ele>461</ele>
        <time>2010-11-10T14:50:51Z</time>
      </trkpt>
      <trkpt lat="45.51643" lon="4.73467">
        <ele>461</ele>
        <time>2010-11-10T14:50:58Z</time>
      </trkpt>
      <trkpt lat="45.51636" lon="4.73477">
        <ele>461</ele>
        <time>2010-11-10T14:51:05Z</time>
      </trkpt>
      <trkpt lat="45.51629" lon="4.73486">
        <ele>461</ele>
        <time>2010-11-10T14:51:12Z</time>
      </trkpt>
      <trkpt lat="45.51622" lon="4.73495">
        <ele>461</ele>
        <time>2010-11-10T14:51:20Z</time>
      </trkpt>
      <trkpt lat="45.51616" lon="4.73507">
        <ele>467</ele>
        <time>2010-11-10T14:51:29Z</time>
      </trkpt>
      <trkpt lat="45.51609" lon="4.73516">
        <ele>467</ele>
        <time>2010-11-10T14:51:37Z</time>
      </trkpt>
      <trkpt lat="45.51603" lon="4.73528">
        <ele>467</ele>
        <time>2010-11-10T14:51:45Z</time>
      </trkpt>
      <trkpt lat="45.51597" lon="4.73539">
        <ele>468</ele>
        <time>2010-11-10T14:51:53Z</time>
      </trkpt>
      <trkpt lat="45.51591" lon="4.7355">
        <ele>469</ele>
        <time>2010-11-10T14:52:01Z</time>
      </trkpt>
      <trkpt lat="45.51584" lon="4.7356">
        <ele>470</ele>
        <time>2010-11-10T14:52:15Z</time>
      </trkpt>
      <trkpt lat="45.51578" lon="4.73571">
        <ele>467</ele>
        <time>2010-11-10T14:52:32Z</time>
      </trkpt>
      <trkpt lat="45.51572" lon="4.73583">
        <ele>468</ele>
        <time>2010-11-10T14:52:39Z</time>
      </trkpt>
      <trkpt lat="45.51566" lon="4.73594">
        <ele>470</ele>
        <time>2010-11-10T14:52:47Z</time>
      </trkpt>
      <trkpt lat="45.51561" lon="4.73605">
        <ele>470</ele>
        <time>2010-11-10T14:52:55Z</time>
      </trkpt>
      <trkpt lat="45.51555" lon="4.73617">
        <ele>470</ele>
        <time>2010-11-10T14:53:03Z</time>
      </trkpt>
      <trkpt lat="45.51551" lon="4.7363">
        <ele>470</ele>
        <time>2010-11-10T14:53:11Z</time>
      </trkpt>
      <trkpt lat="45.51548" lon="4.73643">
        <ele>471</ele>
        <time>2010-11-10T14:53:18Z</time>
      </trkpt>
      <trkpt lat="45.51545" lon="4.73656">
        <ele>471</ele>
        <time>2010-11-10T14:53:25Z</time>
      </trkpt>
      <trkpt lat="45.51545" lon="4.7367">
        <ele>473</ele>
        <time>2010-11-10T14:53:34Z</time>
      </trkpt>
      <trkpt lat="45.51546" lon="4.73683">
        <ele>473</ele>
        <time>2010-11-10T14:53:43Z</time>
      </trkpt>
      <trkpt lat="45.51551" lon="4.73697">
        <ele>473</ele>
        <time>2010-11-10T14:53:53Z</time>
      </trkpt>
      <trkpt lat="45.51556" lon="4.73709">
        <ele>473</ele>
        <time>2010-11-10T14:54:01Z</time>
      </trkpt>
      <trkpt lat="45.51562" lon="4.73719">
        <ele>474</ele>
        <time>2010-11-10T14:54:08Z</time>
      </trkpt>
      <trkpt lat="45.51568" lon="4.73731">
        <ele>475</ele>
        <time>2010-11-10T14:54:16Z</time>
      </trkpt>
      <trkpt lat="45.51573" lon="4.73743">
        <ele>477</ele>
        <time>2010-11-10T14:54:27Z</time>
      </trkpt>
      <trkpt lat="45.51579" lon="4.73755">
        <ele>479</ele>
        <time>2010-11-10T14:54:36Z</time>
      </trkpt>
      <trkpt lat="45.51583" lon="4.7377">
        <ele>477</ele>
        <time>2010-11-10T14:54:44Z</time>
      </trkpt>
      <trkpt lat="45.51588" lon="4.73783">
        <ele>487</ele>
        <time>2010-11-10T14:54:51Z</time>
      </trkpt>
      <trkpt lat="45.51588" lon="4.73797">
        <ele>487</ele>
        <time>2010-11-10T14:54:58Z</time>
      </trkpt>
      <trkpt lat="45.51589" lon="4.7381">
        <ele>487</ele>
        <time>2010-11-10T14:55:05Z</time>
      </trkpt>
      <trkpt lat="45.51584" lon="4.73822">
        <ele>486</ele>
        <time>2010-11-10T14:55:12Z</time>
      </trkpt>
      <trkpt lat="45.51577" lon="4.73832">
        <ele>481</ele>
        <time>2010-11-10T14:55:21Z</time>
      </trkpt>
      <trkpt lat="45.51567" lon="4.73835">
        <ele>482</ele>
        <time>2010-11-10T14:55:29Z</time>
      </trkpt>
      <trkpt lat="45.51558" lon="4.73838">
        <ele>481</ele>
        <time>2010-11-10T14:55:37Z</time>
      </trkpt>
      <trkpt lat="45.51548" lon="4.7384">
        <ele>481</ele>
        <time>2010-11-10T14:55:47Z</time>
      </trkpt>
      <trkpt lat="45.51539" lon="4.73843">
        <ele>480</ele>
        <time>2010-11-10T14:56:11Z</time>
      </trkpt>
      <trkpt lat="45.5153" lon="4.73847">
        <ele>479</ele>
        <time>2010-11-10T14:56:27Z</time>
      </trkpt>
      <trkpt lat="45.5154" lon="4.73843">
        <ele>480</ele>
        <time>2010-11-10T14:58:02Z</time>
      </trkpt>
      <trkpt lat="45.5153" lon="4.73846">
        <ele>479</ele>
        <time>2010-11-10T14:59:20Z</time>
      </trkpt>
      <trkpt lat="45.5152" lon="4.73849">
        <ele>478</ele>
        <time>2010-11-10T14:59:29Z</time>
      </trkpt>
      <trkpt lat="45.51512" lon="4.73857">
        <ele>478</ele>
        <time>2010-11-10T14:59:37Z</time>
      </trkpt>
      <trkpt lat="45.51507" lon="4.73869">
        <ele>479</ele>
        <time>2010-11-10T14:59:46Z</time>
      </trkpt>
      <trkpt lat="45.515" lon="4.73879">
        <ele>473</ele>
        <time>2010-11-10T14:59:56Z</time>
      </trkpt>
      <trkpt lat="45.51501" lon="4.73893">
        <ele>480</ele>
        <time>2010-11-10T15:00:06Z</time>
      </trkpt>
      <trkpt lat="45.51494" lon="4.73883">
        <ele>473</ele>
        <time>2010-11-10T15:00:46Z</time>
      </trkpt>
      <trkpt lat="45.51484" lon="4.73888">
        <ele>473</ele>
        <time>2010-11-10T15:00:56Z</time>
      </trkpt>
      <trkpt lat="45.51476" lon="4.73894">
        <ele>473</ele>
        <time>2010-11-10T15:01:04Z</time>
      </trkpt>
      <trkpt lat="45.51466" lon="4.73898">
        <ele>473</ele>
        <time>2010-11-10T15:01:10Z</time>
      </trkpt>
      <trkpt lat="45.51457" lon="4.73907">
        <ele>472</ele>
        <time>2010-11-10T15:01:19Z</time>
      </trkpt>
      <trkpt lat="45.51449" lon="4.73916">
        <ele>472</ele>
        <time>2010-11-10T15:01:26Z</time>
      </trkpt>
      <trkpt lat="45.51441" lon="4.73925">
        <ele>475</ele>
        <time>2010-11-10T15:01:34Z</time>
      </trkpt>
      <trkpt lat="45.51433" lon="4.73932">
        <ele>475</ele>
        <time>2010-11-10T15:01:42Z</time>
      </trkpt>
      <trkpt lat="45.51436" lon="4.73945">
        <ele>475</ele>
        <time>2010-11-10T15:02:01Z</time>
      </trkpt>
      <trkpt lat="45.51444" lon="4.73953">
        <ele>476</ele>
        <time>2010-11-10T15:02:08Z</time>
      </trkpt>
      <trkpt lat="45.51452" lon="4.73962">
        <ele>477</ele>
        <time>2010-11-10T15:02:21Z</time>
      </trkpt>
      <trkpt lat="45.51458" lon="4.73972">
        <ele>477</ele>
        <time>2010-11-10T15:02:28Z</time>
      </trkpt>
      <trkpt lat="45.51464" lon="4.73983">
        <ele>478</ele>
        <time>2010-11-10T15:02:37Z</time>
      </trkpt>
      <trkpt lat="45.51471" lon="4.73993">
        <ele>479</ele>
        <time>2010-11-10T15:02:48Z</time>
      </trkpt>
      <trkpt lat="45.51478" lon="4.74001">
        <ele>481</ele>
        <time>2010-11-10T15:02:58Z</time>
      </trkpt>
      <trkpt lat="45.51487" lon="4.74004">
        <ele>482</ele>
        <time>2010-11-10T15:03:07Z</time>
      </trkpt>
      <trkpt lat="45.51496" lon="4.74006">
        <ele>484</ele>
        <time>2010-11-10T15:03:18Z</time>
      </trkpt>
      <trkpt lat="45.51506" lon="4.74009">
        <ele>489</ele>
        <time>2010-11-10T15:03:29Z</time>
      </trkpt>
      <trkpt lat="45.51515" lon="4.7401">
        <ele>491</ele>
        <time>2010-11-10T15:03:40Z</time>
      </trkpt>
      <trkpt lat="45.51525" lon="4.74012">
        <ele>492</ele>
        <time>2010-11-10T15:03:50Z</time>
      </trkpt>
      <trkpt lat="45.51534" lon="4.74017">
        <ele>494</ele>
        <time>2010-11-10T15:04:01Z</time>
      </trkpt>
      <trkpt lat="45.51543" lon="4.74019">
        <ele>495</ele>
        <time>2010-11-10T15:04:12Z</time>
      </trkpt>
      <trkpt lat="45.51553" lon="4.74019">
        <ele>496</ele>
        <time>2010-11-10T15:04:26Z</time>
      </trkpt>
      <trkpt lat="45.51561" lon="4.74027">
        <ele>497</ele>
        <time>2010-11-10T15:04:36Z</time>
      </trkpt>
      <trkpt lat="45.5157" lon="4.74035">
        <ele>498</ele>
        <time>2010-11-10T15:04:48Z</time>
      </trkpt>
      <trkpt lat="45.51577" lon="4.74044">
        <ele>498</ele>
        <time>2010-11-10T15:04:59Z</time>
      </trkpt>
      <trkpt lat="45.51585" lon="4.74053">
        <ele>509</ele>
        <time>2010-11-10T15:05:09Z</time>
      </trkpt>
      <trkpt lat="45.51591" lon="4.74063">
        <ele>509</ele>
        <time>2010-11-10T15:05:19Z</time>
      </trkpt>
      <trkpt lat="45.51596" lon="4.74074">
        <ele>508</ele>
        <time>2010-11-10T15:05:29Z</time>
      </trkpt>
      <trkpt lat="45.51604" lon="4.74081">
        <ele>509</ele>
        <time>2010-11-10T15:05:42Z</time>
      </trkpt>
      <trkpt lat="45.51609" lon="4.7407">
        <ele>510</ele>
        <time>2010-11-10T15:05:51Z</time>
      </trkpt>
      <trkpt lat="45.51614" lon="4.74058">
        <ele>510</ele>
        <time>2010-11-10T15:06:00Z</time>
      </trkpt>
      <trkpt lat="45.51621" lon="4.74048">
        <ele>511</ele>
        <time>2010-11-10T15:06:11Z</time>
      </trkpt>
      <trkpt lat="45.5163" lon="4.74046">
        <ele>512</ele>
        <time>2010-11-10T15:06:21Z</time>
      </trkpt>
      <trkpt lat="45.5164" lon="4.74044">
        <ele>512</ele>
        <time>2010-11-10T15:06:29Z</time>
      </trkpt>
      <trkpt lat="45.51649" lon="4.7405">
        <ele>513</ele>
        <time>2010-11-10T15:06:42Z</time>
      </trkpt>
      <trkpt lat="45.51654" lon="4.74062">
        <ele>514</ele>
        <time>2010-11-10T15:06:52Z</time>
      </trkpt>
      <trkpt lat="45.51659" lon="4.74073">
        <ele>516</ele>
        <time>2010-11-10T15:07:02Z</time>
      </trkpt>
      <trkpt lat="45.51668" lon="4.7408">
        <ele>519</ele>
        <time>2010-11-10T15:07:11Z</time>
      </trkpt>
      <trkpt lat="45.51675" lon="4.74088">
        <ele>519</ele>
        <time>2010-11-10T15:07:29Z</time>
      </trkpt>
      <trkpt lat="45.51681" lon="4.74098">
        <ele>519</ele>
        <time>2010-11-10T15:07:42Z</time>
      </trkpt>
      <trkpt lat="45.51688" lon="4.74108">
        <ele>519</ele>
        <time>2010-11-10T15:07:56Z</time>
      </trkpt>
      <trkpt lat="45.51698" lon="4.74111">
        <ele>519</ele>
        <time>2010-11-10T15:10:37Z</time>
      </trkpt>
      <trkpt lat="45.51707" lon="4.74106">
        <ele>520</ele>
        <time>2010-11-10T15:10:45Z</time>
      </trkpt>
      <trkpt lat="45.51717" lon="4.74101">
        <ele>520</ele>
        <time>2010-11-10T15:10:54Z</time>
      </trkpt>
      <trkpt lat="45.51726" lon="4.74098">
        <ele>521</ele>
        <time>2010-11-10T15:11:03Z</time>
      </trkpt>
      <trkpt lat="45.51736" lon="4.74097">
        <ele>522</ele>
        <time>2010-11-10T15:11:12Z</time>
      </trkpt>
      <trkpt lat="45.51745" lon="4.74099">
        <ele>522</ele>
        <time>2010-11-10T15:11:21Z</time>
      </trkpt>
      <trkpt lat="45.51755" lon="4.74099">
        <ele>523</ele>
        <time>2010-11-10T15:11:30Z</time>
      </trkpt>
      <trkpt lat="45.51765" lon="4.74099">
        <ele>523</ele>
        <time>2010-11-10T15:11:39Z</time>
      </trkpt>
      <trkpt lat="45.51775" lon="4.74099">
        <ele>523</ele>
        <time>2010-11-10T15:11:47Z</time>
      </trkpt>
      <trkpt lat="45.51784" lon="4.74099">
        <ele>522</ele>
        <time>2010-11-10T15:11:55Z</time>
      </trkpt>
      <trkpt lat="45.51794" lon="4.74099">
        <ele>522</ele>
        <time>2010-11-10T15:12:04Z</time>
      </trkpt>
      <trkpt lat="45.51802" lon="4.74107">
        <ele>522</ele>
        <time>2010-11-10T15:12:10Z</time>
      </trkpt>
      <trkpt lat="45.51812" lon="4.7411">
        <ele>522</ele>
        <time>2010-11-10T15:12:19Z</time>
      </trkpt>
      <trkpt lat="45.51824" lon="4.74109">
        <ele>522</ele>
        <time>2010-11-10T15:12:25Z</time>
      </trkpt>
      <trkpt lat="45.51834" lon="4.74113">
        <ele>520</ele>
        <time>2010-11-10T15:12:31Z</time>
      </trkpt>
      <trkpt lat="45.51843" lon="4.74114">
        <ele>519</ele>
        <time>2010-11-10T15:12:39Z</time>
      </trkpt>
      <trkpt lat="45.51853" lon="4.74117">
        <ele>519</ele>
        <time>2010-11-10T15:12:47Z</time>
      </trkpt>
      <trkpt lat="45.51862" lon="4.74114">
        <ele>519</ele>
        <time>2010-11-10T15:12:53Z</time>
      </trkpt>
      <trkpt lat="45.51872" lon="4.74116">
        <ele>518</ele>
        <time>2010-11-10T15:13:01Z</time>
      </trkpt>
      <trkpt lat="45.51881" lon="4.7412">
        <ele>518</ele>
        <time>2010-11-10T15:13:08Z</time>
      </trkpt>
      <trkpt lat="45.51891" lon="4.74121">
        <ele>518</ele>
        <time>2010-11-10T15:13:15Z</time>
      </trkpt>
      <trkpt lat="45.51901" lon="4.74118">
        <ele>517</ele>
        <time>2010-11-10T15:13:23Z</time>
      </trkpt>
      <trkpt lat="45.5191" lon="4.74119">
        <ele>517</ele>
        <time>2010-11-10T15:13:32Z</time>
      </trkpt>
      <trkpt lat="45.51921" lon="4.74125">
        <ele>515</ele>
        <time>2010-11-10T15:13:38Z</time>
      </trkpt>
      <trkpt lat="45.5193" lon="4.74131">
        <ele>515</ele>
        <time>2010-11-10T15:13:43Z</time>
      </trkpt>
      <trkpt lat="45.51937" lon="4.74123">
        <ele>514</ele>
        <time>2010-11-10T15:13:52Z</time>
      </trkpt>
      <trkpt lat="45.51946" lon="4.74126">
        <ele>514</ele>
        <time>2010-11-10T15:14:02Z</time>
      </trkpt>
      <trkpt lat="45.51956" lon="4.74128">
        <ele>514</ele>
        <time>2010-11-10T15:14:08Z</time>
      </trkpt>
      <trkpt lat="45.51966" lon="4.74131">
        <ele>514</ele>
        <time>2010-11-10T15:14:18Z</time>
      </trkpt>
      <trkpt lat="45.51975" lon="4.74135">
        <ele>514</ele>
        <time>2010-11-10T15:14:24Z</time>
      </trkpt>
      <trkpt lat="45.51983" lon="4.74143">
        <ele>514</ele>
        <time>2010-11-10T15:14:32Z</time>
      </trkpt>
      <trkpt lat="45.51991" lon="4.74152">
        <ele>514</ele>
        <time>2010-11-10T15:14:38Z</time>
      </trkpt>
      <trkpt lat="45.51998" lon="4.74161">
        <ele>514</ele>
        <time>2010-11-10T15:14:45Z</time>
      </trkpt>
      <trkpt lat="45.52007" lon="4.74166">
        <ele>513</ele>
        <time>2010-11-10T15:14:54Z</time>
      </trkpt>
      <trkpt lat="45.52015" lon="4.74176">
        <ele>512</ele>
        <time>2010-11-10T15:15:00Z</time>
      </trkpt>
      <trkpt lat="45.52022" lon="4.74187">
        <ele>511</ele>
        <time>2010-11-10T15:15:09Z</time>
      </trkpt>
      <trkpt lat="45.5203" lon="4.74195">
        <ele>510</ele>
        <time>2010-11-10T15:15:17Z</time>
      </trkpt>
      <trkpt lat="45.52039" lon="4.742">
        <ele>510</ele>
        <time>2010-11-10T15:16:07Z</time>
      </trkpt>
      <trkpt lat="45.52047" lon="4.74206">
        <ele>510</ele>
        <time>2010-11-10T15:16:18Z</time>
      </trkpt>
      <trkpt lat="45.52058" lon="4.74211">
        <ele>509</ele>
        <time>2010-11-10T15:16:26Z</time>
      </trkpt>
      <trkpt lat="45.52067" lon="4.74217">
        <ele>509</ele>
        <time>2010-11-10T15:16:33Z</time>
      </trkpt>
      <trkpt lat="45.52076" lon="4.74224">
        <ele>509</ele>
        <time>2010-11-10T15:16:41Z</time>
      </trkpt>
      <trkpt lat="45.52086" lon="4.74231">
        <ele>507</ele>
        <time>2010-11-10T15:16:50Z</time>
      </trkpt>
      <trkpt lat="45.52093" lon="4.7424">
        <ele>507</ele>
        <time>2010-11-10T15:16:59Z</time>
      </trkpt>
      <trkpt lat="45.521" lon="4.74249">
        <ele>506</ele>
        <time>2010-11-10T15:17:09Z</time>
      </trkpt>
      <trkpt lat="45.5211" lon="4.74255">
        <ele>504</ele>
        <time>2010-11-10T15:17:16Z</time>
      </trkpt>
      <trkpt lat="45.52118" lon="4.74262">
        <ele>503</ele>
        <time>2010-11-10T15:17:24Z</time>
      </trkpt>
      <trkpt lat="45.52127" lon="4.74271">
        <ele>503</ele>
        <time>2010-11-10T15:17:31Z</time>
      </trkpt>
      <trkpt lat="45.52136" lon="4.74278">
        <ele>502</ele>
        <time>2010-11-10T15:17:41Z</time>
      </trkpt>
      <trkpt lat="45.52144" lon="4.74286">
        <ele>502</ele>
        <time>2010-11-10T15:17:46Z</time>
      </trkpt>
      <trkpt lat="45.52153" lon="4.74292">
        <ele>502</ele>
        <time>2010-11-10T15:17:54Z</time>
      </trkpt>
      <trkpt lat="45.52163" lon="4.74296">
        <ele>502</ele>
        <time>2010-11-10T15:18:02Z</time>
      </trkpt>
      <trkpt lat="45.5217" lon="4.74304">
        <ele>500</ele>
        <time>2010-11-10T15:18:10Z</time>
      </trkpt>
      <trkpt lat="45.52177" lon="4.74314">
        <ele>500</ele>
        <time>2010-11-10T15:18:19Z</time>
      </trkpt>
      <trkpt lat="45.52176" lon="4.74328">
        <ele>500</ele>
        <time>2010-11-10T15:18:27Z</time>
      </trkpt>
      <trkpt lat="45.5217" lon="4.74339">
        <ele>500</ele>
        <time>2010-11-10T15:18:38Z</time>
      </trkpt>
      <trkpt lat="45.52161" lon="4.74338">
        <ele>498</ele>
        <time>2010-11-10T15:18:49Z</time>
      </trkpt>
      <trkpt lat="45.52152" lon="4.74344">
        <ele>497</ele>
        <time>2010-11-10T15:19:06Z</time>
      </trkpt>
      <trkpt lat="45.52143" lon="4.7435">
        <ele>496</ele>
        <time>2010-11-10T15:19:17Z</time>
      </trkpt>
      <trkpt lat="45.52134" lon="4.74346">
        <ele>496</ele>
        <time>2010-11-10T15:19:27Z</time>
      </trkpt>
      <trkpt lat="45.52124" lon="4.74341">
        <ele>495</ele>
        <time>2010-11-10T15:19:33Z</time>
      </trkpt>
      <trkpt lat="45.52113" lon="4.74341">
        <ele>495</ele>
        <time>2010-11-10T15:19:41Z</time>
      </trkpt>
      <trkpt lat="45.52104" lon="4.74341">
        <ele>495</ele>
        <time>2010-11-10T15:19:47Z</time>
      </trkpt>
      <trkpt lat="45.52094" lon="4.74339">
        <ele>496</ele>
        <time>2010-11-10T15:19:54Z</time>
      </trkpt>
      <trkpt lat="45.52085" lon="4.74337">
        <ele>496</ele>
        <time>2010-11-10T15:20:04Z</time>
      </trkpt>
      <trkpt lat="45.52076" lon="4.74336">
        <ele>494</ele>
        <time>2010-11-10T15:20:11Z</time>
      </trkpt>
      <trkpt lat="45.52067" lon="4.74332">
        <ele>499</ele>
        <time>2010-11-10T15:20:20Z</time>
      </trkpt>
      <trkpt lat="45.52057" lon="4.74333">
        <ele>499</ele>
        <time>2010-11-10T15:20:29Z</time>
      </trkpt>
      <trkpt lat="45.52047" lon="4.74329">
        <ele>499</ele>
        <time>2010-11-10T15:20:35Z</time>
      </trkpt>
      <trkpt lat="45.52037" lon="4.74328">
        <ele>498</ele>
        <time>2010-11-10T15:20:42Z</time>
      </trkpt>
      <trkpt lat="45.52028" lon="4.74331">
        <ele>498</ele>
        <time>2010-11-10T15:20:50Z</time>
      </trkpt>
      <trkpt lat="45.52018" lon="4.7433">
        <ele>497</ele>
        <time>2010-11-10T15:20:57Z</time>
      </trkpt>
      <trkpt lat="45.52008" lon="4.74329">
        <ele>495</ele>
        <time>2010-11-10T15:21:04Z</time>
      </trkpt>
      <trkpt lat="45.51998" lon="4.74328">
        <ele>494</ele>
        <time>2010-11-10T15:21:11Z</time>
      </trkpt>
      <trkpt lat="45.51989" lon="4.74332">
        <ele>495</ele>
        <time>2010-11-10T15:21:18Z</time>
      </trkpt>
      <trkpt lat="45.51979" lon="4.74336">
        <ele>487</ele>
        <time>2010-11-10T15:21:26Z</time>
      </trkpt>
      <trkpt lat="45.51969" lon="4.74337">
        <ele>486</ele>
        <time>2010-11-10T15:21:34Z</time>
      </trkpt>
      <trkpt lat="45.51959" lon="4.74342">
        <ele>486</ele>
        <time>2010-11-10T15:21:44Z</time>
      </trkpt>
      <trkpt lat="45.5195" lon="4.74346">
        <ele>485</ele>
        <time>2010-11-10T15:21:49Z</time>
      </trkpt>
      <trkpt lat="45.5194" lon="4.74346">
        <ele>486</ele>
        <time>2010-11-10T15:21:56Z</time>
      </trkpt>
      <trkpt lat="45.5193" lon="4.74345">
        <ele>487</ele>
        <time>2010-11-10T15:22:03Z</time>
      </trkpt>
      <trkpt lat="45.5192" lon="4.74346">
        <ele>488</ele>
        <time>2010-11-10T15:22:11Z</time>
      </trkpt>
      <trkpt lat="45.5191" lon="4.74346">
        <ele>488</ele>
        <time>2010-11-10T15:22:21Z</time>
      </trkpt>
      <trkpt lat="45.51901" lon="4.74341">
        <ele>488</ele>
        <time>2010-11-10T15:22:27Z</time>
      </trkpt>
      <trkpt lat="45.51891" lon="4.7434">
        <ele>487</ele>
        <time>2010-11-10T15:22:34Z</time>
      </trkpt>
      <trkpt lat="45.51882" lon="4.74338">
        <ele>487</ele>
        <time>2010-11-10T15:22:43Z</time>
      </trkpt>
      <trkpt lat="45.51872" lon="4.74343">
        <ele>487</ele>
        <time>2010-11-10T15:22:52Z</time>
      </trkpt>
      <trkpt lat="45.51862" lon="4.74349">
        <ele>487</ele>
        <time>2010-11-10T15:22:58Z</time>
      </trkpt>
      <trkpt lat="45.51854" lon="4.74355">
        <ele>487</ele>
        <time>2010-11-10T15:23:02Z</time>
      </trkpt>
      <trkpt lat="45.51846" lon="4.74363">
        <ele>486</ele>
        <time>2010-11-10T15:23:12Z</time>
      </trkpt>
      <trkpt lat="45.51841" lon="4.74374">
        <ele>484</ele>
        <time>2010-11-10T15:23:19Z</time>
      </trkpt>
      <trkpt lat="45.51836" lon="4.74388">
        <ele>482</ele>
        <time>2010-11-10T15:23:26Z</time>
      </trkpt>
      <trkpt lat="45.51833" lon="4.744">
        <ele>483</ele>
        <time>2010-11-10T15:23:32Z</time>
      </trkpt>
      <trkpt lat="45.51829" lon="4.74412">
        <ele>480</ele>
        <time>2010-11-10T15:23:39Z</time>
      </trkpt>
      <trkpt lat="45.51822" lon="4.74422">
        <ele>476</ele>
        <time>2010-11-10T15:23:45Z</time>
      </trkpt>
      <trkpt lat="45.51814" lon="4.74429">
        <ele>475</ele>
        <time>2010-11-10T15:23:51Z</time>
      </trkpt>
      <trkpt lat="45.51805" lon="4.74434">
        <ele>474</ele>
        <time>2010-11-10T15:23:58Z</time>
      </trkpt>
      <trkpt lat="45.51795" lon="4.74434">
        <ele>475</ele>
        <time>2010-11-10T15:24:06Z</time>
      </trkpt>
      <trkpt lat="45.51786" lon="4.74434">
        <ele>475</ele>
        <time>2010-11-10T15:24:13Z</time>
      </trkpt>
      <trkpt lat="45.51776" lon="4.74434">
        <ele>476</ele>
        <time>2010-11-10T15:24:20Z</time>
      </trkpt>
      <trkpt lat="45.51766" lon="4.74434">
        <ele>477</ele>
        <time>2010-11-10T15:24:27Z</time>
      </trkpt>
      <trkpt lat="45.51757" lon="4.74438">
        <ele>477</ele>
        <time>2010-11-10T15:24:33Z</time>
      </trkpt>
      <trkpt lat="45.51748" lon="4.74443">
        <ele>481</ele>
        <time>2010-11-10T15:24:40Z</time>
      </trkpt>
      <trkpt lat="45.5174" lon="4.7445">
        <ele>480</ele>
        <time>2010-11-10T15:24:47Z</time>
      </trkpt>
      <trkpt lat="45.51733" lon="4.7446">
        <ele>479</ele>
        <time>2010-11-10T15:24:54Z</time>
      </trkpt>
      <trkpt lat="45.51726" lon="4.7447">
        <ele>478</ele>
        <time>2010-11-10T15:25:02Z</time>
      </trkpt>
      <trkpt lat="45.51724" lon="4.74484">
        <ele>477</ele>
        <time>2010-11-10T15:25:09Z</time>
      </trkpt>
      <trkpt lat="45.51717" lon="4.74492">
        <ele>477</ele>
        <time>2010-11-10T15:25:17Z</time>
      </trkpt>
      <trkpt lat="45.51711" lon="4.74503">
        <ele>469</ele>
        <time>2010-11-10T15:25:25Z</time>
      </trkpt>
      <trkpt lat="45.51704" lon="4.74513">
        <ele>469</ele>
        <time>2010-11-10T15:25:33Z</time>
      </trkpt>
      <trkpt lat="45.51696" lon="4.74522">
        <ele>469</ele>
        <time>2010-11-10T15:25:42Z</time>
      </trkpt>
      <trkpt lat="45.5169" lon="4.74532">
        <ele>468</ele>
        <time>2010-11-10T15:26:20Z</time>
      </trkpt>
      <trkpt lat="45.51683" lon="4.74542">
        <ele>468</ele>
        <time>2010-11-10T15:26:38Z</time>
      </trkpt>
      <trkpt lat="45.51681" lon="4.74557">
        <ele>466</ele>
        <time>2010-11-10T15:27:23Z</time>
      </trkpt>
      <trkpt lat="45.5168" lon="4.7457">
        <ele>465</ele>
        <time>2010-11-10T15:27:31Z</time>
      </trkpt>
      <trkpt lat="45.51678" lon="4.74584">
        <ele>461</ele>
        <time>2010-11-10T15:27:41Z</time>
      </trkpt>
      <trkpt lat="45.51678" lon="4.74598">
        <ele>460</ele>
        <time>2010-11-10T15:27:51Z</time>
      </trkpt>
      <trkpt lat="45.51676" lon="4.74612">
        <ele>458</ele>
        <time>2010-11-10T15:28:01Z</time>
      </trkpt>
      <trkpt lat="45.51675" lon="4.74627">
        <ele>457</ele>
        <time>2010-11-10T15:28:10Z</time>
      </trkpt>
      <trkpt lat="45.51675" lon="4.7464">
        <ele>455</ele>
        <time>2010-11-10T15:28:18Z</time>
      </trkpt>
      <trkpt lat="45.51676" lon="4.74654">
        <ele>454</ele>
        <time>2010-11-10T15:28:25Z</time>
      </trkpt>
      <trkpt lat="45.51678" lon="4.74666">
        <ele>453</ele>
        <time>2010-11-10T15:28:34Z</time>
      </trkpt>
      <trkpt lat="45.51678" lon="4.74681">
        <ele>450</ele>
        <time>2010-11-10T15:28:44Z</time>
      </trkpt>
      <trkpt lat="45.51676" lon="4.74694">
        <ele>449</ele>
        <time>2010-11-10T15:28:53Z</time>
      </trkpt>
      <trkpt lat="45.51674" lon="4.74708">
        <ele>449</ele>
        <time>2010-11-10T15:29:02Z</time>
      </trkpt>
      <trkpt lat="45.51672" lon="4.74722">
        <ele>448</ele>
        <time>2010-11-10T15:29:09Z</time>
      </trkpt>
      <trkpt lat="45.5167" lon="4.74736">
        <ele>447</ele>
        <time>2010-11-10T15:29:17Z</time>
      </trkpt>
      <trkpt lat="45.51668" lon="4.7475">
        <ele>445</ele>
        <time>2010-11-10T15:29:26Z</time>
      </trkpt>
      <trkpt lat="45.51665" lon="4.74763">
        <ele>442</ele>
        <time>2010-11-10T15:29:33Z</time>
      </trkpt>
      <trkpt lat="45.51663" lon="4.74778">
        <ele>440</ele>
        <time>2010-11-10T15:29:41Z</time>
      </trkpt>
      <trkpt lat="45.51658" lon="4.7479">
        <ele>439</ele>
        <time>2010-11-10T15:29:53Z</time>
      </trkpt>
      <trkpt lat="45.51656" lon="4.74804">
        <ele>438</ele>
        <time>2010-11-10T15:30:00Z</time>
      </trkpt>
      <trkpt lat="45.51652" lon="4.74817">
        <ele>438</ele>
        <time>2010-11-10T15:30:09Z</time>
      </trkpt>
      <trkpt lat="45.51649" lon="4.7483">
        <ele>438</ele>
        <time>2010-11-10T15:30:17Z</time>
      </trkpt>
      <trkpt lat="45.51645" lon="4.74842">
        <ele>436</ele>
        <time>2010-11-10T15:30:25Z</time>
      </trkpt>
      <trkpt lat="45.5164" lon="4.74854">
        <ele>435</ele>
        <time>2010-11-10T15:30:32Z</time>
      </trkpt>
      <trkpt lat="45.51637" lon="4.74867">
        <ele>434</ele>
        <time>2010-11-10T15:30:39Z</time>
      </trkpt>
      <trkpt lat="45.51628" lon="4.74873">
        <ele>434</ele>
        <time>2010-11-10T15:30:47Z</time>
      </trkpt>
      <trkpt lat="45.51619" lon="4.74876">
        <ele>434</ele>
        <time>2010-11-10T15:30:54Z</time>
      </trkpt>
      <trkpt lat="45.5161" lon="4.74881">
        <ele>433</ele>
        <time>2010-11-10T15:31:01Z</time>
      </trkpt>
      <trkpt lat="45.51601" lon="4.74886">
        <ele>433</ele>
        <time>2010-11-10T15:31:09Z</time>
      </trkpt>
      <trkpt lat="45.51592" lon="4.74894">
        <ele>433</ele>
        <time>2010-11-10T15:31:17Z</time>
      </trkpt>
      <trkpt lat="45.51584" lon="4.74904">
        <ele>433</ele>
        <time>2010-11-10T15:31:25Z</time>
      </trkpt>
      <trkpt lat="45.51575" lon="4.74911">
        <ele>431</ele>
        <time>2010-11-10T15:31:31Z</time>
      </trkpt>
      <trkpt lat="45.51567" lon="4.7492">
        <ele>430</ele>
        <time>2010-11-10T15:31:38Z</time>
      </trkpt>
      <trkpt lat="45.5156" lon="4.74928">
        <ele>429</ele>
        <time>2010-11-10T15:31:45Z</time>
      </trkpt>
      <trkpt lat="45.51552" lon="4.74937">
        <ele>428</ele>
        <time>2010-11-10T15:31:52Z</time>
      </trkpt>
      <trkpt lat="45.51543" lon="4.74943">
        <ele>428</ele>
        <time>2010-11-10T15:32:01Z</time>
      </trkpt>
      <trkpt lat="45.51537" lon="4.74953">
        <ele>427</ele>
        <time>2010-11-10T15:32:08Z</time>
      </trkpt>
      <trkpt lat="45.5153" lon="4.74963">
        <ele>427</ele>
        <time>2010-11-10T15:32:15Z</time>
      </trkpt>
      <trkpt lat="45.51522" lon="4.74972">
        <ele>427</ele>
        <time>2010-11-10T15:32:22Z</time>
      </trkpt>
      <trkpt lat="45.51513" lon="4.74981">
        <ele>426</ele>
        <time>2010-11-10T15:32:29Z</time>
      </trkpt>
      <trkpt lat="45.51505" lon="4.74988">
        <ele>426</ele>
        <time>2010-11-10T15:32:36Z</time>
      </trkpt>
      <trkpt lat="45.51498" lon="4.74996">
        <ele>424</ele>
        <time>2010-11-10T15:32:42Z</time>
      </trkpt>
      <trkpt lat="45.51489" lon="4.75003">
        <ele>423</ele>
        <time>2010-11-10T15:32:49Z</time>
      </trkpt>
      <trkpt lat="45.51481" lon="4.75011">
        <ele>422</ele>
        <time>2010-11-10T15:32:57Z</time>
      </trkpt>
      <trkpt lat="45.51472" lon="4.7502">
        <ele>422</ele>
        <time>2010-11-10T15:33:04Z</time>
      </trkpt>
      <trkpt lat="45.51464" lon="4.75026">
        <ele>421</ele>
        <time>2010-11-10T15:33:11Z</time>
      </trkpt>
      <trkpt lat="45.51455" lon="4.75035">
        <ele>421</ele>
        <time>2010-11-10T15:33:19Z</time>
      </trkpt>
      <trkpt lat="45.51447" lon="4.75042">
        <ele>421</ele>
        <time>2010-11-10T15:33:27Z</time>
      </trkpt>
      <trkpt lat="45.51438" lon="4.7505">
        <ele>421</ele>
        <time>2010-11-10T15:33:35Z</time>
      </trkpt>
      <trkpt lat="45.5143" lon="4.75059">
        <ele>421</ele>
        <time>2010-11-10T15:33:42Z</time>
      </trkpt>
      <trkpt lat="45.51423" lon="4.75067">
        <ele>421</ele>
        <time>2010-11-10T15:33:49Z</time>
      </trkpt>
      <trkpt lat="45.51414" lon="4.75075">
        <ele>420</ele>
        <time>2010-11-10T15:33:57Z</time>
      </trkpt>
      <trkpt lat="45.51407" lon="4.75084">
        <ele>420</ele>
        <time>2010-11-10T15:34:04Z</time>
      </trkpt>
      <trkpt lat="45.51398" lon="4.75093">
        <ele>418</ele>
        <time>2010-11-10T15:34:12Z</time>
      </trkpt>
      <trkpt lat="45.5139" lon="4.75102">
        <ele>417</ele>
        <time>2010-11-10T15:34:19Z</time>
      </trkpt>
      <trkpt lat="45.51382" lon="4.75109">
        <ele>416</ele>
        <time>2010-11-10T15:34:27Z</time>
      </trkpt>
      <trkpt lat="45.51375" lon="4.75119">
        <ele>416</ele>
        <time>2010-11-10T15:34:35Z</time>
      </trkpt>
      <trkpt lat="45.51368" lon="4.75128">
        <ele>415</ele>
        <time>2010-11-10T15:34:43Z</time>
      </trkpt>
      <trkpt lat="45.5136" lon="4.75137">
        <ele>415</ele>
        <time>2010-11-10T15:34:51Z</time>
      </trkpt>
      <trkpt lat="45.51352" lon="4.75146">
        <ele>414</ele>
        <time>2010-11-10T15:34:59Z</time>
      </trkpt>
      <trkpt lat="45.51344" lon="4.75155">
        <ele>413</ele>
        <time>2010-11-10T15:35:06Z</time>
      </trkpt>
      <trkpt lat="45.51337" lon="4.75163">
        <ele>412</ele>
        <time>2010-11-10T15:35:21Z</time>
      </trkpt>
      <trkpt lat="45.51328" lon="4.75171">
        <ele>409</ele>
        <time>2010-11-10T15:35:31Z</time>
      </trkpt>
      <trkpt lat="45.5132" lon="4.75178">
        <ele>407</ele>
        <time>2010-11-10T15:35:39Z</time>
      </trkpt>
      <trkpt lat="45.51312" lon="4.75191">
        <ele>405</ele>
        <time>2010-11-10T15:35:48Z</time>
      </trkpt>
      <trkpt lat="45.51304" lon="4.75199">
        <ele>404</ele>
        <time>2010-11-10T15:35:56Z</time>
      </trkpt>
      <trkpt lat="45.51297" lon="4.75208">
        <ele>404</ele>
        <time>2010-11-10T15:36:04Z</time>
      </trkpt>
      <trkpt lat="45.51291" lon="4.7522">
        <ele>403</ele>
        <time>2010-11-10T15:36:13Z</time>
      </trkpt>
      <trkpt lat="45.51283" lon="4.75228">
        <ele>403</ele>
        <time>2010-11-10T15:36:22Z</time>
      </trkpt>
      <trkpt lat="45.51274" lon="4.75233">
        <ele>402</ele>
        <time>2010-11-10T15:36:32Z</time>
      </trkpt>
      <trkpt lat="45.51265" lon="4.75239">
        <ele>402</ele>
        <time>2010-11-10T15:36:40Z</time>
      </trkpt>
      <trkpt lat="45.51256" lon="4.75244">
        <ele>401</ele>
        <time>2010-11-10T15:36:49Z</time>
      </trkpt>
      <trkpt lat="45.51246" lon="4.75244">
        <ele>399</ele>
        <time>2010-11-10T15:37:00Z</time>
      </trkpt>
      <trkpt lat="45.51239" lon="4.75234">
        <ele>399</ele>
        <time>2010-11-10T15:37:09Z</time>
      </trkpt>
      <trkpt lat="45.5123" lon="4.75227">
        <ele>398</ele>
        <time>2010-11-10T15:37:32Z</time>
      </trkpt>
      <trkpt lat="45.5122" lon="4.75221">
        <ele>398</ele>
        <time>2010-11-10T15:37:41Z</time>
      </trkpt>
      <trkpt lat="45.51212" lon="4.75215">
        <ele>398</ele>
        <time>2010-11-10T15:37:49Z</time>
      </trkpt>
      <trkpt lat="45.51202" lon="4.75207">
        <ele>397</ele>
        <time>2010-11-10T15:37:57Z</time>
      </trkpt>
      <trkpt lat="45.51193" lon="4.752">
        <ele>397</ele>
        <time>2010-11-10T15:38:03Z</time>
      </trkpt>
      <trkpt lat="45.51184" lon="4.75192">
        <ele>396</ele>
        <time>2010-11-10T15:38:13Z</time>
      </trkpt>
      <trkpt lat="45.51176" lon="4.75187">
        <ele>396</ele>
        <time>2010-11-10T15:38:22Z</time>
      </trkpt>
      <trkpt lat="45.51166" lon="4.75189">
        <ele>392</ele>
        <time>2010-11-10T15:38:30Z</time>
      </trkpt>
      <trkpt lat="45.51157" lon="4.75194">
        <ele>391</ele>
        <time>2010-11-10T15:38:36Z</time>
      </trkpt>
      <trkpt lat="45.51148" lon="4.75201">
        <ele>391</ele>
        <time>2010-11-10T15:38:43Z</time>
      </trkpt>
      <trkpt lat="45.51139" lon="4.75207">
        <ele>390</ele>
        <time>2010-11-10T15:38:51Z</time>
      </trkpt>
      <trkpt lat="45.51131" lon="4.75215">
        <ele>390</ele>
        <time>2010-11-10T15:38:59Z</time>
      </trkpt>
      <trkpt lat="45.51122" lon="4.75221">
        <ele>390</ele>
        <time>2010-11-10T15:39:06Z</time>
      </trkpt>
      <trkpt lat="45.51113" lon="4.75229">
        <ele>389</ele>
        <time>2010-11-10T15:39:14Z</time>
      </trkpt>
      <trkpt lat="45.51104" lon="4.75237">
        <ele>389</ele>
        <time>2010-11-10T15:39:24Z</time>
      </trkpt>
      <trkpt lat="45.51095" lon="4.75242">
        <ele>389</ele>
        <time>2010-11-10T15:39:33Z</time>
      </trkpt>
      <trkpt lat="45.51087" lon="4.75248">
        <ele>388</ele>
        <time>2010-11-10T15:39:43Z</time>
      </trkpt>
      <trkpt lat="45.51078" lon="4.75253">
        <ele>386</ele>
        <time>2010-11-10T15:39:51Z</time>
      </trkpt>
      <trkpt lat="45.51069" lon="4.75259">
        <ele>385</ele>
        <time>2010-11-10T15:40:11Z</time>
      </trkpt>
      <trkpt lat="45.5106" lon="4.75264">
        <ele>383</ele>
        <time>2010-11-10T15:40:19Z</time>
      </trkpt>
      <trkpt lat="45.51052" lon="4.75272">
        <ele>383</ele>
        <time>2010-11-10T15:40:45Z</time>
      </trkpt>
      <trkpt lat="45.51044" lon="4.75277">
        <ele>382</ele>
        <time>2010-11-10T15:40:55Z</time>
      </trkpt>
      <trkpt lat="45.51034" lon="4.75281">
        <ele>381</ele>
        <time>2010-11-10T15:41:22Z</time>
      </trkpt>
      <trkpt lat="45.51025" lon="4.75286">
        <ele>381</ele>
        <time>2010-11-10T15:42:02Z</time>
      </trkpt>
      <trkpt lat="45.51016" lon="4.75291">
        <ele>381</ele>
        <time>2010-11-10T15:42:15Z</time>
      </trkpt>
      <trkpt lat="45.51008" lon="4.75298">
        <ele>380</ele>
        <time>2010-11-10T15:42:29Z</time>
      </trkpt>
      <trkpt lat="45.50999" lon="4.75303">
        <ele>376</ele>
        <time>2010-11-10T15:42:37Z</time>
      </trkpt>
      <trkpt lat="45.50989" lon="4.75309">
        <ele>376</ele>
        <time>2010-11-10T15:42:45Z</time>
      </trkpt>
      <trkpt lat="45.5098" lon="4.75314">
        <ele>375</ele>
        <time>2010-11-10T15:42:53Z</time>
      </trkpt>
      <trkpt lat="45.50972" lon="4.75318">
        <ele>375</ele>
        <time>2010-11-10T15:43:06Z</time>
      </trkpt>
      <trkpt lat="45.50963" lon="4.75325">
        <ele>374</ele>
        <time>2010-11-10T15:43:21Z</time>
      </trkpt>
      <trkpt lat="45.50956" lon="4.75335">
        <ele>372</ele>
        <time>2010-11-10T15:43:33Z</time>
      </trkpt>
      <trkpt lat="45.50952" lon="4.75347">
        <ele>371</ele>
        <time>2010-11-10T15:43:42Z</time>
      </trkpt>
      <trkpt lat="45.50949" lon="4.75362">
        <ele>371</ele>
        <time>2010-11-10T15:43:51Z</time>
      </trkpt>
      <trkpt lat="45.50948" lon="4.75376">
        <ele>370</ele>
        <time>2010-11-10T15:43:59Z</time>
      </trkpt>
      <trkpt lat="45.50949" lon="4.75389">
        <ele>370</ele>
        <time>2010-11-10T15:44:07Z</time>
      </trkpt>
      <trkpt lat="45.50952" lon="4.75402">
        <ele>369</ele>
        <time>2010-11-10T15:44:14Z</time>
      </trkpt>
      <trkpt lat="45.50953" lon="4.75415">
        <ele>369</ele>
        <time>2010-11-10T15:44:24Z</time>
      </trkpt>
      <trkpt lat="45.50952" lon="4.75429">
        <ele>364</ele>
        <time>2010-11-10T15:45:31Z</time>
      </trkpt>
      <trkpt lat="45.50943" lon="4.75434">
        <ele>364</ele>
        <time>2010-11-10T15:45:43Z</time>
      </trkpt>
      <trkpt lat="45.50934" lon="4.7544">
        <ele>364</ele>
        <time>2010-11-10T15:45:54Z</time>
      </trkpt>
      <trkpt lat="45.50925" lon="4.75443">
        <ele>364</ele>
        <time>2010-11-10T15:46:04Z</time>
      </trkpt>
      <trkpt lat="45.50915" lon="4.75445">
        <ele>362</ele>
        <time>2010-11-10T15:46:15Z</time>
      </trkpt>
      <trkpt lat="45.50904" lon="4.75446">
        <ele>361</ele>
        <time>2010-11-10T15:46:23Z</time>
      </trkpt>
      <trkpt lat="45.50895" lon="4.7545">
        <ele>360</ele>
        <time>2010-11-10T15:46:31Z</time>
      </trkpt>
      <trkpt lat="45.50886" lon="4.75451">
        <ele>360</ele>
        <time>2010-11-10T15:46:43Z</time>
      </trkpt>
      <trkpt lat="45.50876" lon="4.75452">
        <ele>359</ele>
        <time>2010-11-10T15:46:52Z</time>
      </trkpt>
      <trkpt lat="45.50866" lon="4.75454">
        <ele>358</ele>
        <time>2010-11-10T15:46:59Z</time>
      </trkpt>
      <trkpt lat="45.50856" lon="4.75454">
        <ele>358</ele>
        <time>2010-11-10T15:47:08Z</time>
      </trkpt>
      <trkpt lat="45.50846" lon="4.75453">
        <ele>358</ele>
        <time>2010-11-10T15:47:17Z</time>
      </trkpt>
      <trkpt lat="45.50836" lon="4.75453">
        <ele>357</ele>
        <time>2010-11-10T15:47:27Z</time>
      </trkpt>
      <trkpt lat="45.50826" lon="4.75452">
        <ele>353</ele>
        <time>2010-11-10T15:47:36Z</time>
      </trkpt>
      <trkpt lat="45.50817" lon="4.75451">
        <ele>353</ele>
        <time>2010-11-10T15:47:45Z</time>
      </trkpt>
      <trkpt lat="45.50807" lon="4.7545">
        <ele>353</ele>
        <time>2010-11-10T15:47:54Z</time>
      </trkpt>
      <trkpt lat="45.50797" lon="4.7545">
        <ele>352</ele>
        <time>2010-11-10T15:48:02Z</time>
      </trkpt>
      <trkpt lat="45.50788" lon="4.75448">
        <ele>352</ele>
        <time>2010-11-10T15:48:09Z</time>
      </trkpt>
      <trkpt lat="45.50779" lon="4.75442">
        <ele>352</ele>
        <time>2010-11-10T15:48:17Z</time>
      </trkpt>
      <trkpt lat="45.5077" lon="4.75439">
        <ele>352</ele>
        <time>2010-11-10T15:48:29Z</time>
      </trkpt>
      <trkpt lat="45.50761" lon="4.7544">
        <ele>351</ele>
        <time>2010-11-10T15:48:44Z</time>
      </trkpt>
      <trkpt lat="45.50753" lon="4.75449">
        <ele>351</ele>
        <time>2010-11-10T15:49:18Z</time>
      </trkpt>
      <trkpt lat="45.50756" lon="4.75436">
        <ele>351</ele>
        <time>2010-11-10T15:49:47Z</time>
      </trkpt>
      <trkpt lat="45.50748" lon="4.75426">
        <ele>350</ele>
        <time>2010-11-10T15:49:58Z</time>
      </trkpt>
      <trkpt lat="45.50739" lon="4.75423">
        <ele>351</ele>
        <time>2010-11-10T15:50:08Z</time>
      </trkpt>
      <trkpt lat="45.5073" lon="4.75419">
        <ele>351</ele>
        <time>2010-11-10T15:50:16Z</time>
      </trkpt>
      <trkpt lat="45.50721" lon="4.75413">
        <ele>356</ele>
        <time>2010-11-10T15:50:24Z</time>
      </trkpt>
      <trkpt lat="45.50713" lon="4.75405">
        <ele>357</ele>
        <time>2010-11-10T15:50:33Z</time>
      </trkpt>
      <trkpt lat="45.50703" lon="4.754">
        <ele>357</ele>
        <time>2010-11-10T15:50:45Z</time>
      </trkpt>
      <trkpt lat="45.50694" lon="4.75396">
        <ele>358</ele>
        <time>2010-11-10T15:50:59Z</time>
      </trkpt>
      <trkpt lat="45.50684" lon="4.75393">
        <ele>358</ele>
        <time>2010-11-10T15:51:11Z</time>
      </trkpt>
      <trkpt lat="45.50675" lon="4.75387">
        <ele>359</ele>
        <time>2010-11-10T15:51:20Z</time>
      </trkpt>
      <trkpt lat="45.50666" lon="4.75381">
        <ele>358</ele>
        <time>2010-11-10T15:51:33Z</time>
      </trkpt>
      <trkpt lat="45.50657" lon="4.75377">
        <ele>358</ele>
        <time>2010-11-10T15:51:39Z</time>
      </trkpt>
      <trkpt lat="45.50648" lon="4.75374">
        <ele>358</ele>
        <time>2010-11-10T15:51:48Z</time>
      </trkpt>
      <trkpt lat="45.50638" lon="4.75372">
        <ele>358</ele>
        <time>2010-11-10T15:51:55Z</time>
      </trkpt>
      <trkpt lat="45.50629" lon="4.7537">
        <ele>358</ele>
        <time>2010-11-10T15:52:03Z</time>
      </trkpt>
      <trkpt lat="45.50637" lon="4.75362">
        <ele>359</ele>
        <time>2010-11-10T15:52:26Z</time>
      </trkpt>
      <trkpt lat="45.50647" lon="4.75361">
        <ele>360</ele>
        <time>2010-11-10T15:52:36Z</time>
      </trkpt>
      <trkpt lat="45.50656" lon="4.75355">
        <ele>361</ele>
        <time>2010-11-10T15:52:46Z</time>
      </trkpt>
      <trkpt lat="45.50664" lon="4.75347">
        <ele>363</ele>
        <time>2010-11-10T15:52:55Z</time>
      </trkpt>
      <trkpt lat="45.50667" lon="4.75334">
        <ele>368</ele>
        <time>2010-11-10T15:53:05Z</time>
      </trkpt>
      <trkpt lat="45.50667" lon="4.7532">
        <ele>369</ele>
        <time>2010-11-10T15:53:21Z</time>
      </trkpt>
      <trkpt lat="45.50667" lon="4.75307">
        <ele>367</ele>
        <time>2010-11-10T15:53:32Z</time>
      </trkpt>
      <trkpt lat="45.50663" lon="4.75293">
        <ele>368</ele>
        <time>2010-11-10T15:53:42Z</time>
      </trkpt>
      <trkpt lat="45.50661" lon="4.7528">
        <ele>369</ele>
        <time>2010-11-10T15:53:53Z</time>
      </trkpt>
      <trkpt lat="45.50663" lon="4.75267">
        <ele>370</ele>
        <time>2010-11-10T15:54:06Z</time>
      </trkpt>
      <trkpt lat="45.5067" lon="4.75257">
        <ele>373</ele>
        <time>2010-11-10T15:54:21Z</time>
      </trkpt>
      <trkpt lat="45.50672" lon="4.75244">
        <ele>375</ele>
        <time>2010-11-10T15:54:30Z</time>
      </trkpt>
      <trkpt lat="45.50669" lon="4.75231">
        <ele>376</ele>
        <time>2010-11-10T15:54:42Z</time>
      </trkpt>
      <trkpt lat="45.50663" lon="4.75221">
        <ele>374</ele>
        <time>2010-11-10T15:54:51Z</time>
      </trkpt>
      <trkpt lat="45.50656" lon="4.75211">
        <ele>374</ele>
        <time>2010-11-10T15:55:00Z</time>
      </trkpt>
      <trkpt lat="45.5065" lon="4.752">
        <ele>374</ele>
        <time>2010-11-10T15:55:09Z</time>
      </trkpt>
      <trkpt lat="45.50641" lon="4.75193">
        <ele>374</ele>
        <time>2010-11-10T15:55:29Z</time>
      </trkpt>
      <trkpt lat="45.50632" lon="4.75188">
        <ele>374</ele>
        <time>2010-11-10T15:55:36Z</time>
      </trkpt>
      <trkpt lat="45.50623" lon="4.75182">
        <ele>373</ele>
        <time>2010-11-10T15:55:45Z</time>
      </trkpt>
      <trkpt lat="45.50616" lon="4.75172">
        <ele>373</ele>
        <time>2010-11-10T15:55:54Z</time>
      </trkpt>
      <trkpt lat="45.5061" lon="4.7516">
        <ele>375</ele>
        <time>2010-11-10T15:56:02Z</time>
      </trkpt>
      <trkpt lat="45.50605" lon="4.75149">
        <ele>375</ele>
        <time>2010-11-10T15:56:10Z</time>
      </trkpt>
      <trkpt lat="45.50596" lon="4.7514">
        <ele>375</ele>
        <time>2010-11-10T15:56:18Z</time>
      </trkpt>
      <trkpt lat="45.50591" lon="4.75129">
        <ele>375</ele>
        <time>2010-11-10T15:56:25Z</time>
      </trkpt>
      <trkpt lat="45.50589" lon="4.75115">
        <ele>375</ele>
        <time>2010-11-10T15:56:35Z</time>
      </trkpt>
      <trkpt lat="45.50586" lon="4.75102">
        <ele>374</ele>
        <time>2010-11-10T15:56:43Z</time>
      </trkpt>
      <trkpt lat="45.50581" lon="4.75088">
        <ele>372</ele>
        <time>2010-11-10T15:56:53Z</time>
      </trkpt>
      <trkpt lat="45.5058" lon="4.75073">
        <ele>370</ele>
        <time>2010-11-10T15:57:02Z</time>
      </trkpt>
      <trkpt lat="45.50577" lon="4.75059">
        <ele>368</ele>
        <time>2010-11-10T15:57:10Z</time>
      </trkpt>
      <trkpt lat="45.50578" lon="4.75045">
        <ele>368</ele>
        <time>2010-11-10T15:57:17Z</time>
      </trkpt>
      <trkpt lat="45.50581" lon="4.75032">
        <ele>367</ele>
        <time>2010-11-10T15:57:25Z</time>
      </trkpt>
      <trkpt lat="45.50583" lon="4.75019">
        <ele>368</ele>
        <time>2010-11-10T15:57:33Z</time>
      </trkpt>
      <trkpt lat="45.50586" lon="4.75007">
        <ele>370</ele>
        <time>2010-11-10T15:57:40Z</time>
      </trkpt>
      <trkpt lat="45.50591" lon="4.74996">
        <ele>369</ele>
        <time>2010-11-10T15:57:47Z</time>
      </trkpt>
      <trkpt lat="45.50598" lon="4.74984">
        <ele>369</ele>
        <time>2010-11-10T15:57:56Z</time>
      </trkpt>
      <trkpt lat="45.50604" lon="4.74974">
        <ele>369</ele>
        <time>2010-11-10T15:58:04Z</time>
      </trkpt>
      <trkpt lat="45.50613" lon="4.74967">
        <ele>369</ele>
        <time>2010-11-10T15:58:12Z</time>
      </trkpt>
      <trkpt lat="45.50622" lon="4.7496">
        <ele>369</ele>
        <time>2010-11-10T15:58:19Z</time>
      </trkpt>
      <trkpt lat="45.50631" lon="4.74956">
        <ele>369</ele>
        <time>2010-11-10T15:58:26Z</time>
      </trkpt>
      <trkpt lat="45.5064" lon="4.7495">
        <ele>370</ele>
        <time>2010-11-10T15:58:33Z</time>
      </trkpt>
      <trkpt lat="45.50649" lon="4.74945">
        <ele>370</ele>
        <time>2010-11-10T15:58:41Z</time>
      </trkpt>
      <trkpt lat="45.50658" lon="4.74937">
        <ele>370</ele>
        <time>2010-11-10T15:58:51Z</time>
      </trkpt>
      <trkpt lat="45.50659" lon="4.74922">
        <ele>370</ele>
        <time>2010-11-10T15:58:59Z</time>
      </trkpt>
      <trkpt lat="45.50656" lon="4.74909">
        <ele>369</ele>
        <time>2010-11-10T15:59:06Z</time>
      </trkpt>
      <trkpt lat="45.50655" lon="4.74894">
        <ele>369</ele>
        <time>2010-11-10T15:59:14Z</time>
      </trkpt>
      <trkpt lat="45.50654" lon="4.74881">
        <ele>369</ele>
        <time>2010-11-10T15:59:25Z</time>
      </trkpt>
      <trkpt lat="45.50656" lon="4.74867">
        <ele>369</ele>
        <time>2010-11-10T15:59:35Z</time>
      </trkpt>
      <trkpt lat="45.50655" lon="4.74852">
        <ele>370</ele>
        <time>2010-11-10T15:59:43Z</time>
      </trkpt>
      <trkpt lat="45.50649" lon="4.74841">
        <ele>370</ele>
        <time>2010-11-10T15:59:51Z</time>
      </trkpt>
      <trkpt lat="45.50639" lon="4.7484">
        <ele>370</ele>
        <time>2010-11-10T15:59:59Z</time>
      </trkpt>
      <trkpt lat="45.50631" lon="4.74843">
        <ele>369</ele>
        <time>2010-11-10T16:00:08Z</time>
      </trkpt>
      <trkpt lat="45.50622" lon="4.74849">
        <ele>369</ele>
        <time>2010-11-10T16:00:16Z</time>
      </trkpt>
      <trkpt lat="45.50612" lon="4.74849">
        <ele>369</ele>
        <time>2010-11-10T16:00:23Z</time>
      </trkpt>
      <trkpt lat="45.50601" lon="4.7485">
        <ele>369</ele>
        <time>2010-11-10T16:00:31Z</time>
      </trkpt>
      <trkpt lat="45.50592" lon="4.74855">
        <ele>369</ele>
        <time>2010-11-10T16:00:39Z</time>
      </trkpt>
      <trkpt lat="45.50583" lon="4.74859">
        <ele>370</ele>
        <time>2010-11-10T16:00:46Z</time>
      </trkpt>
      <trkpt lat="45.50574" lon="4.74865">
        <ele>369</ele>
        <time>2010-11-10T16:00:54Z</time>
      </trkpt>
      <trkpt lat="45.50565" lon="4.74871">
        <ele>369</ele>
        <time>2010-11-10T16:01:02Z</time>
      </trkpt>
      <trkpt lat="45.50556" lon="4.74877">
        <ele>369</ele>
        <time>2010-11-10T16:01:10Z</time>
      </trkpt>
      <trkpt lat="45.50546" lon="4.74881">
        <ele>369</ele>
        <time>2010-11-10T16:01:18Z</time>
      </trkpt>
      <trkpt lat="45.50537" lon="4.74883">
        <ele>369</ele>
        <time>2010-11-10T16:01:25Z</time>
      </trkpt>
      <trkpt lat="45.50527" lon="4.74884">
        <ele>370</ele>
        <time>2010-11-10T16:01:33Z</time>
      </trkpt>
      <trkpt lat="45.50517" lon="4.74884">
        <ele>370</ele>
        <time>2010-11-10T16:01:40Z</time>
      </trkpt>
      <trkpt lat="45.50507" lon="4.74886">
        <ele>370</ele>
        <time>2010-11-10T16:01:47Z</time>
      </trkpt>
      <trkpt lat="45.50498" lon="4.74891">
        <ele>373</ele>
        <time>2010-11-10T16:01:55Z</time>
      </trkpt>
      <trkpt lat="45.50489" lon="4.74897">
        <ele>373</ele>
        <time>2010-11-10T16:02:04Z</time>
      </trkpt>
      <trkpt lat="45.5048" lon="4.74903">
        <ele>373</ele>
        <time>2010-11-10T16:02:14Z</time>
      </trkpt>
      <trkpt lat="45.50472" lon="4.74909">
        <ele>374</ele>
        <time>2010-11-10T16:02:22Z</time>
      </trkpt>
      <trkpt lat="45.50463" lon="4.74912">
        <ele>374</ele>
        <time>2010-11-10T16:02:29Z</time>
      </trkpt>
      <trkpt lat="45.50454" lon="4.74921">
        <ele>370</ele>
        <time>2010-11-10T16:02:38Z</time>
      </trkpt>
      <trkpt lat="45.50445" lon="4.74927">
        <ele>371</ele>
        <time>2010-11-10T16:02:46Z</time>
      </trkpt>
      <trkpt lat="45.50437" lon="4.74936">
        <ele>371</ele>
        <time>2010-11-10T16:02:54Z</time>
      </trkpt>
      <trkpt lat="45.5043" lon="4.74927">
        <ele>373</ele>
        <time>2010-11-10T16:03:06Z</time>
      </trkpt>
      <trkpt lat="45.5043" lon="4.74912">
        <ele>376</ele>
        <time>2010-11-10T16:03:15Z</time>
      </trkpt>
      <trkpt lat="45.50428" lon="4.74899">
        <ele>376</ele>
        <time>2010-11-10T16:03:23Z</time>
      </trkpt>
      <trkpt lat="45.50426" lon="4.74885">
        <ele>377</ele>
        <time>2010-11-10T16:03:32Z</time>
      </trkpt>
      <trkpt lat="45.5042" lon="4.74874">
        <ele>377</ele>
        <time>2010-11-10T16:03:40Z</time>
      </trkpt>
      <trkpt lat="45.50411" lon="4.74867">
        <ele>379</ele>
        <time>2010-11-10T16:03:48Z</time>
      </trkpt>
      <trkpt lat="45.50402" lon="4.74868">
        <ele>379</ele>
        <time>2010-11-10T16:03:55Z</time>
      </trkpt>
      <trkpt lat="45.50392" lon="4.74869">
        <ele>379</ele>
        <time>2010-11-10T16:04:02Z</time>
      </trkpt>
      <trkpt lat="45.50382" lon="4.74868">
        <ele>379</ele>
        <time>2010-11-10T16:04:08Z</time>
      </trkpt>
      <trkpt lat="45.50373" lon="4.74862">
        <ele>379</ele>
        <time>2010-11-10T16:04:16Z</time>
      </trkpt>
      <trkpt lat="45.50367" lon="4.74852">
        <ele>379</ele>
        <time>2010-11-10T16:04:25Z</time>
      </trkpt>
      <trkpt lat="45.50356" lon="4.74851">
        <ele>379</ele>
        <time>2010-11-10T16:04:35Z</time>
      </trkpt>
      <trkpt lat="45.50346" lon="4.74854">
        <ele>379</ele>
        <time>2010-11-10T16:04:39Z</time>
      </trkpt>
      <trkpt lat="45.50339" lon="4.74864">
        <ele>379</ele>
        <time>2010-11-10T16:04:45Z</time>
      </trkpt>
      <trkpt lat="45.50332" lon="4.74876">
        <ele>375</ele>
        <time>2010-11-10T16:04:53Z</time>
      </trkpt>
      <trkpt lat="45.50326" lon="4.74888">
        <ele>376</ele>
        <time>2010-11-10T16:05:02Z</time>
      </trkpt>
      <trkpt lat="45.50318" lon="4.74897">
        <ele>376</ele>
        <time>2010-11-10T16:05:11Z</time>
      </trkpt>
      <trkpt lat="45.5031" lon="4.74905">
        <ele>376</ele>
        <time>2010-11-10T16:05:21Z</time>
      </trkpt>
      <trkpt lat="45.50302" lon="4.74913">
        <ele>375</ele>
        <time>2010-11-10T16:05:30Z</time>
      </trkpt>
      <trkpt lat="45.50296" lon="4.74925">
        <ele>376</ele>
        <time>2010-11-10T16:05:39Z</time>
      </trkpt>
      <trkpt lat="45.50291" lon="4.74937">
        <ele>375</ele>
        <time>2010-11-10T16:05:49Z</time>
      </trkpt>
      <trkpt lat="45.50284" lon="4.74946">
        <ele>375</ele>
        <time>2010-11-10T16:05:55Z</time>
      </trkpt>
      <trkpt lat="45.50277" lon="4.74957">
        <ele>375</ele>
        <time>2010-11-10T16:06:02Z</time>
      </trkpt>
      <trkpt lat="45.50274" lon="4.7497">
        <ele>375</ele>
        <time>2010-11-10T16:06:09Z</time>
      </trkpt>
      <trkpt lat="45.50267" lon="4.74982">
        <ele>374</ele>
        <time>2010-11-10T16:06:16Z</time>
      </trkpt>
      <trkpt lat="45.5026" lon="4.74991">
        <ele>374</ele>
        <time>2010-11-10T16:06:24Z</time>
      </trkpt>
      <trkpt lat="45.50254" lon="4.75002">
        <ele>373</ele>
        <time>2010-11-10T16:06:34Z</time>
      </trkpt>
      <trkpt lat="45.50249" lon="4.75015">
        <ele>370</ele>
        <time>2010-11-10T16:06:42Z</time>
      </trkpt>
      <trkpt lat="45.50243" lon="4.75026">
        <ele>368</ele>
        <time>2010-11-10T16:06:49Z</time>
      </trkpt>
      <trkpt lat="45.50239" lon="4.75038">
        <ele>367</ele>
        <time>2010-11-10T16:06:58Z</time>
      </trkpt>
      <trkpt lat="45.50233" lon="4.75051">
        <ele>367</ele>
        <time>2010-11-10T16:07:08Z</time>
      </trkpt>
      <trkpt lat="45.50229" lon="4.75063">
        <ele>367</ele>
        <time>2010-11-10T16:07:16Z</time>
      </trkpt>
      <trkpt lat="45.50222" lon="4.75073">
        <ele>366</ele>
        <time>2010-11-10T16:07:23Z</time>
      </trkpt>
      <trkpt lat="45.50215" lon="4.75082">
        <ele>366</ele>
        <time>2010-11-10T16:07:30Z</time>
      </trkpt>
      <trkpt lat="45.50208" lon="4.75092">
        <ele>365</ele>
        <time>2010-11-10T16:07:39Z</time>
      </trkpt>
      <trkpt lat="45.50203" lon="4.75104">
        <ele>364</ele>
        <time>2010-11-10T16:07:49Z</time>
      </trkpt>
      <trkpt lat="45.50197" lon="4.75115">
        <ele>364</ele>
        <time>2010-11-10T16:07:58Z</time>
      </trkpt>
      <trkpt lat="45.50187" lon="4.75119">
        <ele>363</ele>
        <time>2010-11-10T16:08:08Z</time>
      </trkpt>
      <trkpt lat="45.50179" lon="4.75126">
        <ele>363</ele>
        <time>2010-11-10T16:08:16Z</time>
      </trkpt>
      <trkpt lat="45.50171" lon="4.75135">
        <ele>363</ele>
        <time>2010-11-10T16:08:24Z</time>
      </trkpt>
      <trkpt lat="45.50162" lon="4.75142">
        <ele>357</ele>
        <time>2010-11-10T16:08:32Z</time>
      </trkpt>
      <trkpt lat="45.50153" lon="4.75141">
        <ele>356</ele>
        <time>2010-11-10T16:08:40Z</time>
      </trkpt>
      <trkpt lat="45.50143" lon="4.75144">
        <ele>356</ele>
        <time>2010-11-10T16:08:53Z</time>
      </trkpt>
    </trkseg>
  </trk>
</gpx>